<?xml version="1.0" encoding="UTF-8" standalone="no" ?>
<gpx xmlns="http://www.topografix.com/GPX/1/1" xmlns:xsi="http://www.w3.org/2001/XMLSchema-instance" xsi:schemaLocation="http://www.topografix.com/GPX/1/1 http://www.topografix.com/GPX/1/1/gpx.xsd" version="1.1" creator="VisuGPX - https://www.visugpx.com">
  <metadata>
    <name>2019-05-12 Le Viaduc de Millau</name>
    <desc><![CDATA[le viaduc de Millau  :  boucle au départ de creissels , et passe par cascade de l'Homède  ,   17km et 700m dénivelé]]></desc>
  </metadata>
  <wpt lat="44.06144" lon="3.04749">
    <ele>775</ele>
    <name><![CDATA[déjeuner]]></name>
  </wpt>
  <trk>
    <name><![CDATA[2019-05-12 Le Viaduc de Millau]]></name>
    <trkseg>
      <trkpt lat="44.08549" lon="3.06188">
        <ele>383</ele>
        <time>2019-05-12T09:14:24+02:00</time>
      </trkpt>
      <trkpt lat="44.08544" lon="3.06176">
        <ele>382</ele>
        <time>2019-05-12T09:18:31+02:00</time>
      </trkpt>
      <trkpt lat="44.08551" lon="3.06185">
        <ele>383</ele>
        <time>2019-05-12T09:20:16+02:00</time>
      </trkpt>
      <trkpt lat="44.08544" lon="3.06193">
        <ele>383</ele>
        <time>2019-05-12T09:24:04+02:00</time>
      </trkpt>
      <trkpt lat="44.08545" lon="3.06181">
        <ele>383</ele>
        <time>2019-05-12T09:25:04+02:00</time>
      </trkpt>
      <trkpt lat="44.08552" lon="3.06173">
        <ele>383</ele>
        <time>2019-05-12T09:27:18+02:00</time>
      </trkpt>
      <trkpt lat="44.08545" lon="3.0618">
        <ele>383</ele>
        <time>2019-05-12T09:28:07+02:00</time>
      </trkpt>
      <trkpt lat="44.08534" lon="3.06185">
        <ele>382</ele>
        <time>2019-05-12T09:28:14+02:00</time>
      </trkpt>
      <trkpt lat="44.08525" lon="3.06188">
        <ele>382</ele>
        <time>2019-05-12T09:28:21+02:00</time>
      </trkpt>
      <trkpt lat="44.08516" lon="3.06192">
        <ele>382</ele>
        <time>2019-05-12T09:28:29+02:00</time>
      </trkpt>
      <trkpt lat="44.08511" lon="3.06203">
        <ele>382</ele>
        <time>2019-05-12T09:28:38+02:00</time>
      </trkpt>
      <trkpt lat="44.08506" lon="3.06214">
        <ele>382</ele>
        <time>2019-05-12T09:28:44+02:00</time>
      </trkpt>
      <trkpt lat="44.08501" lon="3.06226">
        <ele>382</ele>
        <time>2019-05-12T09:28:52+02:00</time>
      </trkpt>
      <trkpt lat="44.08498" lon="3.06238">
        <ele>383</ele>
        <time>2019-05-12T09:29:01+02:00</time>
      </trkpt>
      <trkpt lat="44.08498" lon="3.06251">
        <ele>383</ele>
        <time>2019-05-12T09:29:11+02:00</time>
      </trkpt>
      <trkpt lat="44.08506" lon="3.0626">
        <ele>385</ele>
        <time>2019-05-12T09:29:21+02:00</time>
      </trkpt>
      <trkpt lat="44.08514" lon="3.06264">
        <ele>386</ele>
        <time>2019-05-12T09:29:28+02:00</time>
      </trkpt>
      <trkpt lat="44.08522" lon="3.06271">
        <ele>387</ele>
        <time>2019-05-12T09:29:35+02:00</time>
      </trkpt>
      <trkpt lat="44.08526" lon="3.06284">
        <ele>389</ele>
        <time>2019-05-12T09:29:42+02:00</time>
      </trkpt>
      <trkpt lat="44.0852" lon="3.06294">
        <ele>391</ele>
        <time>2019-05-12T09:29:51+02:00</time>
      </trkpt>
      <trkpt lat="44.08511" lon="3.06299">
        <ele>392</ele>
        <time>2019-05-12T09:29:59+02:00</time>
      </trkpt>
      <trkpt lat="44.08502" lon="3.06303">
        <ele>392</ele>
        <time>2019-05-12T09:30:07+02:00</time>
      </trkpt>
      <trkpt lat="44.08492" lon="3.06303">
        <ele>393</ele>
        <time>2019-05-12T09:30:15+02:00</time>
      </trkpt>
      <trkpt lat="44.08487" lon="3.06314">
        <ele>395</ele>
        <time>2019-05-12T09:30:29+02:00</time>
      </trkpt>
      <trkpt lat="44.08478" lon="3.06316">
        <ele>395</ele>
        <time>2019-05-12T09:31:07+02:00</time>
      </trkpt>
      <trkpt lat="44.08468" lon="3.06315">
        <ele>396</ele>
        <time>2019-05-12T09:31:21+02:00</time>
      </trkpt>
      <trkpt lat="44.08459" lon="3.06314">
        <ele>396</ele>
        <time>2019-05-12T09:31:30+02:00</time>
      </trkpt>
      <trkpt lat="44.0845" lon="3.0631">
        <ele>396</ele>
        <time>2019-05-12T09:31:37+02:00</time>
      </trkpt>
      <trkpt lat="44.0844" lon="3.06306">
        <ele>395</ele>
        <time>2019-05-12T09:31:44+02:00</time>
      </trkpt>
      <trkpt lat="44.08431" lon="3.06304">
        <ele>396</ele>
        <time>2019-05-12T09:31:54+02:00</time>
      </trkpt>
      <trkpt lat="44.08422" lon="3.06302">
        <ele>396</ele>
        <time>2019-05-12T09:32:02+02:00</time>
      </trkpt>
      <trkpt lat="44.08414" lon="3.06297">
        <ele>396</ele>
        <time>2019-05-12T09:32:09+02:00</time>
      </trkpt>
      <trkpt lat="44.08405" lon="3.06292">
        <ele>396</ele>
        <time>2019-05-12T09:32:18+02:00</time>
      </trkpt>
      <trkpt lat="44.08396" lon="3.06286">
        <ele>397</ele>
        <time>2019-05-12T09:32:27+02:00</time>
      </trkpt>
      <trkpt lat="44.08387" lon="3.06281">
        <ele>397</ele>
        <time>2019-05-12T09:32:36+02:00</time>
      </trkpt>
      <trkpt lat="44.0838" lon="3.06272">
        <ele>397</ele>
        <time>2019-05-12T09:33:02+02:00</time>
      </trkpt>
      <trkpt lat="44.08371" lon="3.06275">
        <ele>398</ele>
        <time>2019-05-12T09:33:19+02:00</time>
      </trkpt>
      <trkpt lat="44.08362" lon="3.06282">
        <ele>399</ele>
        <time>2019-05-12T09:33:32+02:00</time>
      </trkpt>
      <trkpt lat="44.08353" lon="3.06283">
        <ele>399</ele>
        <time>2019-05-12T09:33:42+02:00</time>
      </trkpt>
      <trkpt lat="44.08344" lon="3.06284">
        <ele>400</ele>
        <time>2019-05-12T09:33:50+02:00</time>
      </trkpt>
      <trkpt lat="44.08336" lon="3.06289">
        <ele>401</ele>
        <time>2019-05-12T09:33:57+02:00</time>
      </trkpt>
      <trkpt lat="44.08325" lon="3.06289">
        <ele>401</ele>
        <time>2019-05-12T09:34:08+02:00</time>
      </trkpt>
      <trkpt lat="44.08315" lon="3.06294">
        <ele>402</ele>
        <time>2019-05-12T09:34:17+02:00</time>
      </trkpt>
      <trkpt lat="44.08306" lon="3.06298">
        <ele>402</ele>
        <time>2019-05-12T09:34:26+02:00</time>
      </trkpt>
      <trkpt lat="44.08296" lon="3.06302">
        <ele>403</ele>
        <time>2019-05-12T09:34:34+02:00</time>
      </trkpt>
      <trkpt lat="44.08286" lon="3.06301">
        <ele>403</ele>
        <time>2019-05-12T09:34:44+02:00</time>
      </trkpt>
      <trkpt lat="44.08276" lon="3.063">
        <ele>404</ele>
        <time>2019-05-12T09:34:52+02:00</time>
      </trkpt>
      <trkpt lat="44.08266" lon="3.06299">
        <ele>404</ele>
        <time>2019-05-12T09:35:01+02:00</time>
      </trkpt>
      <trkpt lat="44.08257" lon="3.06298">
        <ele>404</ele>
        <time>2019-05-12T09:35:09+02:00</time>
      </trkpt>
      <trkpt lat="44.08248" lon="3.06292">
        <ele>405</ele>
        <time>2019-05-12T09:35:16+02:00</time>
      </trkpt>
      <trkpt lat="44.08241" lon="3.06284">
        <ele>405</ele>
        <time>2019-05-12T09:35:24+02:00</time>
      </trkpt>
      <trkpt lat="44.08232" lon="3.06278">
        <ele>405</ele>
        <time>2019-05-12T09:35:35+02:00</time>
      </trkpt>
      <trkpt lat="44.08224" lon="3.0627">
        <ele>406</ele>
        <time>2019-05-12T09:35:45+02:00</time>
      </trkpt>
      <trkpt lat="44.08215" lon="3.06265">
        <ele>406</ele>
        <time>2019-05-12T09:35:51+02:00</time>
      </trkpt>
      <trkpt lat="44.08206" lon="3.06261">
        <ele>407</ele>
        <time>2019-05-12T09:35:58+02:00</time>
      </trkpt>
      <trkpt lat="44.08196" lon="3.0626">
        <ele>407</ele>
        <time>2019-05-12T09:36:11+02:00</time>
      </trkpt>
      <trkpt lat="44.08186" lon="3.06257">
        <ele>408</ele>
        <time>2019-05-12T09:36:18+02:00</time>
      </trkpt>
      <trkpt lat="44.08179" lon="3.06247">
        <ele>408</ele>
        <time>2019-05-12T09:36:27+02:00</time>
      </trkpt>
      <trkpt lat="44.08171" lon="3.06241">
        <ele>409</ele>
        <time>2019-05-12T09:36:38+02:00</time>
      </trkpt>
      <trkpt lat="44.08162" lon="3.06237">
        <ele>410</ele>
        <time>2019-05-12T09:36:44+02:00</time>
      </trkpt>
      <trkpt lat="44.08153" lon="3.06231">
        <ele>410</ele>
        <time>2019-05-12T09:36:52+02:00</time>
      </trkpt>
      <trkpt lat="44.08144" lon="3.06225">
        <ele>411</ele>
        <time>2019-05-12T09:37:01+02:00</time>
      </trkpt>
      <trkpt lat="44.08137" lon="3.06217">
        <ele>411</ele>
        <time>2019-05-12T09:37:10+02:00</time>
      </trkpt>
      <trkpt lat="44.08128" lon="3.06211">
        <ele>412</ele>
        <time>2019-05-12T09:37:19+02:00</time>
      </trkpt>
      <trkpt lat="44.0812" lon="3.06205">
        <ele>412</ele>
        <time>2019-05-12T09:37:27+02:00</time>
      </trkpt>
      <trkpt lat="44.08111" lon="3.062">
        <ele>412</ele>
        <time>2019-05-12T09:37:34+02:00</time>
      </trkpt>
      <trkpt lat="44.08104" lon="3.0619">
        <ele>412</ele>
        <time>2019-05-12T09:37:42+02:00</time>
      </trkpt>
      <trkpt lat="44.08096" lon="3.06183">
        <ele>412</ele>
        <time>2019-05-12T09:37:50+02:00</time>
      </trkpt>
      <trkpt lat="44.08087" lon="3.06176">
        <ele>412</ele>
        <time>2019-05-12T09:37:58+02:00</time>
      </trkpt>
      <trkpt lat="44.08079" lon="3.06171">
        <ele>412</ele>
        <time>2019-05-12T09:38:05+02:00</time>
      </trkpt>
      <trkpt lat="44.0807" lon="3.06168">
        <ele>413</ele>
        <time>2019-05-12T09:38:18+02:00</time>
      </trkpt>
      <trkpt lat="44.08061" lon="3.0616">
        <ele>414</ele>
        <time>2019-05-12T09:38:26+02:00</time>
      </trkpt>
      <trkpt lat="44.08052" lon="3.06158">
        <ele>415</ele>
        <time>2019-05-12T09:38:52+02:00</time>
      </trkpt>
      <trkpt lat="44.08044" lon="3.06154">
        <ele>417</ele>
        <time>2019-05-12T09:39:33+02:00</time>
      </trkpt>
      <trkpt lat="44.08034" lon="3.06149">
        <ele>418</ele>
        <time>2019-05-12T09:39:41+02:00</time>
      </trkpt>
      <trkpt lat="44.08025" lon="3.06149">
        <ele>419</ele>
        <time>2019-05-12T09:39:52+02:00</time>
      </trkpt>
      <trkpt lat="44.08016" lon="3.06144">
        <ele>421</ele>
        <time>2019-05-12T09:40:04+02:00</time>
      </trkpt>
      <trkpt lat="44.08008" lon="3.06139">
        <ele>422</ele>
        <time>2019-05-12T09:40:20+02:00</time>
      </trkpt>
      <trkpt lat="44.07999" lon="3.06138">
        <ele>424</ele>
        <time>2019-05-12T09:40:38+02:00</time>
      </trkpt>
      <trkpt lat="44.0799" lon="3.06133">
        <ele>426</ele>
        <time>2019-05-12T09:40:47+02:00</time>
      </trkpt>
      <trkpt lat="44.07988" lon="3.0612">
        <ele>429</ele>
        <time>2019-05-12T09:40:58+02:00</time>
      </trkpt>
      <trkpt lat="44.07991" lon="3.06108">
        <ele>429</ele>
        <time>2019-05-12T09:41:21+02:00</time>
      </trkpt>
      <trkpt lat="44.07995" lon="3.0612">
        <ele>427</ele>
        <time>2019-05-12T09:42:50+02:00</time>
      </trkpt>
      <trkpt lat="44.07988" lon="3.06111">
        <ele>430</ele>
        <time>2019-05-12T09:44:12+02:00</time>
      </trkpt>
      <trkpt lat="44.07979" lon="3.06106">
        <ele>433</ele>
        <time>2019-05-12T09:44:24+02:00</time>
      </trkpt>
      <trkpt lat="44.0797" lon="3.061">
        <ele>436</ele>
        <time>2019-05-12T09:44:32+02:00</time>
      </trkpt>
      <trkpt lat="44.07963" lon="3.06093">
        <ele>439</ele>
        <time>2019-05-12T09:45:09+02:00</time>
      </trkpt>
      <trkpt lat="44.07956" lon="3.06083">
        <ele>443</ele>
        <time>2019-05-12T09:45:23+02:00</time>
      </trkpt>
      <trkpt lat="44.07964" lon="3.06077">
        <ele>442</ele>
        <time>2019-05-12T09:45:44+02:00</time>
      </trkpt>
      <trkpt lat="44.07964" lon="3.06064">
        <ele>445</ele>
        <time>2019-05-12T09:46:01+02:00</time>
      </trkpt>
      <trkpt lat="44.0796" lon="3.06053">
        <ele>448</ele>
        <time>2019-05-12T09:46:21+02:00</time>
      </trkpt>
      <trkpt lat="44.07969" lon="3.06047">
        <ele>447</ele>
        <time>2019-05-12T09:48:02+02:00</time>
      </trkpt>
      <trkpt lat="44.07977" lon="3.06041">
        <ele>447</ele>
        <time>2019-05-12T09:48:26+02:00</time>
      </trkpt>
      <trkpt lat="44.07968" lon="3.06045">
        <ele>448</ele>
        <time>2019-05-12T09:49:51+02:00</time>
      </trkpt>
      <trkpt lat="44.07961" lon="3.06054">
        <ele>448</ele>
        <time>2019-05-12T09:50:06+02:00</time>
      </trkpt>
      <trkpt lat="44.07966" lon="3.06065">
        <ele>444</ele>
        <time>2019-05-12T09:50:52+02:00</time>
      </trkpt>
      <trkpt lat="44.07962" lon="3.06076">
        <ele>443</ele>
        <time>2019-05-12T09:51:11+02:00</time>
      </trkpt>
      <trkpt lat="44.07954" lon="3.06083">
        <ele>443</ele>
        <time>2019-05-12T09:51:25+02:00</time>
      </trkpt>
      <trkpt lat="44.07962" lon="3.0609">
        <ele>440</ele>
        <time>2019-05-12T09:51:56+02:00</time>
      </trkpt>
      <trkpt lat="44.07969" lon="3.06099">
        <ele>437</ele>
        <time>2019-05-12T09:52:11+02:00</time>
      </trkpt>
      <trkpt lat="44.07975" lon="3.06109">
        <ele>434</ele>
        <time>2019-05-12T09:52:26+02:00</time>
      </trkpt>
      <trkpt lat="44.07982" lon="3.06118">
        <ele>431</ele>
        <time>2019-05-12T09:52:38+02:00</time>
      </trkpt>
      <trkpt lat="44.07989" lon="3.06127">
        <ele>427</ele>
        <time>2019-05-12T09:52:48+02:00</time>
      </trkpt>
      <trkpt lat="44.07995" lon="3.06138">
        <ele>424</ele>
        <time>2019-05-12T09:53:07+02:00</time>
      </trkpt>
      <trkpt lat="44.07988" lon="3.06145">
        <ele>426</ele>
        <time>2019-05-12T09:53:59+02:00</time>
      </trkpt>
      <trkpt lat="44.07979" lon="3.0614">
        <ele>429</ele>
        <time>2019-05-12T09:54:23+02:00</time>
      </trkpt>
      <trkpt lat="44.0797" lon="3.06137">
        <ele>432</ele>
        <time>2019-05-12T09:55:03+02:00</time>
      </trkpt>
      <trkpt lat="44.07961" lon="3.06136">
        <ele>434</ele>
        <time>2019-05-12T09:55:17+02:00</time>
      </trkpt>
      <trkpt lat="44.07952" lon="3.0614">
        <ele>436</ele>
        <time>2019-05-12T09:55:30+02:00</time>
      </trkpt>
      <trkpt lat="44.07944" lon="3.06147">
        <ele>437</ele>
        <time>2019-05-12T09:55:56+02:00</time>
      </trkpt>
      <trkpt lat="44.07936" lon="3.06151">
        <ele>439</ele>
        <time>2019-05-12T09:56:09+02:00</time>
      </trkpt>
      <trkpt lat="44.07929" lon="3.06159">
        <ele>440</ele>
        <time>2019-05-12T09:58:22+02:00</time>
      </trkpt>
      <trkpt lat="44.07921" lon="3.06167">
        <ele>441</ele>
        <time>2019-05-12T09:58:37+02:00</time>
      </trkpt>
      <trkpt lat="44.07915" lon="3.06177">
        <ele>444</ele>
        <time>2019-05-12T09:59:01+02:00</time>
      </trkpt>
      <trkpt lat="44.07911" lon="3.06189">
        <ele>447</ele>
        <time>2019-05-12T09:59:24+02:00</time>
      </trkpt>
      <trkpt lat="44.07909" lon="3.06202">
        <ele>449</ele>
        <time>2019-05-12T09:59:37+02:00</time>
      </trkpt>
      <trkpt lat="44.079" lon="3.06208">
        <ele>455</ele>
        <time>2019-05-12T09:59:55+02:00</time>
      </trkpt>
      <trkpt lat="44.07892" lon="3.06202">
        <ele>458</ele>
        <time>2019-05-12T10:00:13+02:00</time>
      </trkpt>
      <trkpt lat="44.07883" lon="3.06199">
        <ele>462</ele>
        <time>2019-05-12T10:00:42+02:00</time>
      </trkpt>
      <trkpt lat="44.07875" lon="3.06193">
        <ele>466</ele>
        <time>2019-05-12T10:00:56+02:00</time>
      </trkpt>
      <trkpt lat="44.07868" lon="3.06184">
        <ele>469</ele>
        <time>2019-05-12T10:01:12+02:00</time>
      </trkpt>
      <trkpt lat="44.07862" lon="3.06175">
        <ele>470</ele>
        <time>2019-05-12T10:01:37+02:00</time>
      </trkpt>
      <trkpt lat="44.07856" lon="3.06166">
        <ele>473</ele>
        <time>2019-05-12T10:02:05+02:00</time>
      </trkpt>
      <trkpt lat="44.07856" lon="3.06153">
        <ele>473</ele>
        <time>2019-05-12T10:02:36+02:00</time>
      </trkpt>
      <trkpt lat="44.07856" lon="3.0614">
        <ele>473</ele>
        <time>2019-05-12T10:02:48+02:00</time>
      </trkpt>
      <trkpt lat="44.07854" lon="3.06128">
        <ele>475</ele>
        <time>2019-05-12T10:03:12+02:00</time>
      </trkpt>
      <trkpt lat="44.07854" lon="3.06115">
        <ele>475</ele>
        <time>2019-05-12T10:03:42+02:00</time>
      </trkpt>
      <trkpt lat="44.0785" lon="3.06104">
        <ele>476</ele>
        <time>2019-05-12T10:03:57+02:00</time>
      </trkpt>
      <trkpt lat="44.07849" lon="3.0609">
        <ele>477</ele>
        <time>2019-05-12T10:04:08+02:00</time>
      </trkpt>
      <trkpt lat="44.07846" lon="3.06076">
        <ele>478</ele>
        <time>2019-05-12T10:04:25+02:00</time>
      </trkpt>
      <trkpt lat="44.07845" lon="3.06063">
        <ele>478</ele>
        <time>2019-05-12T10:04:34+02:00</time>
      </trkpt>
      <trkpt lat="44.0784" lon="3.06052">
        <ele>479</ele>
        <time>2019-05-12T10:04:44+02:00</time>
      </trkpt>
      <trkpt lat="44.07838" lon="3.06039">
        <ele>479</ele>
        <time>2019-05-12T10:04:56+02:00</time>
      </trkpt>
      <trkpt lat="44.07836" lon="3.06027">
        <ele>480</ele>
        <time>2019-05-12T10:05:05+02:00</time>
      </trkpt>
      <trkpt lat="44.0783" lon="3.06017">
        <ele>480</ele>
        <time>2019-05-12T10:05:11+02:00</time>
      </trkpt>
      <trkpt lat="44.07824" lon="3.06007">
        <ele>480</ele>
        <time>2019-05-12T10:05:16+02:00</time>
      </trkpt>
      <trkpt lat="44.07818" lon="3.05997">
        <ele>480</ele>
        <time>2019-05-12T10:05:23+02:00</time>
      </trkpt>
      <trkpt lat="44.07814" lon="3.05985">
        <ele>480</ele>
        <time>2019-05-12T10:05:31+02:00</time>
      </trkpt>
      <trkpt lat="44.0781" lon="3.05974">
        <ele>480</ele>
        <time>2019-05-12T10:05:41+02:00</time>
      </trkpt>
      <trkpt lat="44.07807" lon="3.05961">
        <ele>480</ele>
        <time>2019-05-12T10:06:37+02:00</time>
      </trkpt>
      <trkpt lat="44.07816" lon="3.05953">
        <ele>479</ele>
        <time>2019-05-12T10:06:57+02:00</time>
      </trkpt>
      <trkpt lat="44.07822" lon="3.05944">
        <ele>479</ele>
        <time>2019-05-12T10:07:18+02:00</time>
      </trkpt>
      <trkpt lat="44.07829" lon="3.05935">
        <ele>478</ele>
        <time>2019-05-12T10:07:27+02:00</time>
      </trkpt>
      <trkpt lat="44.07838" lon="3.05928">
        <ele>477</ele>
        <time>2019-05-12T10:07:37+02:00</time>
      </trkpt>
      <trkpt lat="44.07846" lon="3.05921">
        <ele>476</ele>
        <time>2019-05-12T10:07:45+02:00</time>
      </trkpt>
      <trkpt lat="44.07852" lon="3.05912">
        <ele>476</ele>
        <time>2019-05-12T10:08:02+02:00</time>
      </trkpt>
      <trkpt lat="44.07857" lon="3.05901">
        <ele>476</ele>
        <time>2019-05-12T10:08:22+02:00</time>
      </trkpt>
      <trkpt lat="44.07861" lon="3.05888">
        <ele>476</ele>
        <time>2019-05-12T10:08:30+02:00</time>
      </trkpt>
      <trkpt lat="44.07869" lon="3.05879">
        <ele>476</ele>
        <time>2019-05-12T10:08:37+02:00</time>
      </trkpt>
      <trkpt lat="44.07875" lon="3.0587">
        <ele>476</ele>
        <time>2019-05-12T10:08:44+02:00</time>
      </trkpt>
      <trkpt lat="44.07879" lon="3.05858">
        <ele>476</ele>
        <time>2019-05-12T10:08:52+02:00</time>
      </trkpt>
      <trkpt lat="44.0788" lon="3.05845">
        <ele>476</ele>
        <time>2019-05-12T10:09:01+02:00</time>
      </trkpt>
      <trkpt lat="44.07873" lon="3.05835">
        <ele>476</ele>
        <time>2019-05-12T10:09:09+02:00</time>
      </trkpt>
      <trkpt lat="44.07878" lon="3.05824">
        <ele>476</ele>
        <time>2019-05-12T10:10:16+02:00</time>
      </trkpt>
      <trkpt lat="44.07885" lon="3.05816">
        <ele>475</ele>
        <time>2019-05-12T10:10:26+02:00</time>
      </trkpt>
      <trkpt lat="44.07894" lon="3.05809">
        <ele>475</ele>
        <time>2019-05-12T10:10:35+02:00</time>
      </trkpt>
      <trkpt lat="44.07902" lon="3.05802">
        <ele>475</ele>
        <time>2019-05-12T10:10:47+02:00</time>
      </trkpt>
      <trkpt lat="44.07912" lon="3.05797">
        <ele>474</ele>
        <time>2019-05-12T10:10:54+02:00</time>
      </trkpt>
      <trkpt lat="44.07921" lon="3.05794">
        <ele>474</ele>
        <time>2019-05-12T10:11:09+02:00</time>
      </trkpt>
      <trkpt lat="44.07929" lon="3.0579">
        <ele>474</ele>
        <time>2019-05-12T10:11:17+02:00</time>
      </trkpt>
      <trkpt lat="44.07938" lon="3.05785">
        <ele>473</ele>
        <time>2019-05-12T10:11:26+02:00</time>
      </trkpt>
      <trkpt lat="44.07948" lon="3.05783">
        <ele>473</ele>
        <time>2019-05-12T10:11:33+02:00</time>
      </trkpt>
      <trkpt lat="44.07957" lon="3.05781">
        <ele>473</ele>
        <time>2019-05-12T10:11:41+02:00</time>
      </trkpt>
      <trkpt lat="44.07965" lon="3.05775">
        <ele>473</ele>
        <time>2019-05-12T10:11:50+02:00</time>
      </trkpt>
      <trkpt lat="44.07974" lon="3.05775">
        <ele>472</ele>
        <time>2019-05-12T10:11:59+02:00</time>
      </trkpt>
      <trkpt lat="44.07983" lon="3.05771">
        <ele>472</ele>
        <time>2019-05-12T10:12:06+02:00</time>
      </trkpt>
      <trkpt lat="44.07991" lon="3.05766">
        <ele>472</ele>
        <time>2019-05-12T10:12:14+02:00</time>
      </trkpt>
      <trkpt lat="44.08" lon="3.05761">
        <ele>472</ele>
        <time>2019-05-12T10:12:19+02:00</time>
      </trkpt>
      <trkpt lat="44.08009" lon="3.05755">
        <ele>472</ele>
        <time>2019-05-12T10:12:30+02:00</time>
      </trkpt>
      <trkpt lat="44.08009" lon="3.05742">
        <ele>472</ele>
        <time>2019-05-12T10:13:01+02:00</time>
      </trkpt>
      <trkpt lat="44.08007" lon="3.0573">
        <ele>472</ele>
        <time>2019-05-12T10:13:10+02:00</time>
      </trkpt>
      <trkpt lat="44.08004" lon="3.05718">
        <ele>472</ele>
        <time>2019-05-12T10:13:18+02:00</time>
      </trkpt>
      <trkpt lat="44.08001" lon="3.05706">
        <ele>471</ele>
        <time>2019-05-12T10:13:28+02:00</time>
      </trkpt>
      <trkpt lat="44.07998" lon="3.05692">
        <ele>471</ele>
        <time>2019-05-12T10:13:36+02:00</time>
      </trkpt>
      <trkpt lat="44.07992" lon="3.05681">
        <ele>471</ele>
        <time>2019-05-12T10:13:43+02:00</time>
      </trkpt>
      <trkpt lat="44.07985" lon="3.05672">
        <ele>471</ele>
        <time>2019-05-12T10:13:53+02:00</time>
      </trkpt>
      <trkpt lat="44.07978" lon="3.05663">
        <ele>471</ele>
        <time>2019-05-12T10:14:02+02:00</time>
      </trkpt>
      <trkpt lat="44.07969" lon="3.05657">
        <ele>470</ele>
        <time>2019-05-12T10:14:12+02:00</time>
      </trkpt>
      <trkpt lat="44.07962" lon="3.05647">
        <ele>469</ele>
        <time>2019-05-12T10:14:22+02:00</time>
      </trkpt>
      <trkpt lat="44.07954" lon="3.05638">
        <ele>469</ele>
        <time>2019-05-12T10:14:29+02:00</time>
      </trkpt>
      <trkpt lat="44.07947" lon="3.0563">
        <ele>468</ele>
        <time>2019-05-12T10:14:37+02:00</time>
      </trkpt>
      <trkpt lat="44.07939" lon="3.0562">
        <ele>468</ele>
        <time>2019-05-12T10:14:46+02:00</time>
      </trkpt>
      <trkpt lat="44.07932" lon="3.05613">
        <ele>467</ele>
        <time>2019-05-12T10:14:54+02:00</time>
      </trkpt>
      <trkpt lat="44.07923" lon="3.05607">
        <ele>467</ele>
        <time>2019-05-12T10:15:21+02:00</time>
      </trkpt>
      <trkpt lat="44.07917" lon="3.05596">
        <ele>466</ele>
        <time>2019-05-12T10:15:27+02:00</time>
      </trkpt>
      <trkpt lat="44.07908" lon="3.05592">
        <ele>465</ele>
        <time>2019-05-12T10:15:37+02:00</time>
      </trkpt>
      <trkpt lat="44.07898" lon="3.05589">
        <ele>465</ele>
        <time>2019-05-12T10:15:46+02:00</time>
      </trkpt>
      <trkpt lat="44.07889" lon="3.05586">
        <ele>465</ele>
        <time>2019-05-12T10:15:53+02:00</time>
      </trkpt>
      <trkpt lat="44.07879" lon="3.05581">
        <ele>464</ele>
        <time>2019-05-12T10:16:04+02:00</time>
      </trkpt>
      <trkpt lat="44.0787" lon="3.05578">
        <ele>464</ele>
        <time>2019-05-12T10:16:17+02:00</time>
      </trkpt>
      <trkpt lat="44.07861" lon="3.05574">
        <ele>463</ele>
        <time>2019-05-12T10:16:25+02:00</time>
      </trkpt>
      <trkpt lat="44.07852" lon="3.05571">
        <ele>463</ele>
        <time>2019-05-12T10:16:36+02:00</time>
      </trkpt>
      <trkpt lat="44.07843" lon="3.05568">
        <ele>462</ele>
        <time>2019-05-12T10:16:44+02:00</time>
      </trkpt>
      <trkpt lat="44.07834" lon="3.05563">
        <ele>462</ele>
        <time>2019-05-12T10:16:52+02:00</time>
      </trkpt>
      <trkpt lat="44.07826" lon="3.05557">
        <ele>461</ele>
        <time>2019-05-12T10:16:59+02:00</time>
      </trkpt>
      <trkpt lat="44.07816" lon="3.05552">
        <ele>459</ele>
        <time>2019-05-12T10:17:07+02:00</time>
      </trkpt>
      <trkpt lat="44.07807" lon="3.05547">
        <ele>458</ele>
        <time>2019-05-12T10:17:15+02:00</time>
      </trkpt>
      <trkpt lat="44.07798" lon="3.05545">
        <ele>457</ele>
        <time>2019-05-12T10:17:24+02:00</time>
      </trkpt>
      <trkpt lat="44.07789" lon="3.05547">
        <ele>456</ele>
        <time>2019-05-12T10:17:32+02:00</time>
      </trkpt>
      <trkpt lat="44.0778" lon="3.05552">
        <ele>456</ele>
        <time>2019-05-12T10:17:43+02:00</time>
      </trkpt>
      <trkpt lat="44.0777" lon="3.05552">
        <ele>455</ele>
        <time>2019-05-12T10:18:00+02:00</time>
      </trkpt>
      <trkpt lat="44.07761" lon="3.05548">
        <ele>454</ele>
        <time>2019-05-12T10:18:10+02:00</time>
      </trkpt>
      <trkpt lat="44.07753" lon="3.05541">
        <ele>452</ele>
        <time>2019-05-12T10:18:20+02:00</time>
      </trkpt>
      <trkpt lat="44.07744" lon="3.05539">
        <ele>452</ele>
        <time>2019-05-12T10:18:29+02:00</time>
      </trkpt>
      <trkpt lat="44.07735" lon="3.05536">
        <ele>452</ele>
        <time>2019-05-12T10:18:37+02:00</time>
      </trkpt>
      <trkpt lat="44.07729" lon="3.05526">
        <ele>451</ele>
        <time>2019-05-12T10:18:47+02:00</time>
      </trkpt>
      <trkpt lat="44.07728" lon="3.05514">
        <ele>449</ele>
        <time>2019-05-12T10:18:58+02:00</time>
      </trkpt>
      <trkpt lat="44.07725" lon="3.05502">
        <ele>447</ele>
        <time>2019-05-12T10:19:07+02:00</time>
      </trkpt>
      <trkpt lat="44.07718" lon="3.05492">
        <ele>446</ele>
        <time>2019-05-12T10:19:14+02:00</time>
      </trkpt>
      <trkpt lat="44.07711" lon="3.05485">
        <ele>445</ele>
        <time>2019-05-12T10:19:22+02:00</time>
      </trkpt>
      <trkpt lat="44.07702" lon="3.0548">
        <ele>445</ele>
        <time>2019-05-12T10:19:33+02:00</time>
      </trkpt>
      <trkpt lat="44.07694" lon="3.05476">
        <ele>445</ele>
        <time>2019-05-12T10:19:47+02:00</time>
      </trkpt>
      <trkpt lat="44.07687" lon="3.05466">
        <ele>445</ele>
        <time>2019-05-12T10:19:56+02:00</time>
      </trkpt>
      <trkpt lat="44.0768" lon="3.05456">
        <ele>444</ele>
        <time>2019-05-12T10:20:04+02:00</time>
      </trkpt>
      <trkpt lat="44.07672" lon="3.0545">
        <ele>444</ele>
        <time>2019-05-12T10:20:17+02:00</time>
      </trkpt>
      <trkpt lat="44.07664" lon="3.05443">
        <ele>444</ele>
        <time>2019-05-12T10:20:28+02:00</time>
      </trkpt>
      <trkpt lat="44.07658" lon="3.05432">
        <ele>444</ele>
        <time>2019-05-12T10:20:36+02:00</time>
      </trkpt>
      <trkpt lat="44.07652" lon="3.05423">
        <ele>444</ele>
        <time>2019-05-12T10:20:43+02:00</time>
      </trkpt>
      <trkpt lat="44.07644" lon="3.05414">
        <ele>444</ele>
        <time>2019-05-12T10:20:51+02:00</time>
      </trkpt>
      <trkpt lat="44.07638" lon="3.05404">
        <ele>443</ele>
        <time>2019-05-12T10:20:59+02:00</time>
      </trkpt>
      <trkpt lat="44.07632" lon="3.05392">
        <ele>442</ele>
        <time>2019-05-12T10:21:08+02:00</time>
      </trkpt>
      <trkpt lat="44.07626" lon="3.05381">
        <ele>441</ele>
        <time>2019-05-12T10:21:16+02:00</time>
      </trkpt>
      <trkpt lat="44.07619" lon="3.05373">
        <ele>440</ele>
        <time>2019-05-12T10:21:24+02:00</time>
      </trkpt>
      <trkpt lat="44.07611" lon="3.05367">
        <ele>439</ele>
        <time>2019-05-12T10:21:32+02:00</time>
      </trkpt>
      <trkpt lat="44.07601" lon="3.05365">
        <ele>440</ele>
        <time>2019-05-12T10:21:41+02:00</time>
      </trkpt>
      <trkpt lat="44.07592" lon="3.05363">
        <ele>441</ele>
        <time>2019-05-12T10:21:49+02:00</time>
      </trkpt>
      <trkpt lat="44.07583" lon="3.05357">
        <ele>440</ele>
        <time>2019-05-12T10:21:56+02:00</time>
      </trkpt>
      <trkpt lat="44.07575" lon="3.0535">
        <ele>440</ele>
        <time>2019-05-12T10:22:05+02:00</time>
      </trkpt>
      <trkpt lat="44.07567" lon="3.05341">
        <ele>438</ele>
        <time>2019-05-12T10:22:17+02:00</time>
      </trkpt>
      <trkpt lat="44.07561" lon="3.05332">
        <ele>436</ele>
        <time>2019-05-12T10:22:26+02:00</time>
      </trkpt>
      <trkpt lat="44.07555" lon="3.05322">
        <ele>435</ele>
        <time>2019-05-12T10:22:35+02:00</time>
      </trkpt>
      <trkpt lat="44.07549" lon="3.05312">
        <ele>433</ele>
        <time>2019-05-12T10:22:43+02:00</time>
      </trkpt>
      <trkpt lat="44.07542" lon="3.05303">
        <ele>432</ele>
        <time>2019-05-12T10:22:52+02:00</time>
      </trkpt>
      <trkpt lat="44.07533" lon="3.05297">
        <ele>431</ele>
        <time>2019-05-12T10:22:59+02:00</time>
      </trkpt>
      <trkpt lat="44.07524" lon="3.05292">
        <ele>431</ele>
        <time>2019-05-12T10:23:09+02:00</time>
      </trkpt>
      <trkpt lat="44.07515" lon="3.05289">
        <ele>431</ele>
        <time>2019-05-12T10:23:17+02:00</time>
      </trkpt>
      <trkpt lat="44.07505" lon="3.05288">
        <ele>431</ele>
        <time>2019-05-12T10:23:26+02:00</time>
      </trkpt>
      <trkpt lat="44.07496" lon="3.05293">
        <ele>433</ele>
        <time>2019-05-12T10:23:33+02:00</time>
      </trkpt>
      <trkpt lat="44.07487" lon="3.05289">
        <ele>432</ele>
        <time>2019-05-12T10:23:41+02:00</time>
      </trkpt>
      <trkpt lat="44.07478" lon="3.05284">
        <ele>431</ele>
        <time>2019-05-12T10:23:49+02:00</time>
      </trkpt>
      <trkpt lat="44.07468" lon="3.0528">
        <ele>430</ele>
        <time>2019-05-12T10:23:58+02:00</time>
      </trkpt>
      <trkpt lat="44.07458" lon="3.05274">
        <ele>429</ele>
        <time>2019-05-12T10:24:05+02:00</time>
      </trkpt>
      <trkpt lat="44.07449" lon="3.05269">
        <ele>428</ele>
        <time>2019-05-12T10:24:12+02:00</time>
      </trkpt>
      <trkpt lat="44.07439" lon="3.05265">
        <ele>427</ele>
        <time>2019-05-12T10:24:20+02:00</time>
      </trkpt>
      <trkpt lat="44.07429" lon="3.05261">
        <ele>426</ele>
        <time>2019-05-12T10:24:26+02:00</time>
      </trkpt>
      <trkpt lat="44.07421" lon="3.05256">
        <ele>425</ele>
        <time>2019-05-12T10:24:33+02:00</time>
      </trkpt>
      <trkpt lat="44.07411" lon="3.05256">
        <ele>426</ele>
        <time>2019-05-12T10:24:42+02:00</time>
      </trkpt>
      <trkpt lat="44.07402" lon="3.05254">
        <ele>425</ele>
        <time>2019-05-12T10:24:49+02:00</time>
      </trkpt>
      <trkpt lat="44.07392" lon="3.05252">
        <ele>425</ele>
        <time>2019-05-12T10:24:57+02:00</time>
      </trkpt>
      <trkpt lat="44.07385" lon="3.05245">
        <ele>424</ele>
        <time>2019-05-12T10:25:05+02:00</time>
      </trkpt>
      <trkpt lat="44.07376" lon="3.05239">
        <ele>423</ele>
        <time>2019-05-12T10:25:14+02:00</time>
      </trkpt>
      <trkpt lat="44.07368" lon="3.05231">
        <ele>422</ele>
        <time>2019-05-12T10:25:24+02:00</time>
      </trkpt>
      <trkpt lat="44.07361" lon="3.05222">
        <ele>421</ele>
        <time>2019-05-12T10:25:30+02:00</time>
      </trkpt>
      <trkpt lat="44.07353" lon="3.05215">
        <ele>420</ele>
        <time>2019-05-12T10:25:36+02:00</time>
      </trkpt>
      <trkpt lat="44.07346" lon="3.05206">
        <ele>419</ele>
        <time>2019-05-12T10:25:43+02:00</time>
      </trkpt>
      <trkpt lat="44.07338" lon="3.052">
        <ele>418</ele>
        <time>2019-05-12T10:25:50+02:00</time>
      </trkpt>
      <trkpt lat="44.07329" lon="3.05195">
        <ele>417</ele>
        <time>2019-05-12T10:25:56+02:00</time>
      </trkpt>
      <trkpt lat="44.07319" lon="3.05193">
        <ele>416</ele>
        <time>2019-05-12T10:26:05+02:00</time>
      </trkpt>
      <trkpt lat="44.0731" lon="3.05194">
        <ele>415</ele>
        <time>2019-05-12T10:26:12+02:00</time>
      </trkpt>
      <trkpt lat="44.07301" lon="3.05194">
        <ele>415</ele>
        <time>2019-05-12T10:26:20+02:00</time>
      </trkpt>
      <trkpt lat="44.07291" lon="3.05196">
        <ele>415</ele>
        <time>2019-05-12T10:26:27+02:00</time>
      </trkpt>
      <trkpt lat="44.07283" lon="3.05201">
        <ele>415</ele>
        <time>2019-05-12T10:26:34+02:00</time>
      </trkpt>
      <trkpt lat="44.07274" lon="3.05203">
        <ele>415</ele>
        <time>2019-05-12T10:26:42+02:00</time>
      </trkpt>
      <trkpt lat="44.07264" lon="3.05203">
        <ele>415</ele>
        <time>2019-05-12T10:26:49+02:00</time>
      </trkpt>
      <trkpt lat="44.07254" lon="3.05203">
        <ele>414</ele>
        <time>2019-05-12T10:26:57+02:00</time>
      </trkpt>
      <trkpt lat="44.07245" lon="3.05204">
        <ele>414</ele>
        <time>2019-05-12T10:27:04+02:00</time>
      </trkpt>
      <trkpt lat="44.07236" lon="3.05208">
        <ele>414</ele>
        <time>2019-05-12T10:27:13+02:00</time>
      </trkpt>
      <trkpt lat="44.07227" lon="3.05214">
        <ele>415</ele>
        <time>2019-05-12T10:27:23+02:00</time>
      </trkpt>
      <trkpt lat="44.07218" lon="3.05219">
        <ele>416</ele>
        <time>2019-05-12T10:27:29+02:00</time>
      </trkpt>
      <trkpt lat="44.07209" lon="3.0522">
        <ele>416</ele>
        <time>2019-05-12T10:27:36+02:00</time>
      </trkpt>
      <trkpt lat="44.07199" lon="3.05219">
        <ele>415</ele>
        <time>2019-05-12T10:27:42+02:00</time>
      </trkpt>
      <trkpt lat="44.0719" lon="3.0522">
        <ele>415</ele>
        <time>2019-05-12T10:27:51+02:00</time>
      </trkpt>
      <trkpt lat="44.0718" lon="3.05218">
        <ele>414</ele>
        <time>2019-05-12T10:28:00+02:00</time>
      </trkpt>
      <trkpt lat="44.07171" lon="3.05216">
        <ele>413</ele>
        <time>2019-05-12T10:28:06+02:00</time>
      </trkpt>
      <trkpt lat="44.07162" lon="3.05212">
        <ele>413</ele>
        <time>2019-05-12T10:28:13+02:00</time>
      </trkpt>
      <trkpt lat="44.07153" lon="3.05211">
        <ele>413</ele>
        <time>2019-05-12T10:28:21+02:00</time>
      </trkpt>
      <trkpt lat="44.07144" lon="3.05211">
        <ele>413</ele>
        <time>2019-05-12T10:28:30+02:00</time>
      </trkpt>
      <trkpt lat="44.07134" lon="3.05208">
        <ele>413</ele>
        <time>2019-05-12T10:28:38+02:00</time>
      </trkpt>
      <trkpt lat="44.07125" lon="3.05204">
        <ele>413</ele>
        <time>2019-05-12T10:28:45+02:00</time>
      </trkpt>
      <trkpt lat="44.07116" lon="3.05199">
        <ele>412</ele>
        <time>2019-05-12T10:28:54+02:00</time>
      </trkpt>
      <trkpt lat="44.07107" lon="3.05193">
        <ele>411</ele>
        <time>2019-05-12T10:29:03+02:00</time>
      </trkpt>
      <trkpt lat="44.07098" lon="3.05188">
        <ele>410</ele>
        <time>2019-05-12T10:29:11+02:00</time>
      </trkpt>
      <trkpt lat="44.07088" lon="3.05184">
        <ele>409</ele>
        <time>2019-05-12T10:29:19+02:00</time>
      </trkpt>
      <trkpt lat="44.0708" lon="3.05179">
        <ele>408</ele>
        <time>2019-05-12T10:29:26+02:00</time>
      </trkpt>
      <trkpt lat="44.07071" lon="3.05174">
        <ele>408</ele>
        <time>2019-05-12T10:29:33+02:00</time>
      </trkpt>
      <trkpt lat="44.07061" lon="3.05171">
        <ele>408</ele>
        <time>2019-05-12T10:29:39+02:00</time>
      </trkpt>
      <trkpt lat="44.07051" lon="3.05169">
        <ele>407</ele>
        <time>2019-05-12T10:29:46+02:00</time>
      </trkpt>
      <trkpt lat="44.07042" lon="3.05165">
        <ele>407</ele>
        <time>2019-05-12T10:29:52+02:00</time>
      </trkpt>
      <trkpt lat="44.07034" lon="3.05158">
        <ele>407</ele>
        <time>2019-05-12T10:29:59+02:00</time>
      </trkpt>
      <trkpt lat="44.07027" lon="3.05148">
        <ele>406</ele>
        <time>2019-05-12T10:30:10+02:00</time>
      </trkpt>
      <trkpt lat="44.0702" lon="3.05138">
        <ele>405</ele>
        <time>2019-05-12T10:30:18+02:00</time>
      </trkpt>
      <trkpt lat="44.0702" lon="3.05124">
        <ele>403</ele>
        <time>2019-05-12T10:30:34+02:00</time>
      </trkpt>
      <trkpt lat="44.07023" lon="3.05111">
        <ele>401</ele>
        <time>2019-05-12T10:30:43+02:00</time>
      </trkpt>
      <trkpt lat="44.07026" lon="3.05099">
        <ele>399</ele>
        <time>2019-05-12T10:30:53+02:00</time>
      </trkpt>
      <trkpt lat="44.07031" lon="3.05087">
        <ele>397</ele>
        <time>2019-05-12T10:31:02+02:00</time>
      </trkpt>
      <trkpt lat="44.0704" lon="3.05089">
        <ele>397</ele>
        <time>2019-05-12T10:31:20+02:00</time>
      </trkpt>
      <trkpt lat="44.07038" lon="3.05076">
        <ele>397</ele>
        <time>2019-05-12T10:32:05+02:00</time>
      </trkpt>
      <trkpt lat="44.07036" lon="3.05063">
        <ele>398</ele>
        <time>2019-05-12T10:32:11+02:00</time>
      </trkpt>
      <trkpt lat="44.07037" lon="3.05049">
        <ele>398</ele>
        <time>2019-05-12T10:32:19+02:00</time>
      </trkpt>
      <trkpt lat="44.07043" lon="3.05038">
        <ele>399</ele>
        <time>2019-05-12T10:32:27+02:00</time>
      </trkpt>
      <trkpt lat="44.07049" lon="3.05029">
        <ele>399</ele>
        <time>2019-05-12T10:32:36+02:00</time>
      </trkpt>
      <trkpt lat="44.07057" lon="3.05021">
        <ele>400</ele>
        <time>2019-05-12T10:32:45+02:00</time>
      </trkpt>
      <trkpt lat="44.07065" lon="3.05014">
        <ele>400</ele>
        <time>2019-05-12T10:32:53+02:00</time>
      </trkpt>
      <trkpt lat="44.07074" lon="3.05017">
        <ele>400</ele>
        <time>2019-05-12T10:33:55+02:00</time>
      </trkpt>
      <trkpt lat="44.07083" lon="3.05019">
        <ele>400</ele>
        <time>2019-05-12T10:34:04+02:00</time>
      </trkpt>
      <trkpt lat="44.07093" lon="3.05021">
        <ele>399</ele>
        <time>2019-05-12T10:34:15+02:00</time>
      </trkpt>
      <trkpt lat="44.07102" lon="3.05019">
        <ele>399</ele>
        <time>2019-05-12T10:34:24+02:00</time>
      </trkpt>
      <trkpt lat="44.07108" lon="3.05009">
        <ele>400</ele>
        <time>2019-05-12T10:34:31+02:00</time>
      </trkpt>
      <trkpt lat="44.0711" lon="3.04996">
        <ele>401</ele>
        <time>2019-05-12T10:34:52+02:00</time>
      </trkpt>
      <trkpt lat="44.07104" lon="3.04986">
        <ele>404</ele>
        <time>2019-05-12T10:35:00+02:00</time>
      </trkpt>
      <trkpt lat="44.07109" lon="3.04975">
        <ele>407</ele>
        <time>2019-05-12T10:35:23+02:00</time>
      </trkpt>
      <trkpt lat="44.07103" lon="3.04966">
        <ele>410</ele>
        <time>2019-05-12T10:35:37+02:00</time>
      </trkpt>
      <trkpt lat="44.07095" lon="3.04958">
        <ele>412</ele>
        <time>2019-05-12T10:35:53+02:00</time>
      </trkpt>
      <trkpt lat="44.07089" lon="3.0495">
        <ele>415</ele>
        <time>2019-05-12T10:36:07+02:00</time>
      </trkpt>
      <trkpt lat="44.07082" lon="3.04941">
        <ele>417</ele>
        <time>2019-05-12T10:36:24+02:00</time>
      </trkpt>
      <trkpt lat="44.07084" lon="3.04928">
        <ele>421</ele>
        <time>2019-05-12T10:36:44+02:00</time>
      </trkpt>
      <trkpt lat="44.07079" lon="3.04918">
        <ele>423</ele>
        <time>2019-05-12T10:37:06+02:00</time>
      </trkpt>
      <trkpt lat="44.07076" lon="3.04905">
        <ele>426</ele>
        <time>2019-05-12T10:37:22+02:00</time>
      </trkpt>
      <trkpt lat="44.07081" lon="3.04894">
        <ele>430</ele>
        <time>2019-05-12T10:37:48+02:00</time>
      </trkpt>
      <trkpt lat="44.07086" lon="3.04883">
        <ele>433</ele>
        <time>2019-05-12T10:38:06+02:00</time>
      </trkpt>
      <trkpt lat="44.07083" lon="3.0487">
        <ele>436</ele>
        <time>2019-05-12T10:38:19+02:00</time>
      </trkpt>
      <trkpt lat="44.0708" lon="3.04858">
        <ele>439</ele>
        <time>2019-05-12T10:38:30+02:00</time>
      </trkpt>
      <trkpt lat="44.07082" lon="3.04845">
        <ele>443</ele>
        <time>2019-05-12T10:38:48+02:00</time>
      </trkpt>
      <trkpt lat="44.07087" lon="3.04834">
        <ele>445</ele>
        <time>2019-05-12T10:39:02+02:00</time>
      </trkpt>
      <trkpt lat="44.07097" lon="3.04832">
        <ele>445</ele>
        <time>2019-05-12T10:39:12+02:00</time>
      </trkpt>
      <trkpt lat="44.07106" lon="3.04825">
        <ele>445</ele>
        <time>2019-05-12T10:39:23+02:00</time>
      </trkpt>
      <trkpt lat="44.07114" lon="3.04821">
        <ele>445</ele>
        <time>2019-05-12T10:40:43+02:00</time>
      </trkpt>
      <trkpt lat="44.07116" lon="3.04809">
        <ele>448</ele>
        <time>2019-05-12T10:44:10+02:00</time>
      </trkpt>
      <trkpt lat="44.07118" lon="3.04795">
        <ele>450</ele>
        <time>2019-05-12T10:44:54+02:00</time>
      </trkpt>
      <trkpt lat="44.07121" lon="3.04783">
        <ele>452</ele>
        <time>2019-05-12T10:45:07+02:00</time>
      </trkpt>
      <trkpt lat="44.07123" lon="3.04771">
        <ele>455</ele>
        <time>2019-05-12T10:45:30+02:00</time>
      </trkpt>
      <trkpt lat="44.07124" lon="3.04757">
        <ele>458</ele>
        <time>2019-05-12T10:45:47+02:00</time>
      </trkpt>
      <trkpt lat="44.07127" lon="3.04743">
        <ele>460</ele>
        <time>2019-05-12T10:46:00+02:00</time>
      </trkpt>
      <trkpt lat="44.0713" lon="3.0473">
        <ele>462</ele>
        <time>2019-05-12T10:46:17+02:00</time>
      </trkpt>
      <trkpt lat="44.07132" lon="3.04718">
        <ele>465</ele>
        <time>2019-05-12T10:46:29+02:00</time>
      </trkpt>
      <trkpt lat="44.07136" lon="3.04706">
        <ele>466</ele>
        <time>2019-05-12T10:46:42+02:00</time>
      </trkpt>
      <trkpt lat="44.07138" lon="3.04693">
        <ele>469</ele>
        <time>2019-05-12T10:46:50+02:00</time>
      </trkpt>
      <trkpt lat="44.07138" lon="3.0468">
        <ele>471</ele>
        <time>2019-05-12T10:47:09+02:00</time>
      </trkpt>
      <trkpt lat="44.07139" lon="3.04665">
        <ele>474</ele>
        <time>2019-05-12T10:47:19+02:00</time>
      </trkpt>
      <trkpt lat="44.07139" lon="3.04652">
        <ele>476</ele>
        <time>2019-05-12T10:47:35+02:00</time>
      </trkpt>
      <trkpt lat="44.07133" lon="3.04642">
        <ele>479</ele>
        <time>2019-05-12T10:47:54+02:00</time>
      </trkpt>
      <trkpt lat="44.07129" lon="3.04631">
        <ele>481</ele>
        <time>2019-05-12T10:49:46+02:00</time>
      </trkpt>
      <trkpt lat="44.07122" lon="3.04623">
        <ele>484</ele>
        <time>2019-05-12T10:50:28+02:00</time>
      </trkpt>
      <trkpt lat="44.07114" lon="3.04614">
        <ele>486</ele>
        <time>2019-05-12T10:51:02+02:00</time>
      </trkpt>
      <trkpt lat="44.07113" lon="3.04601">
        <ele>488</ele>
        <time>2019-05-12T10:51:22+02:00</time>
      </trkpt>
      <trkpt lat="44.07115" lon="3.04588">
        <ele>490</ele>
        <time>2019-05-12T10:51:37+02:00</time>
      </trkpt>
      <trkpt lat="44.07116" lon="3.04574">
        <ele>491</ele>
        <time>2019-05-12T10:51:45+02:00</time>
      </trkpt>
      <trkpt lat="44.07116" lon="3.04562">
        <ele>493</ele>
        <time>2019-05-12T10:52:01+02:00</time>
      </trkpt>
      <trkpt lat="44.07123" lon="3.04552">
        <ele>493</ele>
        <time>2019-05-12T10:52:15+02:00</time>
      </trkpt>
      <trkpt lat="44.07131" lon="3.04544">
        <ele>493</ele>
        <time>2019-05-12T10:52:25+02:00</time>
      </trkpt>
      <trkpt lat="44.07143" lon="3.04536">
        <ele>491</ele>
        <time>2019-05-12T10:52:44+02:00</time>
      </trkpt>
      <trkpt lat="44.07151" lon="3.04529">
        <ele>491</ele>
        <time>2019-05-12T10:52:49+02:00</time>
      </trkpt>
      <trkpt lat="44.07159" lon="3.04522">
        <ele>490</ele>
        <time>2019-05-12T10:52:55+02:00</time>
      </trkpt>
      <trkpt lat="44.07168" lon="3.04516">
        <ele>490</ele>
        <time>2019-05-12T10:53:00+02:00</time>
      </trkpt>
      <trkpt lat="44.07173" lon="3.04505">
        <ele>490</ele>
        <time>2019-05-12T10:53:09+02:00</time>
      </trkpt>
      <trkpt lat="44.07179" lon="3.04495">
        <ele>491</ele>
        <time>2019-05-12T10:53:19+02:00</time>
      </trkpt>
      <trkpt lat="44.07184" lon="3.04483">
        <ele>492</ele>
        <time>2019-05-12T10:53:28+02:00</time>
      </trkpt>
      <trkpt lat="44.07192" lon="3.04473">
        <ele>492</ele>
        <time>2019-05-12T10:53:38+02:00</time>
      </trkpt>
      <trkpt lat="44.07198" lon="3.04464">
        <ele>493</ele>
        <time>2019-05-12T10:53:47+02:00</time>
      </trkpt>
      <trkpt lat="44.07203" lon="3.04454">
        <ele>493</ele>
        <time>2019-05-12T10:53:55+02:00</time>
      </trkpt>
      <trkpt lat="44.07212" lon="3.04445">
        <ele>493</ele>
        <time>2019-05-12T10:54:04+02:00</time>
      </trkpt>
      <trkpt lat="44.07221" lon="3.04439">
        <ele>493</ele>
        <time>2019-05-12T10:54:12+02:00</time>
      </trkpt>
      <trkpt lat="44.07224" lon="3.04427">
        <ele>494</ele>
        <time>2019-05-12T10:54:23+02:00</time>
      </trkpt>
      <trkpt lat="44.07233" lon="3.04434">
        <ele>491</ele>
        <time>2019-05-12T10:54:33+02:00</time>
      </trkpt>
      <trkpt lat="44.07242" lon="3.04429">
        <ele>491</ele>
        <time>2019-05-12T10:54:39+02:00</time>
      </trkpt>
      <trkpt lat="44.07252" lon="3.04423">
        <ele>489</ele>
        <time>2019-05-12T10:54:41+02:00</time>
      </trkpt>
      <trkpt lat="44.07248" lon="3.04412">
        <ele>492</ele>
        <time>2019-05-12T10:56:56+02:00</time>
      </trkpt>
      <trkpt lat="44.07248" lon="3.04399">
        <ele>494</ele>
        <time>2019-05-12T10:57:04+02:00</time>
      </trkpt>
      <trkpt lat="44.07254" lon="3.04387">
        <ele>494</ele>
        <time>2019-05-12T10:57:17+02:00</time>
      </trkpt>
      <trkpt lat="44.0726" lon="3.04377">
        <ele>494</ele>
        <time>2019-05-12T10:57:35+02:00</time>
      </trkpt>
      <trkpt lat="44.07263" lon="3.04365">
        <ele>495</ele>
        <time>2019-05-12T10:57:45+02:00</time>
      </trkpt>
      <trkpt lat="44.07265" lon="3.04352">
        <ele>496</ele>
        <time>2019-05-12T10:57:54+02:00</time>
      </trkpt>
      <trkpt lat="44.07268" lon="3.04337">
        <ele>497</ele>
        <time>2019-05-12T10:58:08+02:00</time>
      </trkpt>
      <trkpt lat="44.0727" lon="3.04324">
        <ele>498</ele>
        <time>2019-05-12T10:58:14+02:00</time>
      </trkpt>
      <trkpt lat="44.07271" lon="3.04311">
        <ele>500</ele>
        <time>2019-05-12T10:58:21+02:00</time>
      </trkpt>
      <trkpt lat="44.07273" lon="3.04298">
        <ele>502</ele>
        <time>2019-05-12T10:58:32+02:00</time>
      </trkpt>
      <trkpt lat="44.07275" lon="3.04285">
        <ele>503</ele>
        <time>2019-05-12T10:58:44+02:00</time>
      </trkpt>
      <trkpt lat="44.0728" lon="3.04274">
        <ele>504</ele>
        <time>2019-05-12T10:58:55+02:00</time>
      </trkpt>
      <trkpt lat="44.07286" lon="3.04263">
        <ele>503</ele>
        <time>2019-05-12T10:59:05+02:00</time>
      </trkpt>
      <trkpt lat="44.07287" lon="3.0425">
        <ele>505</ele>
        <time>2019-05-12T10:59:17+02:00</time>
      </trkpt>
      <trkpt lat="44.0729" lon="3.04238">
        <ele>507</ele>
        <time>2019-05-12T10:59:30+02:00</time>
      </trkpt>
      <trkpt lat="44.07292" lon="3.04225">
        <ele>509</ele>
        <time>2019-05-12T10:59:50+02:00</time>
      </trkpt>
      <trkpt lat="44.07295" lon="3.04214">
        <ele>511</ele>
        <time>2019-05-12T11:00:00+02:00</time>
      </trkpt>
      <trkpt lat="44.07295" lon="3.04201">
        <ele>514</ele>
        <time>2019-05-12T11:00:14+02:00</time>
      </trkpt>
      <trkpt lat="44.07301" lon="3.04191">
        <ele>513</ele>
        <time>2019-05-12T11:00:27+02:00</time>
      </trkpt>
      <trkpt lat="44.07307" lon="3.04182">
        <ele>513</ele>
        <time>2019-05-12T11:00:35+02:00</time>
      </trkpt>
      <trkpt lat="44.07313" lon="3.04171">
        <ele>512</ele>
        <time>2019-05-12T11:00:44+02:00</time>
      </trkpt>
      <trkpt lat="44.07316" lon="3.04159">
        <ele>514</ele>
        <time>2019-05-12T11:00:56+02:00</time>
      </trkpt>
      <trkpt lat="44.07319" lon="3.04147">
        <ele>514</ele>
        <time>2019-05-12T11:01:08+02:00</time>
      </trkpt>
      <trkpt lat="44.07316" lon="3.04133">
        <ele>517</ele>
        <time>2019-05-12T11:01:18+02:00</time>
      </trkpt>
      <trkpt lat="44.07315" lon="3.0412">
        <ele>520</ele>
        <time>2019-05-12T11:01:26+02:00</time>
      </trkpt>
      <trkpt lat="44.07318" lon="3.04107">
        <ele>521</ele>
        <time>2019-05-12T11:01:36+02:00</time>
      </trkpt>
      <trkpt lat="44.07326" lon="3.041">
        <ele>518</ele>
        <time>2019-05-12T11:01:48+02:00</time>
      </trkpt>
      <trkpt lat="44.07331" lon="3.04089">
        <ele>517</ele>
        <time>2019-05-12T11:01:57+02:00</time>
      </trkpt>
      <trkpt lat="44.07334" lon="3.04078">
        <ele>516</ele>
        <time>2019-05-12T11:02:08+02:00</time>
      </trkpt>
      <trkpt lat="44.07334" lon="3.04064">
        <ele>518</ele>
        <time>2019-05-12T11:02:46+02:00</time>
      </trkpt>
      <trkpt lat="44.0733" lon="3.04051">
        <ele>520</ele>
        <time>2019-05-12T11:02:57+02:00</time>
      </trkpt>
      <trkpt lat="44.07321" lon="3.04051">
        <ele>526</ele>
        <time>2019-05-12T11:03:21+02:00</time>
      </trkpt>
      <trkpt lat="44.07314" lon="3.04043">
        <ele>532</ele>
        <time>2019-05-12T11:03:52+02:00</time>
      </trkpt>
      <trkpt lat="44.07308" lon="3.04033">
        <ele>536</ele>
        <time>2019-05-12T11:04:09+02:00</time>
      </trkpt>
      <trkpt lat="44.07301" lon="3.0404">
        <ele>540</ele>
        <time>2019-05-12T11:04:28+02:00</time>
      </trkpt>
      <trkpt lat="44.07294" lon="3.04049">
        <ele>543</ele>
        <time>2019-05-12T11:04:36+02:00</time>
      </trkpt>
      <trkpt lat="44.07287" lon="3.04059">
        <ele>546</ele>
        <time>2019-05-12T11:04:45+02:00</time>
      </trkpt>
      <trkpt lat="44.07283" lon="3.0407">
        <ele>547</ele>
        <time>2019-05-12T11:05:00+02:00</time>
      </trkpt>
      <trkpt lat="44.07275" lon="3.04077">
        <ele>550</ele>
        <time>2019-05-12T11:05:22+02:00</time>
      </trkpt>
      <trkpt lat="44.07267" lon="3.04083">
        <ele>553</ele>
        <time>2019-05-12T11:05:42+02:00</time>
      </trkpt>
      <trkpt lat="44.07263" lon="3.04095">
        <ele>553</ele>
        <time>2019-05-12T11:06:01+02:00</time>
      </trkpt>
      <trkpt lat="44.07256" lon="3.04104">
        <ele>554</ele>
        <time>2019-05-12T11:06:32+02:00</time>
      </trkpt>
      <trkpt lat="44.0725" lon="3.04113">
        <ele>555</ele>
        <time>2019-05-12T11:06:49+02:00</time>
      </trkpt>
      <trkpt lat="44.0724" lon="3.04114">
        <ele>559</ele>
        <time>2019-05-12T11:07:02+02:00</time>
      </trkpt>
      <trkpt lat="44.0723" lon="3.04119">
        <ele>563</ele>
        <time>2019-05-12T11:07:20+02:00</time>
      </trkpt>
      <trkpt lat="44.07224" lon="3.04129">
        <ele>563</ele>
        <time>2019-05-12T11:07:27+02:00</time>
      </trkpt>
      <trkpt lat="44.07217" lon="3.04139">
        <ele>563</ele>
        <time>2019-05-12T11:07:42+02:00</time>
      </trkpt>
      <trkpt lat="44.07208" lon="3.04143">
        <ele>567</ele>
        <time>2019-05-12T11:07:57+02:00</time>
      </trkpt>
      <trkpt lat="44.07199" lon="3.04145">
        <ele>570</ele>
        <time>2019-05-12T11:08:07+02:00</time>
      </trkpt>
      <trkpt lat="44.0719" lon="3.04143">
        <ele>575</ele>
        <time>2019-05-12T11:08:29+02:00</time>
      </trkpt>
      <trkpt lat="44.07182" lon="3.04146">
        <ele>579</ele>
        <time>2019-05-12T11:08:45+02:00</time>
      </trkpt>
      <trkpt lat="44.07172" lon="3.04149">
        <ele>582</ele>
        <time>2019-05-12T11:09:01+02:00</time>
      </trkpt>
      <trkpt lat="44.07165" lon="3.04157">
        <ele>583</ele>
        <time>2019-05-12T11:09:09+02:00</time>
      </trkpt>
      <trkpt lat="44.07156" lon="3.04161">
        <ele>585</ele>
        <time>2019-05-12T11:09:22+02:00</time>
      </trkpt>
      <trkpt lat="44.07146" lon="3.04164">
        <ele>588</ele>
        <time>2019-05-12T11:09:36+02:00</time>
      </trkpt>
      <trkpt lat="44.07137" lon="3.04166">
        <ele>591</ele>
        <time>2019-05-12T11:09:50+02:00</time>
      </trkpt>
      <trkpt lat="44.07128" lon="3.04168">
        <ele>593</ele>
        <time>2019-05-12T11:10:08+02:00</time>
      </trkpt>
      <trkpt lat="44.07119" lon="3.04172">
        <ele>595</ele>
        <time>2019-05-12T11:10:19+02:00</time>
      </trkpt>
      <trkpt lat="44.07111" lon="3.0418">
        <ele>596</ele>
        <time>2019-05-12T11:10:34+02:00</time>
      </trkpt>
      <trkpt lat="44.07102" lon="3.04183">
        <ele>598</ele>
        <time>2019-05-12T11:10:47+02:00</time>
      </trkpt>
      <trkpt lat="44.07098" lon="3.04195">
        <ele>595</ele>
        <time>2019-05-12T11:11:04+02:00</time>
      </trkpt>
      <trkpt lat="44.07089" lon="3.04196">
        <ele>599</ele>
        <time>2019-05-12T11:11:18+02:00</time>
      </trkpt>
      <trkpt lat="44.07079" lon="3.04198">
        <ele>601</ele>
        <time>2019-05-12T11:11:40+02:00</time>
      </trkpt>
      <trkpt lat="44.0707" lon="3.042">
        <ele>603</ele>
        <time>2019-05-12T11:11:59+02:00</time>
      </trkpt>
      <trkpt lat="44.07061" lon="3.04203">
        <ele>606</ele>
        <time>2019-05-12T11:12:12+02:00</time>
      </trkpt>
      <trkpt lat="44.07053" lon="3.04209">
        <ele>607</ele>
        <time>2019-05-12T11:12:25+02:00</time>
      </trkpt>
      <trkpt lat="44.07044" lon="3.04211">
        <ele>609</ele>
        <time>2019-05-12T11:12:37+02:00</time>
      </trkpt>
      <trkpt lat="44.07037" lon="3.0422">
        <ele>609</ele>
        <time>2019-05-12T11:12:47+02:00</time>
      </trkpt>
      <trkpt lat="44.07028" lon="3.04227">
        <ele>609</ele>
        <time>2019-05-12T11:12:57+02:00</time>
      </trkpt>
      <trkpt lat="44.07019" lon="3.04231">
        <ele>611</ele>
        <time>2019-05-12T11:13:07+02:00</time>
      </trkpt>
      <trkpt lat="44.0701" lon="3.04232">
        <ele>615</ele>
        <time>2019-05-12T11:13:13+02:00</time>
      </trkpt>
      <trkpt lat="44.07001" lon="3.04236">
        <ele>617</ele>
        <time>2019-05-12T11:13:24+02:00</time>
      </trkpt>
      <trkpt lat="44.06992" lon="3.04241">
        <ele>617</ele>
        <time>2019-05-12T11:13:32+02:00</time>
      </trkpt>
      <trkpt lat="44.06983" lon="3.04247">
        <ele>616</ele>
        <time>2019-05-12T11:13:41+02:00</time>
      </trkpt>
      <trkpt lat="44.06975" lon="3.04254">
        <ele>615</ele>
        <time>2019-05-12T11:13:54+02:00</time>
      </trkpt>
      <trkpt lat="44.06968" lon="3.04263">
        <ele>612</ele>
        <time>2019-05-12T11:14:09+02:00</time>
      </trkpt>
      <trkpt lat="44.06958" lon="3.04263">
        <ele>614</ele>
        <time>2019-05-12T11:14:19+02:00</time>
      </trkpt>
      <trkpt lat="44.06953" lon="3.04276">
        <ele>609</ele>
        <time>2019-05-12T11:14:34+02:00</time>
      </trkpt>
      <trkpt lat="44.06944" lon="3.04271">
        <ele>612</ele>
        <time>2019-05-12T11:15:18+02:00</time>
      </trkpt>
      <trkpt lat="44.06937" lon="3.04263">
        <ele>616</ele>
        <time>2019-05-12T11:24:11+02:00</time>
      </trkpt>
      <trkpt lat="44.06928" lon="3.0426">
        <ele>618</ele>
        <time>2019-05-12T11:24:27+02:00</time>
      </trkpt>
      <trkpt lat="44.06919" lon="3.04264">
        <ele>617</ele>
        <time>2019-05-12T11:24:36+02:00</time>
      </trkpt>
      <trkpt lat="44.06909" lon="3.04265">
        <ele>617</ele>
        <time>2019-05-12T11:24:44+02:00</time>
      </trkpt>
      <trkpt lat="44.06899" lon="3.04263">
        <ele>618</ele>
        <time>2019-05-12T11:24:53+02:00</time>
      </trkpt>
      <trkpt lat="44.06889" lon="3.04262">
        <ele>617</ele>
        <time>2019-05-12T11:25:03+02:00</time>
      </trkpt>
      <trkpt lat="44.0688" lon="3.0426">
        <ele>618</ele>
        <time>2019-05-12T11:25:14+02:00</time>
      </trkpt>
      <trkpt lat="44.06875" lon="3.04249">
        <ele>623</ele>
        <time>2019-05-12T11:25:33+02:00</time>
      </trkpt>
      <trkpt lat="44.06867" lon="3.04241">
        <ele>625</ele>
        <time>2019-05-12T11:25:50+02:00</time>
      </trkpt>
      <trkpt lat="44.06858" lon="3.04237">
        <ele>627</ele>
        <time>2019-05-12T11:26:00+02:00</time>
      </trkpt>
      <trkpt lat="44.06849" lon="3.04242">
        <ele>624</ele>
        <time>2019-05-12T11:26:08+02:00</time>
      </trkpt>
      <trkpt lat="44.06841" lon="3.04248">
        <ele>622</ele>
        <time>2019-05-12T11:26:17+02:00</time>
      </trkpt>
      <trkpt lat="44.06832" lon="3.04252">
        <ele>620</ele>
        <time>2019-05-12T11:26:26+02:00</time>
      </trkpt>
      <trkpt lat="44.06823" lon="3.04256">
        <ele>621</ele>
        <time>2019-05-12T11:26:34+02:00</time>
      </trkpt>
      <trkpt lat="44.06813" lon="3.04256">
        <ele>623</ele>
        <time>2019-05-12T11:26:45+02:00</time>
      </trkpt>
      <trkpt lat="44.06803" lon="3.04258">
        <ele>625</ele>
        <time>2019-05-12T11:27:43+02:00</time>
      </trkpt>
      <trkpt lat="44.06794" lon="3.04261">
        <ele>626</ele>
        <time>2019-05-12T11:28:47+02:00</time>
      </trkpt>
      <trkpt lat="44.06785" lon="3.04263">
        <ele>628</ele>
        <time>2019-05-12T11:29:11+02:00</time>
      </trkpt>
      <trkpt lat="44.06776" lon="3.04268">
        <ele>627</ele>
        <time>2019-05-12T11:29:16+02:00</time>
      </trkpt>
      <trkpt lat="44.06767" lon="3.04274">
        <ele>627</ele>
        <time>2019-05-12T11:29:24+02:00</time>
      </trkpt>
      <trkpt lat="44.06758" lon="3.04277">
        <ele>628</ele>
        <time>2019-05-12T11:29:59+02:00</time>
      </trkpt>
      <trkpt lat="44.06749" lon="3.04281">
        <ele>629</ele>
        <time>2019-05-12T11:30:24+02:00</time>
      </trkpt>
      <trkpt lat="44.06742" lon="3.04291">
        <ele>626</ele>
        <time>2019-05-12T11:30:52+02:00</time>
      </trkpt>
      <trkpt lat="44.06735" lon="3.043">
        <ele>624</ele>
        <time>2019-05-12T11:31:04+02:00</time>
      </trkpt>
      <trkpt lat="44.06725" lon="3.04301">
        <ele>626</ele>
        <time>2019-05-12T11:31:24+02:00</time>
      </trkpt>
      <trkpt lat="44.06716" lon="3.04301">
        <ele>629</ele>
        <time>2019-05-12T11:31:31+02:00</time>
      </trkpt>
      <trkpt lat="44.06707" lon="3.04304">
        <ele>631</ele>
        <time>2019-05-12T11:31:37+02:00</time>
      </trkpt>
      <trkpt lat="44.06698" lon="3.04309">
        <ele>632</ele>
        <time>2019-05-12T11:31:45+02:00</time>
      </trkpt>
      <trkpt lat="44.06688" lon="3.04312">
        <ele>634</ele>
        <time>2019-05-12T11:31:54+02:00</time>
      </trkpt>
      <trkpt lat="44.06683" lon="3.04324">
        <ele>632</ele>
        <time>2019-05-12T11:32:03+02:00</time>
      </trkpt>
      <trkpt lat="44.06674" lon="3.04328">
        <ele>634</ele>
        <time>2019-05-12T11:32:11+02:00</time>
      </trkpt>
      <trkpt lat="44.06666" lon="3.04337">
        <ele>633</ele>
        <time>2019-05-12T11:32:32+02:00</time>
      </trkpt>
      <trkpt lat="44.06658" lon="3.04331">
        <ele>637</ele>
        <time>2019-05-12T11:32:51+02:00</time>
      </trkpt>
      <trkpt lat="44.06649" lon="3.04329">
        <ele>638</ele>
        <time>2019-05-12T11:33:11+02:00</time>
      </trkpt>
      <trkpt lat="44.0664" lon="3.04327">
        <ele>640</ele>
        <time>2019-05-12T11:33:25+02:00</time>
      </trkpt>
      <trkpt lat="44.06632" lon="3.04321">
        <ele>642</ele>
        <time>2019-05-12T11:33:40+02:00</time>
      </trkpt>
      <trkpt lat="44.06623" lon="3.04318">
        <ele>643</ele>
        <time>2019-05-12T11:33:56+02:00</time>
      </trkpt>
      <trkpt lat="44.06614" lon="3.04315">
        <ele>644</ele>
        <time>2019-05-12T11:34:02+02:00</time>
      </trkpt>
      <trkpt lat="44.06605" lon="3.04312">
        <ele>645</ele>
        <time>2019-05-12T11:34:08+02:00</time>
      </trkpt>
      <trkpt lat="44.06596" lon="3.0431">
        <ele>646</ele>
        <time>2019-05-12T11:34:48+02:00</time>
      </trkpt>
      <trkpt lat="44.06592" lon="3.04298">
        <ele>648</ele>
        <time>2019-05-12T11:35:43+02:00</time>
      </trkpt>
      <trkpt lat="44.06587" lon="3.04309">
        <ele>647</ele>
        <time>2019-05-12T11:35:53+02:00</time>
      </trkpt>
      <trkpt lat="44.06581" lon="3.04299">
        <ele>649</ele>
        <time>2019-05-12T11:36:26+02:00</time>
      </trkpt>
      <trkpt lat="44.06579" lon="3.04286">
        <ele>651</ele>
        <time>2019-05-12T11:36:34+02:00</time>
      </trkpt>
      <trkpt lat="44.06579" lon="3.04273">
        <ele>652</ele>
        <time>2019-05-12T11:36:43+02:00</time>
      </trkpt>
      <trkpt lat="44.06582" lon="3.04261">
        <ele>652</ele>
        <time>2019-05-12T11:36:50+02:00</time>
      </trkpt>
      <trkpt lat="44.06584" lon="3.04248">
        <ele>652</ele>
        <time>2019-05-12T11:36:59+02:00</time>
      </trkpt>
      <trkpt lat="44.06582" lon="3.04235">
        <ele>650</ele>
        <time>2019-05-12T11:37:11+02:00</time>
      </trkpt>
      <trkpt lat="44.06575" lon="3.04225">
        <ele>650</ele>
        <time>2019-05-12T11:37:43+02:00</time>
      </trkpt>
      <trkpt lat="44.06568" lon="3.04215">
        <ele>650</ele>
        <time>2019-05-12T11:37:48+02:00</time>
      </trkpt>
      <trkpt lat="44.0656" lon="3.0421">
        <ele>651</ele>
        <time>2019-05-12T11:37:56+02:00</time>
      </trkpt>
      <trkpt lat="44.0655" lon="3.04206">
        <ele>653</ele>
        <time>2019-05-12T11:38:04+02:00</time>
      </trkpt>
      <trkpt lat="44.06542" lon="3.04198">
        <ele>653</ele>
        <time>2019-05-12T11:38:14+02:00</time>
      </trkpt>
      <trkpt lat="44.06534" lon="3.04192">
        <ele>654</ele>
        <time>2019-05-12T11:38:32+02:00</time>
      </trkpt>
      <trkpt lat="44.06525" lon="3.04188">
        <ele>655</ele>
        <time>2019-05-12T11:38:45+02:00</time>
      </trkpt>
      <trkpt lat="44.06517" lon="3.04183">
        <ele>656</ele>
        <time>2019-05-12T11:38:52+02:00</time>
      </trkpt>
      <trkpt lat="44.06508" lon="3.04176">
        <ele>656</ele>
        <time>2019-05-12T11:39:03+02:00</time>
      </trkpt>
      <trkpt lat="44.065" lon="3.04168">
        <ele>655</ele>
        <time>2019-05-12T11:39:12+02:00</time>
      </trkpt>
      <trkpt lat="44.06494" lon="3.04158">
        <ele>654</ele>
        <time>2019-05-12T11:39:22+02:00</time>
      </trkpt>
      <trkpt lat="44.06486" lon="3.04151">
        <ele>654</ele>
        <time>2019-05-12T11:39:33+02:00</time>
      </trkpt>
      <trkpt lat="44.06476" lon="3.0415">
        <ele>656</ele>
        <time>2019-05-12T11:39:47+02:00</time>
      </trkpt>
      <trkpt lat="44.06467" lon="3.04151">
        <ele>658</ele>
        <time>2019-05-12T11:39:54+02:00</time>
      </trkpt>
      <trkpt lat="44.06459" lon="3.04143">
        <ele>658</ele>
        <time>2019-05-12T11:40:00+02:00</time>
      </trkpt>
      <trkpt lat="44.06452" lon="3.04134">
        <ele>658</ele>
        <time>2019-05-12T11:40:09+02:00</time>
      </trkpt>
      <trkpt lat="44.06446" lon="3.04125">
        <ele>657</ele>
        <time>2019-05-12T11:40:20+02:00</time>
      </trkpt>
      <trkpt lat="44.06436" lon="3.04119">
        <ele>659</ele>
        <time>2019-05-12T11:40:30+02:00</time>
      </trkpt>
      <trkpt lat="44.06426" lon="3.04118">
        <ele>661</ele>
        <time>2019-05-12T11:40:33+02:00</time>
      </trkpt>
      <trkpt lat="44.06416" lon="3.04124">
        <ele>665</ele>
        <time>2019-05-12T11:40:41+02:00</time>
      </trkpt>
      <trkpt lat="44.06406" lon="3.04118">
        <ele>667</ele>
        <time>2019-05-12T11:40:48+02:00</time>
      </trkpt>
      <trkpt lat="44.06405" lon="3.04105">
        <ele>665</ele>
        <time>2019-05-12T11:41:02+02:00</time>
      </trkpt>
      <trkpt lat="44.06398" lon="3.04096">
        <ele>665</ele>
        <time>2019-05-12T11:41:13+02:00</time>
      </trkpt>
      <trkpt lat="44.06396" lon="3.04084">
        <ele>664</ele>
        <time>2019-05-12T11:41:23+02:00</time>
      </trkpt>
      <trkpt lat="44.06393" lon="3.04072">
        <ele>661</ele>
        <time>2019-05-12T11:41:34+02:00</time>
      </trkpt>
      <trkpt lat="44.06388" lon="3.04061">
        <ele>660</ele>
        <time>2019-05-12T11:41:45+02:00</time>
      </trkpt>
      <trkpt lat="44.06382" lon="3.04052">
        <ele>659</ele>
        <time>2019-05-12T11:41:57+02:00</time>
      </trkpt>
      <trkpt lat="44.06373" lon="3.04045">
        <ele>661</ele>
        <time>2019-05-12T11:42:06+02:00</time>
      </trkpt>
      <trkpt lat="44.06368" lon="3.04035">
        <ele>660</ele>
        <time>2019-05-12T11:42:18+02:00</time>
      </trkpt>
      <trkpt lat="44.06363" lon="3.04023">
        <ele>658</ele>
        <time>2019-05-12T11:42:26+02:00</time>
      </trkpt>
      <trkpt lat="44.06355" lon="3.04015">
        <ele>659</ele>
        <time>2019-05-12T11:42:34+02:00</time>
      </trkpt>
      <trkpt lat="44.06346" lon="3.0401">
        <ele>661</ele>
        <time>2019-05-12T11:42:44+02:00</time>
      </trkpt>
      <trkpt lat="44.06338" lon="3.04003">
        <ele>662</ele>
        <time>2019-05-12T11:42:58+02:00</time>
      </trkpt>
      <trkpt lat="44.06328" lon="3.04">
        <ele>665</ele>
        <time>2019-05-12T11:43:11+02:00</time>
      </trkpt>
      <trkpt lat="44.06318" lon="3.03998">
        <ele>670</ele>
        <time>2019-05-12T11:43:19+02:00</time>
      </trkpt>
      <trkpt lat="44.06309" lon="3.03993">
        <ele>674</ele>
        <time>2019-05-12T11:43:31+02:00</time>
      </trkpt>
      <trkpt lat="44.06308" lon="3.03981">
        <ele>675</ele>
        <time>2019-05-12T11:43:45+02:00</time>
      </trkpt>
      <trkpt lat="44.06308" lon="3.03968">
        <ele>675</ele>
        <time>2019-05-12T11:43:56+02:00</time>
      </trkpt>
      <trkpt lat="44.06306" lon="3.03956">
        <ele>676</ele>
        <time>2019-05-12T11:44:08+02:00</time>
      </trkpt>
      <trkpt lat="44.0631" lon="3.03944">
        <ele>675</ele>
        <time>2019-05-12T11:44:25+02:00</time>
      </trkpt>
      <trkpt lat="44.06315" lon="3.03933">
        <ele>673</ele>
        <time>2019-05-12T11:44:40+02:00</time>
      </trkpt>
      <trkpt lat="44.06314" lon="3.0392">
        <ele>674</ele>
        <time>2019-05-12T11:44:59+02:00</time>
      </trkpt>
      <trkpt lat="44.06319" lon="3.03909">
        <ele>672</ele>
        <time>2019-05-12T11:45:13+02:00</time>
      </trkpt>
      <trkpt lat="44.06325" lon="3.03898">
        <ele>670</ele>
        <time>2019-05-12T11:45:25+02:00</time>
      </trkpt>
      <trkpt lat="44.06333" lon="3.03891">
        <ele>668</ele>
        <time>2019-05-12T11:45:33+02:00</time>
      </trkpt>
      <trkpt lat="44.06338" lon="3.0388">
        <ele>667</ele>
        <time>2019-05-12T11:45:44+02:00</time>
      </trkpt>
      <trkpt lat="44.06339" lon="3.03867">
        <ele>668</ele>
        <time>2019-05-12T11:45:54+02:00</time>
      </trkpt>
      <trkpt lat="44.06341" lon="3.03853">
        <ele>669</ele>
        <time>2019-05-12T11:46:02+02:00</time>
      </trkpt>
      <trkpt lat="44.06343" lon="3.03841">
        <ele>669</ele>
        <time>2019-05-12T11:46:18+02:00</time>
      </trkpt>
      <trkpt lat="44.06343" lon="3.03828">
        <ele>671</ele>
        <time>2019-05-12T11:46:28+02:00</time>
      </trkpt>
      <trkpt lat="44.06339" lon="3.03816">
        <ele>673</ele>
        <time>2019-05-12T11:46:41+02:00</time>
      </trkpt>
      <trkpt lat="44.06336" lon="3.03804">
        <ele>675</ele>
        <time>2019-05-12T11:46:46+02:00</time>
      </trkpt>
      <trkpt lat="44.06333" lon="3.03791">
        <ele>677</ele>
        <time>2019-05-12T11:46:58+02:00</time>
      </trkpt>
      <trkpt lat="44.06329" lon="3.03779">
        <ele>679</ele>
        <time>2019-05-12T11:47:10+02:00</time>
      </trkpt>
      <trkpt lat="44.06331" lon="3.03767">
        <ele>679</ele>
        <time>2019-05-12T11:47:29+02:00</time>
      </trkpt>
      <trkpt lat="44.0634" lon="3.03763">
        <ele>676</ele>
        <time>2019-05-12T11:47:40+02:00</time>
      </trkpt>
      <trkpt lat="44.06346" lon="3.03751">
        <ele>674</ele>
        <time>2019-05-12T11:48:56+02:00</time>
      </trkpt>
      <trkpt lat="44.06348" lon="3.03739">
        <ele>674</ele>
        <time>2019-05-12T11:49:10+02:00</time>
      </trkpt>
      <trkpt lat="44.06352" lon="3.03728">
        <ele>673</ele>
        <time>2019-05-12T11:49:20+02:00</time>
      </trkpt>
      <trkpt lat="44.06355" lon="3.03715">
        <ele>674</ele>
        <time>2019-05-12T11:49:31+02:00</time>
      </trkpt>
      <trkpt lat="44.06362" lon="3.03707">
        <ele>672</ele>
        <time>2019-05-12T11:49:40+02:00</time>
      </trkpt>
      <trkpt lat="44.06371" lon="3.037">
        <ele>670</ele>
        <time>2019-05-12T11:49:49+02:00</time>
      </trkpt>
      <trkpt lat="44.06367" lon="3.03712">
        <ele>670</ele>
        <time>2019-05-12T11:50:19+02:00</time>
      </trkpt>
      <trkpt lat="44.06361" lon="3.03721">
        <ele>671</ele>
        <time>2019-05-12T11:50:28+02:00</time>
      </trkpt>
      <trkpt lat="44.06356" lon="3.03734">
        <ele>672</ele>
        <time>2019-05-12T11:50:41+02:00</time>
      </trkpt>
      <trkpt lat="44.06352" lon="3.03746">
        <ele>672</ele>
        <time>2019-05-12T11:50:51+02:00</time>
      </trkpt>
      <trkpt lat="44.06346" lon="3.03736">
        <ele>675</ele>
        <time>2019-05-12T11:51:22+02:00</time>
      </trkpt>
      <trkpt lat="44.06346" lon="3.03723">
        <ele>676</ele>
        <time>2019-05-12T11:51:33+02:00</time>
      </trkpt>
      <trkpt lat="44.06342" lon="3.0371">
        <ele>679</ele>
        <time>2019-05-12T11:51:47+02:00</time>
      </trkpt>
      <trkpt lat="44.06338" lon="3.03697">
        <ele>681</ele>
        <time>2019-05-12T11:52:00+02:00</time>
      </trkpt>
      <trkpt lat="44.06336" lon="3.03685">
        <ele>683</ele>
        <time>2019-05-12T11:52:10+02:00</time>
      </trkpt>
      <trkpt lat="44.06329" lon="3.03675">
        <ele>686</ele>
        <time>2019-05-12T11:52:18+02:00</time>
      </trkpt>
      <trkpt lat="44.06326" lon="3.03662">
        <ele>688</ele>
        <time>2019-05-12T11:52:29+02:00</time>
      </trkpt>
      <trkpt lat="44.06323" lon="3.03649">
        <ele>689</ele>
        <time>2019-05-12T11:52:39+02:00</time>
      </trkpt>
      <trkpt lat="44.06321" lon="3.03636">
        <ele>690</ele>
        <time>2019-05-12T11:52:50+02:00</time>
      </trkpt>
      <trkpt lat="44.06319" lon="3.03623">
        <ele>691</ele>
        <time>2019-05-12T11:52:59+02:00</time>
      </trkpt>
      <trkpt lat="44.0632" lon="3.03608">
        <ele>690</ele>
        <time>2019-05-12T11:53:10+02:00</time>
      </trkpt>
      <trkpt lat="44.06317" lon="3.03595">
        <ele>692</ele>
        <time>2019-05-12T11:53:21+02:00</time>
      </trkpt>
      <trkpt lat="44.06316" lon="3.03582">
        <ele>692</ele>
        <time>2019-05-12T11:53:33+02:00</time>
      </trkpt>
      <trkpt lat="44.06315" lon="3.03569">
        <ele>691</ele>
        <time>2019-05-12T11:53:42+02:00</time>
      </trkpt>
      <trkpt lat="44.06314" lon="3.03556">
        <ele>691</ele>
        <time>2019-05-12T11:53:54+02:00</time>
      </trkpt>
      <trkpt lat="44.06309" lon="3.03545">
        <ele>692</ele>
        <time>2019-05-12T11:54:03+02:00</time>
      </trkpt>
      <trkpt lat="44.06303" lon="3.03535">
        <ele>693</ele>
        <time>2019-05-12T11:54:14+02:00</time>
      </trkpt>
      <trkpt lat="44.06297" lon="3.03524">
        <ele>693</ele>
        <time>2019-05-12T11:54:27+02:00</time>
      </trkpt>
      <trkpt lat="44.0629" lon="3.03516">
        <ele>694</ele>
        <time>2019-05-12T11:54:40+02:00</time>
      </trkpt>
      <trkpt lat="44.06283" lon="3.03508">
        <ele>695</ele>
        <time>2019-05-12T11:54:51+02:00</time>
      </trkpt>
      <trkpt lat="44.06275" lon="3.035">
        <ele>696</ele>
        <time>2019-05-12T11:55:00+02:00</time>
      </trkpt>
      <trkpt lat="44.06268" lon="3.03491">
        <ele>696</ele>
        <time>2019-05-12T11:55:10+02:00</time>
      </trkpt>
      <trkpt lat="44.06262" lon="3.03479">
        <ele>695</ele>
        <time>2019-05-12T11:55:19+02:00</time>
      </trkpt>
      <trkpt lat="44.06257" lon="3.03468">
        <ele>695</ele>
        <time>2019-05-12T11:55:31+02:00</time>
      </trkpt>
      <trkpt lat="44.06252" lon="3.03456">
        <ele>694</ele>
        <time>2019-05-12T11:55:40+02:00</time>
      </trkpt>
      <trkpt lat="44.06244" lon="3.0345">
        <ele>695</ele>
        <time>2019-05-12T11:55:51+02:00</time>
      </trkpt>
      <trkpt lat="44.06235" lon="3.03446">
        <ele>695</ele>
        <time>2019-05-12T11:56:07+02:00</time>
      </trkpt>
      <trkpt lat="44.06227" lon="3.03454">
        <ele>698</ele>
        <time>2019-05-12T11:56:30+02:00</time>
      </trkpt>
      <trkpt lat="44.06226" lon="3.03467">
        <ele>700</ele>
        <time>2019-05-12T11:56:42+02:00</time>
      </trkpt>
      <trkpt lat="44.06219" lon="3.03476">
        <ele>702</ele>
        <time>2019-05-12T11:56:54+02:00</time>
      </trkpt>
      <trkpt lat="44.06215" lon="3.03487">
        <ele>704</ele>
        <time>2019-05-12T11:57:03+02:00</time>
      </trkpt>
      <trkpt lat="44.06209" lon="3.03496">
        <ele>706</ele>
        <time>2019-05-12T11:57:13+02:00</time>
      </trkpt>
      <trkpt lat="44.06201" lon="3.03506">
        <ele>708</ele>
        <time>2019-05-12T11:57:27+02:00</time>
      </trkpt>
      <trkpt lat="44.06193" lon="3.03513">
        <ele>710</ele>
        <time>2019-05-12T11:57:37+02:00</time>
      </trkpt>
      <trkpt lat="44.06188" lon="3.03524">
        <ele>712</ele>
        <time>2019-05-12T11:57:51+02:00</time>
      </trkpt>
      <trkpt lat="44.06183" lon="3.03514">
        <ele>711</ele>
        <time>2019-05-12T11:57:58+02:00</time>
      </trkpt>
      <trkpt lat="44.06172" lon="3.03518">
        <ele>713</ele>
        <time>2019-05-12T11:58:04+02:00</time>
      </trkpt>
      <trkpt lat="44.06163" lon="3.03514">
        <ele>713</ele>
        <time>2019-05-12T11:58:22+02:00</time>
      </trkpt>
      <trkpt lat="44.06157" lon="3.03524">
        <ele>715</ele>
        <time>2019-05-12T12:00:23+02:00</time>
      </trkpt>
      <trkpt lat="44.06152" lon="3.03535">
        <ele>716</ele>
        <time>2019-05-12T12:00:33+02:00</time>
      </trkpt>
      <trkpt lat="44.06149" lon="3.03548">
        <ele>717</ele>
        <time>2019-05-12T12:00:44+02:00</time>
      </trkpt>
      <trkpt lat="44.0614" lon="3.03554">
        <ele>718</ele>
        <time>2019-05-12T12:00:55+02:00</time>
      </trkpt>
      <trkpt lat="44.06131" lon="3.03558">
        <ele>718</ele>
        <time>2019-05-12T12:01:03+02:00</time>
      </trkpt>
      <trkpt lat="44.06122" lon="3.03561">
        <ele>719</ele>
        <time>2019-05-12T12:01:13+02:00</time>
      </trkpt>
      <trkpt lat="44.06112" lon="3.03561">
        <ele>719</ele>
        <time>2019-05-12T12:01:20+02:00</time>
      </trkpt>
      <trkpt lat="44.06103" lon="3.03557">
        <ele>720</ele>
        <time>2019-05-12T12:01:29+02:00</time>
      </trkpt>
      <trkpt lat="44.06096" lon="3.03546">
        <ele>720</ele>
        <time>2019-05-12T12:01:42+02:00</time>
      </trkpt>
      <trkpt lat="44.06089" lon="3.03538">
        <ele>720</ele>
        <time>2019-05-12T12:01:51+02:00</time>
      </trkpt>
      <trkpt lat="44.06079" lon="3.03533">
        <ele>721</ele>
        <time>2019-05-12T12:02:07+02:00</time>
      </trkpt>
      <trkpt lat="44.06071" lon="3.03526">
        <ele>721</ele>
        <time>2019-05-12T12:02:19+02:00</time>
      </trkpt>
      <trkpt lat="44.06062" lon="3.03523">
        <ele>721</ele>
        <time>2019-05-12T12:02:26+02:00</time>
      </trkpt>
      <trkpt lat="44.06052" lon="3.03523">
        <ele>722</ele>
        <time>2019-05-12T12:02:55+02:00</time>
      </trkpt>
      <trkpt lat="44.06041" lon="3.03525">
        <ele>723</ele>
        <time>2019-05-12T12:03:02+02:00</time>
      </trkpt>
      <trkpt lat="44.06032" lon="3.03526">
        <ele>723</ele>
        <time>2019-05-12T12:03:10+02:00</time>
      </trkpt>
      <trkpt lat="44.06023" lon="3.03526">
        <ele>723</ele>
        <time>2019-05-12T12:03:21+02:00</time>
      </trkpt>
      <trkpt lat="44.06014" lon="3.03525">
        <ele>724</ele>
        <time>2019-05-12T12:03:34+02:00</time>
      </trkpt>
      <trkpt lat="44.06005" lon="3.03527">
        <ele>724</ele>
        <time>2019-05-12T12:03:44+02:00</time>
      </trkpt>
      <trkpt lat="44.05995" lon="3.03533">
        <ele>725</ele>
        <time>2019-05-12T12:03:59+02:00</time>
      </trkpt>
      <trkpt lat="44.05992" lon="3.03522">
        <ele>725</ele>
        <time>2019-05-12T12:04:09+02:00</time>
      </trkpt>
      <trkpt lat="44.05983" lon="3.03514">
        <ele>725</ele>
        <time>2019-05-12T12:04:11+02:00</time>
      </trkpt>
      <trkpt lat="44.05977" lon="3.03523">
        <ele>725</ele>
        <time>2019-05-12T12:04:30+02:00</time>
      </trkpt>
      <trkpt lat="44.05968" lon="3.03524">
        <ele>725</ele>
        <time>2019-05-12T12:05:16+02:00</time>
      </trkpt>
      <trkpt lat="44.05973" lon="3.03535">
        <ele>725</ele>
        <time>2019-05-12T12:05:57+02:00</time>
      </trkpt>
      <trkpt lat="44.05981" lon="3.03544">
        <ele>725</ele>
        <time>2019-05-12T12:06:04+02:00</time>
      </trkpt>
      <trkpt lat="44.05985" lon="3.03555">
        <ele>725</ele>
        <time>2019-05-12T12:06:12+02:00</time>
      </trkpt>
      <trkpt lat="44.05988" lon="3.03567">
        <ele>725</ele>
        <time>2019-05-12T12:06:17+02:00</time>
      </trkpt>
      <trkpt lat="44.05987" lon="3.0358">
        <ele>724</ele>
        <time>2019-05-12T12:06:26+02:00</time>
      </trkpt>
      <trkpt lat="44.05985" lon="3.03593">
        <ele>725</ele>
        <time>2019-05-12T12:06:31+02:00</time>
      </trkpt>
      <trkpt lat="44.05983" lon="3.03605">
        <ele>725</ele>
        <time>2019-05-12T12:06:41+02:00</time>
      </trkpt>
      <trkpt lat="44.05983" lon="3.03617">
        <ele>726</ele>
        <time>2019-05-12T12:06:48+02:00</time>
      </trkpt>
      <trkpt lat="44.05983" lon="3.0363">
        <ele>726</ele>
        <time>2019-05-12T12:06:55+02:00</time>
      </trkpt>
      <trkpt lat="44.0598" lon="3.03642">
        <ele>727</ele>
        <time>2019-05-12T12:07:02+02:00</time>
      </trkpt>
      <trkpt lat="44.05978" lon="3.03656">
        <ele>727</ele>
        <time>2019-05-12T12:07:09+02:00</time>
      </trkpt>
      <trkpt lat="44.05977" lon="3.03668">
        <ele>728</ele>
        <time>2019-05-12T12:07:22+02:00</time>
      </trkpt>
      <trkpt lat="44.05975" lon="3.03681">
        <ele>728</ele>
        <time>2019-05-12T12:07:33+02:00</time>
      </trkpt>
      <trkpt lat="44.05975" lon="3.03697">
        <ele>729</ele>
        <time>2019-05-12T12:07:45+02:00</time>
      </trkpt>
      <trkpt lat="44.05977" lon="3.0371">
        <ele>730</ele>
        <time>2019-05-12T12:07:53+02:00</time>
      </trkpt>
      <trkpt lat="44.05979" lon="3.03722">
        <ele>730</ele>
        <time>2019-05-12T12:08:07+02:00</time>
      </trkpt>
      <trkpt lat="44.05981" lon="3.03735">
        <ele>730</ele>
        <time>2019-05-12T12:08:19+02:00</time>
      </trkpt>
      <trkpt lat="44.05985" lon="3.03747">
        <ele>731</ele>
        <time>2019-05-12T12:08:33+02:00</time>
      </trkpt>
      <trkpt lat="44.05988" lon="3.03759">
        <ele>731</ele>
        <time>2019-05-12T12:08:47+02:00</time>
      </trkpt>
      <trkpt lat="44.05989" lon="3.03774">
        <ele>732</ele>
        <time>2019-05-12T12:08:55+02:00</time>
      </trkpt>
      <trkpt lat="44.05985" lon="3.03787">
        <ele>733</ele>
        <time>2019-05-12T12:09:01+02:00</time>
      </trkpt>
      <trkpt lat="44.05985" lon="3.038">
        <ele>734</ele>
        <time>2019-05-12T12:09:07+02:00</time>
      </trkpt>
      <trkpt lat="44.05987" lon="3.03813">
        <ele>735</ele>
        <time>2019-05-12T12:09:20+02:00</time>
      </trkpt>
      <trkpt lat="44.0599" lon="3.03828">
        <ele>736</ele>
        <time>2019-05-12T12:09:25+02:00</time>
      </trkpt>
      <trkpt lat="44.05991" lon="3.03842">
        <ele>737</ele>
        <time>2019-05-12T12:09:31+02:00</time>
      </trkpt>
      <trkpt lat="44.05992" lon="3.03856">
        <ele>738</ele>
        <time>2019-05-12T12:09:38+02:00</time>
      </trkpt>
      <trkpt lat="44.05992" lon="3.03869">
        <ele>739</ele>
        <time>2019-05-12T12:09:49+02:00</time>
      </trkpt>
      <trkpt lat="44.05992" lon="3.03882">
        <ele>740</ele>
        <time>2019-05-12T12:09:58+02:00</time>
      </trkpt>
      <trkpt lat="44.05993" lon="3.03894">
        <ele>742</ele>
        <time>2019-05-12T12:10:08+02:00</time>
      </trkpt>
      <trkpt lat="44.05993" lon="3.03907">
        <ele>743</ele>
        <time>2019-05-12T12:11:20+02:00</time>
      </trkpt>
      <trkpt lat="44.05995" lon="3.0392">
        <ele>744</ele>
        <time>2019-05-12T12:11:31+02:00</time>
      </trkpt>
      <trkpt lat="44.05997" lon="3.03932">
        <ele>744</ele>
        <time>2019-05-12T12:11:41+02:00</time>
      </trkpt>
      <trkpt lat="44.06" lon="3.03945">
        <ele>745</ele>
        <time>2019-05-12T12:11:50+02:00</time>
      </trkpt>
      <trkpt lat="44.06001" lon="3.03958">
        <ele>745</ele>
        <time>2019-05-12T12:12:08+02:00</time>
      </trkpt>
      <trkpt lat="44.05999" lon="3.03972">
        <ele>746</ele>
        <time>2019-05-12T12:12:17+02:00</time>
      </trkpt>
      <trkpt lat="44.05996" lon="3.03985">
        <ele>748</ele>
        <time>2019-05-12T12:12:26+02:00</time>
      </trkpt>
      <trkpt lat="44.05994" lon="3.03997">
        <ele>749</ele>
        <time>2019-05-12T12:12:38+02:00</time>
      </trkpt>
      <trkpt lat="44.0599" lon="3.04011">
        <ele>749</ele>
        <time>2019-05-12T12:12:47+02:00</time>
      </trkpt>
      <trkpt lat="44.05987" lon="3.04023">
        <ele>750</ele>
        <time>2019-05-12T12:12:53+02:00</time>
      </trkpt>
      <trkpt lat="44.05984" lon="3.04035">
        <ele>750</ele>
        <time>2019-05-12T12:13:01+02:00</time>
      </trkpt>
      <trkpt lat="44.05983" lon="3.04048">
        <ele>751</ele>
        <time>2019-05-12T12:13:05+02:00</time>
      </trkpt>
      <trkpt lat="44.05977" lon="3.04059">
        <ele>752</ele>
        <time>2019-05-12T12:13:11+02:00</time>
      </trkpt>
      <trkpt lat="44.05975" lon="3.04073">
        <ele>752</ele>
        <time>2019-05-12T12:13:16+02:00</time>
      </trkpt>
      <trkpt lat="44.05969" lon="3.04083">
        <ele>753</ele>
        <time>2019-05-12T12:13:26+02:00</time>
      </trkpt>
      <trkpt lat="44.05965" lon="3.04095">
        <ele>753</ele>
        <time>2019-05-12T12:13:35+02:00</time>
      </trkpt>
      <trkpt lat="44.05969" lon="3.04107">
        <ele>752</ele>
        <time>2019-05-12T12:13:57+02:00</time>
      </trkpt>
      <trkpt lat="44.05969" lon="3.0412">
        <ele>752</ele>
        <time>2019-05-12T12:14:02+02:00</time>
      </trkpt>
      <trkpt lat="44.05969" lon="3.04133">
        <ele>751</ele>
        <time>2019-05-12T12:14:07+02:00</time>
      </trkpt>
      <trkpt lat="44.05971" lon="3.04147">
        <ele>751</ele>
        <time>2019-05-12T12:14:10+02:00</time>
      </trkpt>
      <trkpt lat="44.05968" lon="3.04161">
        <ele>751</ele>
        <time>2019-05-12T12:14:14+02:00</time>
      </trkpt>
      <trkpt lat="44.05965" lon="3.04174">
        <ele>752</ele>
        <time>2019-05-12T12:14:20+02:00</time>
      </trkpt>
      <trkpt lat="44.05961" lon="3.04185">
        <ele>753</ele>
        <time>2019-05-12T12:14:31+02:00</time>
      </trkpt>
      <trkpt lat="44.05956" lon="3.04197">
        <ele>754</ele>
        <time>2019-05-12T12:14:40+02:00</time>
      </trkpt>
      <trkpt lat="44.05954" lon="3.0421">
        <ele>755</ele>
        <time>2019-05-12T12:14:48+02:00</time>
      </trkpt>
      <trkpt lat="44.05952" lon="3.04223">
        <ele>756</ele>
        <time>2019-05-12T12:14:55+02:00</time>
      </trkpt>
      <trkpt lat="44.0595" lon="3.04235">
        <ele>756</ele>
        <time>2019-05-12T12:15:02+02:00</time>
      </trkpt>
      <trkpt lat="44.05948" lon="3.04248">
        <ele>757</ele>
        <time>2019-05-12T12:15:24+02:00</time>
      </trkpt>
      <trkpt lat="44.0595" lon="3.04261">
        <ele>758</ele>
        <time>2019-05-12T12:15:36+02:00</time>
      </trkpt>
      <trkpt lat="44.05957" lon="3.04269">
        <ele>758</ele>
        <time>2019-05-12T12:15:55+02:00</time>
      </trkpt>
      <trkpt lat="44.05966" lon="3.04269">
        <ele>757</ele>
        <time>2019-05-12T12:16:04+02:00</time>
      </trkpt>
      <trkpt lat="44.05975" lon="3.04269">
        <ele>756</ele>
        <time>2019-05-12T12:16:12+02:00</time>
      </trkpt>
      <trkpt lat="44.05984" lon="3.04273">
        <ele>756</ele>
        <time>2019-05-12T12:16:21+02:00</time>
      </trkpt>
      <trkpt lat="44.05993" lon="3.0427">
        <ele>755</ele>
        <time>2019-05-12T12:17:03+02:00</time>
      </trkpt>
      <trkpt lat="44.06003" lon="3.04271">
        <ele>755</ele>
        <time>2019-05-12T12:17:15+02:00</time>
      </trkpt>
      <trkpt lat="44.06013" lon="3.04272">
        <ele>755</ele>
        <time>2019-05-12T12:17:24+02:00</time>
      </trkpt>
      <trkpt lat="44.06022" lon="3.04274">
        <ele>755</ele>
        <time>2019-05-12T12:17:32+02:00</time>
      </trkpt>
      <trkpt lat="44.06032" lon="3.04275">
        <ele>755</ele>
        <time>2019-05-12T12:17:40+02:00</time>
      </trkpt>
      <trkpt lat="44.06043" lon="3.04275">
        <ele>755</ele>
        <time>2019-05-12T12:17:46+02:00</time>
      </trkpt>
      <trkpt lat="44.06051" lon="3.04279">
        <ele>756</ele>
        <time>2019-05-12T12:17:55+02:00</time>
      </trkpt>
      <trkpt lat="44.0606" lon="3.04281">
        <ele>756</ele>
        <time>2019-05-12T12:18:03+02:00</time>
      </trkpt>
      <trkpt lat="44.0607" lon="3.04282">
        <ele>757</ele>
        <time>2019-05-12T12:18:11+02:00</time>
      </trkpt>
      <trkpt lat="44.06079" lon="3.04284">
        <ele>757</ele>
        <time>2019-05-12T12:18:18+02:00</time>
      </trkpt>
      <trkpt lat="44.06091" lon="3.04286">
        <ele>757</ele>
        <time>2019-05-12T12:18:27+02:00</time>
      </trkpt>
      <trkpt lat="44.061" lon="3.0429">
        <ele>757</ele>
        <time>2019-05-12T12:18:34+02:00</time>
      </trkpt>
      <trkpt lat="44.06108" lon="3.04294">
        <ele>758</ele>
        <time>2019-05-12T12:18:38+02:00</time>
      </trkpt>
      <trkpt lat="44.06118" lon="3.04293">
        <ele>757</ele>
        <time>2019-05-12T12:18:48+02:00</time>
      </trkpt>
      <trkpt lat="44.06128" lon="3.04296">
        <ele>758</ele>
        <time>2019-05-12T12:18:58+02:00</time>
      </trkpt>
      <trkpt lat="44.06137" lon="3.04301">
        <ele>758</ele>
        <time>2019-05-12T12:19:05+02:00</time>
      </trkpt>
      <trkpt lat="44.06147" lon="3.04304">
        <ele>759</ele>
        <time>2019-05-12T12:19:16+02:00</time>
      </trkpt>
      <trkpt lat="44.06157" lon="3.04303">
        <ele>758</ele>
        <time>2019-05-12T12:19:22+02:00</time>
      </trkpt>
      <trkpt lat="44.06166" lon="3.04308">
        <ele>759</ele>
        <time>2019-05-12T12:19:33+02:00</time>
      </trkpt>
      <trkpt lat="44.06172" lon="3.04317">
        <ele>761</ele>
        <time>2019-05-12T12:19:37+02:00</time>
      </trkpt>
      <trkpt lat="44.06182" lon="3.04317">
        <ele>759</ele>
        <time>2019-05-12T12:19:44+02:00</time>
      </trkpt>
      <trkpt lat="44.0619" lon="3.04324">
        <ele>760</ele>
        <time>2019-05-12T12:19:59+02:00</time>
      </trkpt>
      <trkpt lat="44.06197" lon="3.04333">
        <ele>761</ele>
        <time>2019-05-12T12:20:09+02:00</time>
      </trkpt>
      <trkpt lat="44.06204" lon="3.04341">
        <ele>761</ele>
        <time>2019-05-12T12:20:17+02:00</time>
      </trkpt>
      <trkpt lat="44.06215" lon="3.0434">
        <ele>759</ele>
        <time>2019-05-12T12:20:19+02:00</time>
      </trkpt>
      <trkpt lat="44.06228" lon="3.04338">
        <ele>757</ele>
        <time>2019-05-12T12:20:22+02:00</time>
      </trkpt>
      <trkpt lat="44.06235" lon="3.04346">
        <ele>757</ele>
        <time>2019-05-12T12:20:27+02:00</time>
      </trkpt>
      <trkpt lat="44.06242" lon="3.04356">
        <ele>757</ele>
        <time>2019-05-12T12:20:33+02:00</time>
      </trkpt>
      <trkpt lat="44.06249" lon="3.04368">
        <ele>756</ele>
        <time>2019-05-12T12:20:37+02:00</time>
      </trkpt>
      <trkpt lat="44.06254" lon="3.0438">
        <ele>755</ele>
        <time>2019-05-12T12:20:44+02:00</time>
      </trkpt>
      <trkpt lat="44.06254" lon="3.04395">
        <ele>756</ele>
        <time>2019-05-12T12:20:51+02:00</time>
      </trkpt>
      <trkpt lat="44.06256" lon="3.04407">
        <ele>756</ele>
        <time>2019-05-12T12:21:03+02:00</time>
      </trkpt>
      <trkpt lat="44.06258" lon="3.0442">
        <ele>756</ele>
        <time>2019-05-12T12:21:16+02:00</time>
      </trkpt>
      <trkpt lat="44.06259" lon="3.04435">
        <ele>755</ele>
        <time>2019-05-12T12:21:26+02:00</time>
      </trkpt>
      <trkpt lat="44.06261" lon="3.04447">
        <ele>754</ele>
        <time>2019-05-12T12:21:36+02:00</time>
      </trkpt>
      <trkpt lat="44.0626" lon="3.0446">
        <ele>753</ele>
        <time>2019-05-12T12:21:46+02:00</time>
      </trkpt>
      <trkpt lat="44.06259" lon="3.04474">
        <ele>754</ele>
        <time>2019-05-12T12:21:57+02:00</time>
      </trkpt>
      <trkpt lat="44.06254" lon="3.04486">
        <ele>755</ele>
        <time>2019-05-12T12:22:10+02:00</time>
      </trkpt>
      <trkpt lat="44.06252" lon="3.04498">
        <ele>756</ele>
        <time>2019-05-12T12:22:19+02:00</time>
      </trkpt>
      <trkpt lat="44.06252" lon="3.04513">
        <ele>755</ele>
        <time>2019-05-12T12:22:25+02:00</time>
      </trkpt>
      <trkpt lat="44.06252" lon="3.04527">
        <ele>755</ele>
        <time>2019-05-12T12:22:35+02:00</time>
      </trkpt>
      <trkpt lat="44.06248" lon="3.0454">
        <ele>756</ele>
        <time>2019-05-12T12:22:53+02:00</time>
      </trkpt>
      <trkpt lat="44.06244" lon="3.04551">
        <ele>757</ele>
        <time>2019-05-12T12:22:59+02:00</time>
      </trkpt>
      <trkpt lat="44.06239" lon="3.04562">
        <ele>758</ele>
        <time>2019-05-12T12:23:08+02:00</time>
      </trkpt>
      <trkpt lat="44.06236" lon="3.04577">
        <ele>758</ele>
        <time>2019-05-12T12:23:24+02:00</time>
      </trkpt>
      <trkpt lat="44.06233" lon="3.04589">
        <ele>758</ele>
        <time>2019-05-12T12:23:37+02:00</time>
      </trkpt>
      <trkpt lat="44.06229" lon="3.04602">
        <ele>758</ele>
        <time>2019-05-12T12:23:45+02:00</time>
      </trkpt>
      <trkpt lat="44.06227" lon="3.04614">
        <ele>757</ele>
        <time>2019-05-12T12:23:53+02:00</time>
      </trkpt>
      <trkpt lat="44.06223" lon="3.04626">
        <ele>757</ele>
        <time>2019-05-12T12:24:00+02:00</time>
      </trkpt>
      <trkpt lat="44.06222" lon="3.0464">
        <ele>756</ele>
        <time>2019-05-12T12:24:09+02:00</time>
      </trkpt>
      <trkpt lat="44.06224" lon="3.04653">
        <ele>754</ele>
        <time>2019-05-12T12:24:21+02:00</time>
      </trkpt>
      <trkpt lat="44.06218" lon="3.04664">
        <ele>755</ele>
        <time>2019-05-12T12:24:27+02:00</time>
      </trkpt>
      <trkpt lat="44.06211" lon="3.04675">
        <ele>756</ele>
        <time>2019-05-12T12:24:34+02:00</time>
      </trkpt>
      <trkpt lat="44.06206" lon="3.04685">
        <ele>756</ele>
        <time>2019-05-12T12:24:43+02:00</time>
      </trkpt>
      <trkpt lat="44.06199" lon="3.04695">
        <ele>758</ele>
        <time>2019-05-12T12:24:56+02:00</time>
      </trkpt>
      <trkpt lat="44.06192" lon="3.04704">
        <ele>760</ele>
        <time>2019-05-12T12:25:08+02:00</time>
      </trkpt>
      <trkpt lat="44.06185" lon="3.04713">
        <ele>762</ele>
        <time>2019-05-12T12:25:21+02:00</time>
      </trkpt>
      <trkpt lat="44.06178" lon="3.04721">
        <ele>765</ele>
        <time>2019-05-12T12:25:33+02:00</time>
      </trkpt>
      <trkpt lat="44.06172" lon="3.04731">
        <ele>768</ele>
        <time>2019-05-12T12:25:44+02:00</time>
      </trkpt>
      <trkpt lat="44.06167" lon="3.04741">
        <ele>771</ele>
        <time>2019-05-12T12:25:54+02:00</time>
      </trkpt>
      <trkpt lat="44.06163" lon="3.04753">
        <ele>771</ele>
        <time>2019-05-12T12:26:04+02:00</time>
      </trkpt>
      <trkpt lat="44.06154" lon="3.04749">
        <ele>773</ele>
        <time>2019-05-12T12:26:38+02:00</time>
      </trkpt>
      <trkpt lat="44.06144" lon="3.04749">
        <ele>775</ele>
        <time>2019-05-12T12:26:49+02:00</time>
      </trkpt>
      <trkpt lat="44.06135" lon="3.04747">
        <ele>777</ele>
        <time>2019-05-12T12:29:27+02:00</time>
      </trkpt>
      <trkpt lat="44.06132" lon="3.04735">
        <ele>778</ele>
        <time>2019-05-12T12:36:36+02:00</time>
      </trkpt>
      <trkpt lat="44.06133" lon="3.04723">
        <ele>779</ele>
        <time>2019-05-12T12:45:15+02:00</time>
      </trkpt>
      <trkpt lat="44.0613" lon="3.04735">
        <ele>779</ele>
        <time>2019-05-12T12:55:43+02:00</time>
      </trkpt>
      <trkpt lat="44.06126" lon="3.04746">
        <ele>779</ele>
        <time>2019-05-12T13:01:02+02:00</time>
      </trkpt>
      <trkpt lat="44.06135" lon="3.04744">
        <ele>777</ele>
        <time>2019-05-12T13:04:13+02:00</time>
      </trkpt>
      <trkpt lat="44.06131" lon="3.04756">
        <ele>777</ele>
        <time>2019-05-12T13:12:35+02:00</time>
      </trkpt>
      <trkpt lat="44.06135" lon="3.04769">
        <ele>775</ele>
        <time>2019-05-12T13:12:45+02:00</time>
      </trkpt>
      <trkpt lat="44.06137" lon="3.04782">
        <ele>774</ele>
        <time>2019-05-12T13:12:58+02:00</time>
      </trkpt>
      <trkpt lat="44.06142" lon="3.04793">
        <ele>772</ele>
        <time>2019-05-12T13:13:07+02:00</time>
      </trkpt>
      <trkpt lat="44.06145" lon="3.04806">
        <ele>770</ele>
        <time>2019-05-12T13:13:17+02:00</time>
      </trkpt>
      <trkpt lat="44.06146" lon="3.04818">
        <ele>769</ele>
        <time>2019-05-12T13:13:44+02:00</time>
      </trkpt>
      <trkpt lat="44.06142" lon="3.0483">
        <ele>769</ele>
        <time>2019-05-12T13:15:15+02:00</time>
      </trkpt>
      <trkpt lat="44.06137" lon="3.04841">
        <ele>769</ele>
        <time>2019-05-12T13:15:37+02:00</time>
      </trkpt>
      <trkpt lat="44.06134" lon="3.04854">
        <ele>768</ele>
        <time>2019-05-12T13:15:45+02:00</time>
      </trkpt>
      <trkpt lat="44.06128" lon="3.04864">
        <ele>768</ele>
        <time>2019-05-12T13:15:58+02:00</time>
      </trkpt>
      <trkpt lat="44.06123" lon="3.04874">
        <ele>769</ele>
        <time>2019-05-12T13:16:11+02:00</time>
      </trkpt>
      <trkpt lat="44.06124" lon="3.04887">
        <ele>767</ele>
        <time>2019-05-12T13:16:22+02:00</time>
      </trkpt>
      <trkpt lat="44.06123" lon="3.049">
        <ele>766</ele>
        <time>2019-05-12T13:16:30+02:00</time>
      </trkpt>
      <trkpt lat="44.06121" lon="3.04913">
        <ele>765</ele>
        <time>2019-05-12T13:16:43+02:00</time>
      </trkpt>
      <trkpt lat="44.06129" lon="3.04922">
        <ele>762</ele>
        <time>2019-05-12T13:16:48+02:00</time>
      </trkpt>
      <trkpt lat="44.06123" lon="3.04934">
        <ele>764</ele>
        <time>2019-05-12T13:16:54+02:00</time>
      </trkpt>
      <trkpt lat="44.06119" lon="3.04946">
        <ele>766</ele>
        <time>2019-05-12T13:17:00+02:00</time>
      </trkpt>
      <trkpt lat="44.06117" lon="3.0496">
        <ele>767</ele>
        <time>2019-05-12T13:17:10+02:00</time>
      </trkpt>
      <trkpt lat="44.06116" lon="3.04973">
        <ele>768</ele>
        <time>2019-05-12T13:17:24+02:00</time>
      </trkpt>
      <trkpt lat="44.06119" lon="3.04986">
        <ele>767</ele>
        <time>2019-05-12T13:17:33+02:00</time>
      </trkpt>
      <trkpt lat="44.06121" lon="3.04999">
        <ele>767</ele>
        <time>2019-05-12T13:17:42+02:00</time>
      </trkpt>
      <trkpt lat="44.06124" lon="3.05012">
        <ele>766</ele>
        <time>2019-05-12T13:17:51+02:00</time>
      </trkpt>
      <trkpt lat="44.06126" lon="3.05024">
        <ele>766</ele>
        <time>2019-05-12T13:17:59+02:00</time>
      </trkpt>
      <trkpt lat="44.0613" lon="3.05036">
        <ele>765</ele>
        <time>2019-05-12T13:18:06+02:00</time>
      </trkpt>
      <trkpt lat="44.06138" lon="3.05044">
        <ele>764</ele>
        <time>2019-05-12T13:18:13+02:00</time>
      </trkpt>
      <trkpt lat="44.06146" lon="3.05052">
        <ele>763</ele>
        <time>2019-05-12T13:18:19+02:00</time>
      </trkpt>
      <trkpt lat="44.06153" lon="3.0506">
        <ele>763</ele>
        <time>2019-05-12T13:18:58+02:00</time>
      </trkpt>
      <trkpt lat="44.06162" lon="3.05063">
        <ele>762</ele>
        <time>2019-05-12T13:19:08+02:00</time>
      </trkpt>
      <trkpt lat="44.06172" lon="3.05066">
        <ele>757</ele>
        <time>2019-05-12T13:19:16+02:00</time>
      </trkpt>
      <trkpt lat="44.06182" lon="3.05068">
        <ele>748</ele>
        <time>2019-05-12T13:19:25+02:00</time>
      </trkpt>
      <trkpt lat="44.06191" lon="3.0507">
        <ele>739</ele>
        <time>2019-05-12T13:19:31+02:00</time>
      </trkpt>
      <trkpt lat="44.062" lon="3.05072">
        <ele>731</ele>
        <time>2019-05-12T13:19:38+02:00</time>
      </trkpt>
      <trkpt lat="44.06209" lon="3.05077">
        <ele>724</ele>
        <time>2019-05-12T13:19:49+02:00</time>
      </trkpt>
      <trkpt lat="44.06216" lon="3.05084">
        <ele>718</ele>
        <time>2019-05-12T13:20:00+02:00</time>
      </trkpt>
      <trkpt lat="44.06214" lon="3.05098">
        <ele>723</ele>
        <time>2019-05-12T13:20:14+02:00</time>
      </trkpt>
      <trkpt lat="44.0621" lon="3.05109">
        <ele>728</ele>
        <time>2019-05-12T13:20:24+02:00</time>
      </trkpt>
      <trkpt lat="44.06206" lon="3.05122">
        <ele>733</ele>
        <time>2019-05-12T13:20:31+02:00</time>
      </trkpt>
      <trkpt lat="44.06206" lon="3.05135">
        <ele>735</ele>
        <time>2019-05-12T13:20:39+02:00</time>
      </trkpt>
      <trkpt lat="44.06204" lon="3.05148">
        <ele>738</ele>
        <time>2019-05-12T13:20:48+02:00</time>
      </trkpt>
      <trkpt lat="44.06203" lon="3.05161">
        <ele>740</ele>
        <time>2019-05-12T13:20:55+02:00</time>
      </trkpt>
      <trkpt lat="44.06206" lon="3.05174">
        <ele>739</ele>
        <time>2019-05-12T13:21:04+02:00</time>
      </trkpt>
      <trkpt lat="44.06212" lon="3.05185">
        <ele>736</ele>
        <time>2019-05-12T13:21:11+02:00</time>
      </trkpt>
      <trkpt lat="44.06221" lon="3.05192">
        <ele>732</ele>
        <time>2019-05-12T13:21:23+02:00</time>
      </trkpt>
      <trkpt lat="44.06228" lon="3.05201">
        <ele>729</ele>
        <time>2019-05-12T13:21:32+02:00</time>
      </trkpt>
      <trkpt lat="44.0623" lon="3.05213">
        <ele>728</ele>
        <time>2019-05-12T13:21:50+02:00</time>
      </trkpt>
      <trkpt lat="44.06229" lon="3.05225">
        <ele>729</ele>
        <time>2019-05-12T13:22:00+02:00</time>
      </trkpt>
      <trkpt lat="44.0623" lon="3.05239">
        <ele>729</ele>
        <time>2019-05-12T13:22:12+02:00</time>
      </trkpt>
      <trkpt lat="44.06234" lon="3.05251">
        <ele>728</ele>
        <time>2019-05-12T13:22:25+02:00</time>
      </trkpt>
      <trkpt lat="44.06234" lon="3.05264">
        <ele>727</ele>
        <time>2019-05-12T13:22:33+02:00</time>
      </trkpt>
      <trkpt lat="44.06233" lon="3.05278">
        <ele>727</ele>
        <time>2019-05-12T13:22:54+02:00</time>
      </trkpt>
      <trkpt lat="44.06235" lon="3.05292">
        <ele>726</ele>
        <time>2019-05-12T13:23:02+02:00</time>
      </trkpt>
      <trkpt lat="44.06235" lon="3.05305">
        <ele>726</ele>
        <time>2019-05-12T13:23:10+02:00</time>
      </trkpt>
      <trkpt lat="44.06236" lon="3.05318">
        <ele>726</ele>
        <time>2019-05-12T13:23:20+02:00</time>
      </trkpt>
      <trkpt lat="44.06239" lon="3.05331">
        <ele>725</ele>
        <time>2019-05-12T13:23:33+02:00</time>
      </trkpt>
      <trkpt lat="44.06243" lon="3.05344">
        <ele>724</ele>
        <time>2019-05-12T13:23:42+02:00</time>
      </trkpt>
      <trkpt lat="44.0625" lon="3.05354">
        <ele>723</ele>
        <time>2019-05-12T13:23:49+02:00</time>
      </trkpt>
      <trkpt lat="44.06257" lon="3.05363">
        <ele>719</ele>
        <time>2019-05-12T13:23:56+02:00</time>
      </trkpt>
      <trkpt lat="44.06263" lon="3.05372">
        <ele>717</ele>
        <time>2019-05-12T13:24:05+02:00</time>
      </trkpt>
      <trkpt lat="44.06273" lon="3.05377">
        <ele>713</ele>
        <time>2019-05-12T13:24:13+02:00</time>
      </trkpt>
      <trkpt lat="44.06282" lon="3.05379">
        <ele>709</ele>
        <time>2019-05-12T13:24:19+02:00</time>
      </trkpt>
      <trkpt lat="44.06291" lon="3.05383">
        <ele>705</ele>
        <time>2019-05-12T13:24:26+02:00</time>
      </trkpt>
      <trkpt lat="44.06295" lon="3.05395">
        <ele>707</ele>
        <time>2019-05-12T13:24:34+02:00</time>
      </trkpt>
      <trkpt lat="44.06304" lon="3.05397">
        <ele>704</ele>
        <time>2019-05-12T13:24:39+02:00</time>
      </trkpt>
      <trkpt lat="44.06313" lon="3.05402">
        <ele>702</ele>
        <time>2019-05-12T13:24:47+02:00</time>
      </trkpt>
      <trkpt lat="44.06317" lon="3.05415">
        <ele>705</ele>
        <time>2019-05-12T13:24:57+02:00</time>
      </trkpt>
      <trkpt lat="44.0631" lon="3.05425">
        <ele>709</ele>
        <time>2019-05-12T13:24:59+02:00</time>
      </trkpt>
      <trkpt lat="44.06319" lon="3.05429">
        <ele>707</ele>
        <time>2019-05-12T13:25:15+02:00</time>
      </trkpt>
      <trkpt lat="44.06329" lon="3.05431">
        <ele>704</ele>
        <time>2019-05-12T13:25:23+02:00</time>
      </trkpt>
      <trkpt lat="44.06338" lon="3.05434">
        <ele>703</ele>
        <time>2019-05-12T13:25:30+02:00</time>
      </trkpt>
      <trkpt lat="44.06347" lon="3.05437">
        <ele>701</ele>
        <time>2019-05-12T13:25:38+02:00</time>
      </trkpt>
      <trkpt lat="44.06357" lon="3.05441">
        <ele>700</ele>
        <time>2019-05-12T13:25:46+02:00</time>
      </trkpt>
      <trkpt lat="44.06367" lon="3.05443">
        <ele>698</ele>
        <time>2019-05-12T13:25:53+02:00</time>
      </trkpt>
      <trkpt lat="44.06377" lon="3.05445">
        <ele>696</ele>
        <time>2019-05-12T13:26:02+02:00</time>
      </trkpt>
      <trkpt lat="44.06385" lon="3.05449">
        <ele>695</ele>
        <time>2019-05-12T13:26:10+02:00</time>
      </trkpt>
      <trkpt lat="44.06393" lon="3.05457">
        <ele>695</ele>
        <time>2019-05-12T13:26:18+02:00</time>
      </trkpt>
      <trkpt lat="44.064" lon="3.05466">
        <ele>696</ele>
        <time>2019-05-12T13:26:26+02:00</time>
      </trkpt>
      <trkpt lat="44.06407" lon="3.05476">
        <ele>697</ele>
        <time>2019-05-12T13:26:35+02:00</time>
      </trkpt>
      <trkpt lat="44.06414" lon="3.05484">
        <ele>698</ele>
        <time>2019-05-12T13:26:43+02:00</time>
      </trkpt>
      <trkpt lat="44.0642" lon="3.05495">
        <ele>698</ele>
        <time>2019-05-12T13:26:52+02:00</time>
      </trkpt>
      <trkpt lat="44.06427" lon="3.05503">
        <ele>696</ele>
        <time>2019-05-12T13:27:01+02:00</time>
      </trkpt>
      <trkpt lat="44.06434" lon="3.05512">
        <ele>694</ele>
        <time>2019-05-12T13:27:08+02:00</time>
      </trkpt>
      <trkpt lat="44.06441" lon="3.05521">
        <ele>691</ele>
        <time>2019-05-12T13:27:16+02:00</time>
      </trkpt>
      <trkpt lat="44.06448" lon="3.0553">
        <ele>689</ele>
        <time>2019-05-12T13:27:25+02:00</time>
      </trkpt>
      <trkpt lat="44.0645" lon="3.05543">
        <ele>689</ele>
        <time>2019-05-12T13:27:34+02:00</time>
      </trkpt>
      <trkpt lat="44.06454" lon="3.05555">
        <ele>688</ele>
        <time>2019-05-12T13:27:44+02:00</time>
      </trkpt>
      <trkpt lat="44.06459" lon="3.05566">
        <ele>687</ele>
        <time>2019-05-12T13:27:59+02:00</time>
      </trkpt>
      <trkpt lat="44.06462" lon="3.0558">
        <ele>688</ele>
        <time>2019-05-12T13:28:12+02:00</time>
      </trkpt>
      <trkpt lat="44.06466" lon="3.05591">
        <ele>688</ele>
        <time>2019-05-12T13:28:26+02:00</time>
      </trkpt>
      <trkpt lat="44.06475" lon="3.05596">
        <ele>686</ele>
        <time>2019-05-12T13:28:36+02:00</time>
      </trkpt>
      <trkpt lat="44.06482" lon="3.05604">
        <ele>686</ele>
        <time>2019-05-12T13:28:45+02:00</time>
      </trkpt>
      <trkpt lat="44.06491" lon="3.05604">
        <ele>683</ele>
        <time>2019-05-12T13:28:53+02:00</time>
      </trkpt>
      <trkpt lat="44.06501" lon="3.05611">
        <ele>683</ele>
        <time>2019-05-12T13:29:03+02:00</time>
      </trkpt>
      <trkpt lat="44.06507" lon="3.05622">
        <ele>684</ele>
        <time>2019-05-12T13:29:15+02:00</time>
      </trkpt>
      <trkpt lat="44.06514" lon="3.0563">
        <ele>686</ele>
        <time>2019-05-12T13:29:50+02:00</time>
      </trkpt>
      <trkpt lat="44.0652" lon="3.0564">
        <ele>688</ele>
        <time>2019-05-12T13:29:56+02:00</time>
      </trkpt>
      <trkpt lat="44.06526" lon="3.0565">
        <ele>690</ele>
        <time>2019-05-12T13:30:04+02:00</time>
      </trkpt>
      <trkpt lat="44.06532" lon="3.0566">
        <ele>692</ele>
        <time>2019-05-12T13:30:12+02:00</time>
      </trkpt>
      <trkpt lat="44.06537" lon="3.05673">
        <ele>695</ele>
        <time>2019-05-12T13:30:17+02:00</time>
      </trkpt>
      <trkpt lat="44.0654" lon="3.05685">
        <ele>697</ele>
        <time>2019-05-12T13:30:23+02:00</time>
      </trkpt>
      <trkpt lat="44.06546" lon="3.05695">
        <ele>698</ele>
        <time>2019-05-12T13:30:35+02:00</time>
      </trkpt>
      <trkpt lat="44.06555" lon="3.05695">
        <ele>697</ele>
        <time>2019-05-12T13:30:45+02:00</time>
      </trkpt>
      <trkpt lat="44.06565" lon="3.05691">
        <ele>695</ele>
        <time>2019-05-12T13:31:00+02:00</time>
      </trkpt>
      <trkpt lat="44.06574" lon="3.0569">
        <ele>694</ele>
        <time>2019-05-12T13:31:05+02:00</time>
      </trkpt>
      <trkpt lat="44.06583" lon="3.05696">
        <ele>695</ele>
        <time>2019-05-12T13:31:13+02:00</time>
      </trkpt>
      <trkpt lat="44.06591" lon="3.05702">
        <ele>696</ele>
        <time>2019-05-12T13:31:22+02:00</time>
      </trkpt>
      <trkpt lat="44.06599" lon="3.0571">
        <ele>698</ele>
        <time>2019-05-12T13:32:55+02:00</time>
      </trkpt>
      <trkpt lat="44.06607" lon="3.05715">
        <ele>700</ele>
        <time>2019-05-12T13:33:02+02:00</time>
      </trkpt>
      <trkpt lat="44.06613" lon="3.05725">
        <ele>702</ele>
        <time>2019-05-12T13:33:20+02:00</time>
      </trkpt>
      <trkpt lat="44.06622" lon="3.05729">
        <ele>704</ele>
        <time>2019-05-12T13:33:28+02:00</time>
      </trkpt>
      <trkpt lat="44.0663" lon="3.05735">
        <ele>705</ele>
        <time>2019-05-12T13:33:40+02:00</time>
      </trkpt>
      <trkpt lat="44.06639" lon="3.05741">
        <ele>707</ele>
        <time>2019-05-12T13:33:52+02:00</time>
      </trkpt>
      <trkpt lat="44.06648" lon="3.05742">
        <ele>708</ele>
        <time>2019-05-12T13:33:59+02:00</time>
      </trkpt>
      <trkpt lat="44.06657" lon="3.05742">
        <ele>709</ele>
        <time>2019-05-12T13:34:06+02:00</time>
      </trkpt>
      <trkpt lat="44.06667" lon="3.05742">
        <ele>709</ele>
        <time>2019-05-12T13:34:15+02:00</time>
      </trkpt>
      <trkpt lat="44.06676" lon="3.05747">
        <ele>710</ele>
        <time>2019-05-12T13:34:25+02:00</time>
      </trkpt>
      <trkpt lat="44.06685" lon="3.05753">
        <ele>710</ele>
        <time>2019-05-12T13:34:35+02:00</time>
      </trkpt>
      <trkpt lat="44.06693" lon="3.05761">
        <ele>711</ele>
        <time>2019-05-12T13:34:45+02:00</time>
      </trkpt>
      <trkpt lat="44.06701" lon="3.05767">
        <ele>711</ele>
        <time>2019-05-12T13:34:55+02:00</time>
      </trkpt>
      <trkpt lat="44.06708" lon="3.05776">
        <ele>711</ele>
        <time>2019-05-12T13:35:04+02:00</time>
      </trkpt>
      <trkpt lat="44.06716" lon="3.05783">
        <ele>712</ele>
        <time>2019-05-12T13:35:12+02:00</time>
      </trkpt>
      <trkpt lat="44.06725" lon="3.0579">
        <ele>712</ele>
        <time>2019-05-12T13:35:21+02:00</time>
      </trkpt>
      <trkpt lat="44.06733" lon="3.05795">
        <ele>712</ele>
        <time>2019-05-12T13:35:27+02:00</time>
      </trkpt>
      <trkpt lat="44.06743" lon="3.05798">
        <ele>712</ele>
        <time>2019-05-12T13:35:32+02:00</time>
      </trkpt>
      <trkpt lat="44.06752" lon="3.05803">
        <ele>713</ele>
        <time>2019-05-12T13:35:40+02:00</time>
      </trkpt>
      <trkpt lat="44.06762" lon="3.05807">
        <ele>713</ele>
        <time>2019-05-12T13:35:49+02:00</time>
      </trkpt>
      <trkpt lat="44.06769" lon="3.05814">
        <ele>714</ele>
        <time>2019-05-12T13:35:58+02:00</time>
      </trkpt>
      <trkpt lat="44.06779" lon="3.05819">
        <ele>715</ele>
        <time>2019-05-12T13:36:07+02:00</time>
      </trkpt>
      <trkpt lat="44.06788" lon="3.05821">
        <ele>715</ele>
        <time>2019-05-12T13:36:13+02:00</time>
      </trkpt>
      <trkpt lat="44.06798" lon="3.05822">
        <ele>715</ele>
        <time>2019-05-12T13:36:19+02:00</time>
      </trkpt>
      <trkpt lat="44.06808" lon="3.05823">
        <ele>716</ele>
        <time>2019-05-12T13:36:27+02:00</time>
      </trkpt>
      <trkpt lat="44.06817" lon="3.05824">
        <ele>716</ele>
        <time>2019-05-12T13:36:34+02:00</time>
      </trkpt>
      <trkpt lat="44.06827" lon="3.05825">
        <ele>717</ele>
        <time>2019-05-12T13:36:40+02:00</time>
      </trkpt>
      <trkpt lat="44.06836" lon="3.05827">
        <ele>717</ele>
        <time>2019-05-12T13:36:46+02:00</time>
      </trkpt>
      <trkpt lat="44.06846" lon="3.05827">
        <ele>718</ele>
        <time>2019-05-12T13:36:54+02:00</time>
      </trkpt>
      <trkpt lat="44.06856" lon="3.05824">
        <ele>717</ele>
        <time>2019-05-12T13:37:02+02:00</time>
      </trkpt>
      <trkpt lat="44.06865" lon="3.05823">
        <ele>717</ele>
        <time>2019-05-12T13:37:11+02:00</time>
      </trkpt>
      <trkpt lat="44.06874" lon="3.05819">
        <ele>716</ele>
        <time>2019-05-12T13:37:20+02:00</time>
      </trkpt>
      <trkpt lat="44.06883" lon="3.05816">
        <ele>716</ele>
        <time>2019-05-12T13:37:28+02:00</time>
      </trkpt>
      <trkpt lat="44.06892" lon="3.05814">
        <ele>715</ele>
        <time>2019-05-12T13:37:37+02:00</time>
      </trkpt>
      <trkpt lat="44.06903" lon="3.05816">
        <ele>716</ele>
        <time>2019-05-12T13:37:56+02:00</time>
      </trkpt>
      <trkpt lat="44.06913" lon="3.05816">
        <ele>716</ele>
        <time>2019-05-12T13:38:03+02:00</time>
      </trkpt>
      <trkpt lat="44.06922" lon="3.05818">
        <ele>717</ele>
        <time>2019-05-12T13:38:13+02:00</time>
      </trkpt>
      <trkpt lat="44.06932" lon="3.05818">
        <ele>717</ele>
        <time>2019-05-12T13:38:23+02:00</time>
      </trkpt>
      <trkpt lat="44.06942" lon="3.05817">
        <ele>717</ele>
        <time>2019-05-12T13:38:33+02:00</time>
      </trkpt>
      <trkpt lat="44.06951" lon="3.05817">
        <ele>718</ele>
        <time>2019-05-12T13:38:44+02:00</time>
      </trkpt>
      <trkpt lat="44.0696" lon="3.0582">
        <ele>719</ele>
        <time>2019-05-12T13:38:54+02:00</time>
      </trkpt>
      <trkpt lat="44.0697" lon="3.05821">
        <ele>720</ele>
        <time>2019-05-12T13:39:01+02:00</time>
      </trkpt>
      <trkpt lat="44.06979" lon="3.05822">
        <ele>720</ele>
        <time>2019-05-12T13:39:08+02:00</time>
      </trkpt>
      <trkpt lat="44.06989" lon="3.05824">
        <ele>721</ele>
        <time>2019-05-12T13:39:16+02:00</time>
      </trkpt>
      <trkpt lat="44.06997" lon="3.05832">
        <ele>724</ele>
        <time>2019-05-12T13:39:21+02:00</time>
      </trkpt>
      <trkpt lat="44.07006" lon="3.05838">
        <ele>725</ele>
        <time>2019-05-12T13:39:29+02:00</time>
      </trkpt>
      <trkpt lat="44.07014" lon="3.05844">
        <ele>724</ele>
        <time>2019-05-12T13:39:41+02:00</time>
      </trkpt>
      <trkpt lat="44.0702" lon="3.05834">
        <ele>722</ele>
        <time>2019-05-12T13:40:04+02:00</time>
      </trkpt>
      <trkpt lat="44.0703" lon="3.05835">
        <ele>721</ele>
        <time>2019-05-12T13:41:27+02:00</time>
      </trkpt>
      <trkpt lat="44.0704" lon="3.05835">
        <ele>720</ele>
        <time>2019-05-12T13:41:34+02:00</time>
      </trkpt>
      <trkpt lat="44.0705" lon="3.05831">
        <ele>718</ele>
        <time>2019-05-12T13:41:42+02:00</time>
      </trkpt>
      <trkpt lat="44.07057" lon="3.05822">
        <ele>713</ele>
        <time>2019-05-12T13:41:55+02:00</time>
      </trkpt>
      <trkpt lat="44.07054" lon="3.05835">
        <ele>718</ele>
        <time>2019-05-12T13:49:08+02:00</time>
      </trkpt>
      <trkpt lat="44.07047" lon="3.05844">
        <ele>720</ele>
        <time>2019-05-12T13:49:17+02:00</time>
      </trkpt>
      <trkpt lat="44.0704" lon="3.05853">
        <ele>721</ele>
        <time>2019-05-12T13:49:28+02:00</time>
      </trkpt>
      <trkpt lat="44.07036" lon="3.05864">
        <ele>723</ele>
        <time>2019-05-12T13:49:35+02:00</time>
      </trkpt>
      <trkpt lat="44.07031" lon="3.05875">
        <ele>724</ele>
        <time>2019-05-12T13:49:44+02:00</time>
      </trkpt>
      <trkpt lat="44.07032" lon="3.0589">
        <ele>726</ele>
        <time>2019-05-12T13:49:56+02:00</time>
      </trkpt>
      <trkpt lat="44.07031" lon="3.05903">
        <ele>727</ele>
        <time>2019-05-12T13:50:04+02:00</time>
      </trkpt>
      <trkpt lat="44.07029" lon="3.05917">
        <ele>728</ele>
        <time>2019-05-12T13:50:11+02:00</time>
      </trkpt>
      <trkpt lat="44.07028" lon="3.05932">
        <ele>728</ele>
        <time>2019-05-12T13:50:18+02:00</time>
      </trkpt>
      <trkpt lat="44.07029" lon="3.05945">
        <ele>728</ele>
        <time>2019-05-12T13:50:25+02:00</time>
      </trkpt>
      <trkpt lat="44.07027" lon="3.05957">
        <ele>729</ele>
        <time>2019-05-12T13:50:33+02:00</time>
      </trkpt>
      <trkpt lat="44.07024" lon="3.05969">
        <ele>729</ele>
        <time>2019-05-12T13:50:45+02:00</time>
      </trkpt>
      <trkpt lat="44.07026" lon="3.05984">
        <ele>729</ele>
        <time>2019-05-12T13:50:51+02:00</time>
      </trkpt>
      <trkpt lat="44.07029" lon="3.05996">
        <ele>728</ele>
        <time>2019-05-12T13:50:58+02:00</time>
      </trkpt>
      <trkpt lat="44.07032" lon="3.06008">
        <ele>728</ele>
        <time>2019-05-12T13:51:05+02:00</time>
      </trkpt>
      <trkpt lat="44.07036" lon="3.0602">
        <ele>728</ele>
        <time>2019-05-12T13:51:14+02:00</time>
      </trkpt>
      <trkpt lat="44.07039" lon="3.06032">
        <ele>728</ele>
        <time>2019-05-12T13:51:21+02:00</time>
      </trkpt>
      <trkpt lat="44.07041" lon="3.06045">
        <ele>728</ele>
        <time>2019-05-12T13:51:28+02:00</time>
      </trkpt>
      <trkpt lat="44.07043" lon="3.06058">
        <ele>729</ele>
        <time>2019-05-12T13:51:37+02:00</time>
      </trkpt>
      <trkpt lat="44.07044" lon="3.06071">
        <ele>729</ele>
        <time>2019-05-12T13:51:45+02:00</time>
      </trkpt>
      <trkpt lat="44.07047" lon="3.06084">
        <ele>729</ele>
        <time>2019-05-12T13:51:52+02:00</time>
      </trkpt>
      <trkpt lat="44.07049" lon="3.06098">
        <ele>729</ele>
        <time>2019-05-12T13:52:00+02:00</time>
      </trkpt>
      <trkpt lat="44.07051" lon="3.06111">
        <ele>730</ele>
        <time>2019-05-12T13:52:07+02:00</time>
      </trkpt>
      <trkpt lat="44.07053" lon="3.06124">
        <ele>730</ele>
        <time>2019-05-12T13:52:14+02:00</time>
      </trkpt>
      <trkpt lat="44.07056" lon="3.06137">
        <ele>730</ele>
        <time>2019-05-12T13:52:21+02:00</time>
      </trkpt>
      <trkpt lat="44.0706" lon="3.06149">
        <ele>730</ele>
        <time>2019-05-12T13:52:34+02:00</time>
      </trkpt>
      <trkpt lat="44.07069" lon="3.06151">
        <ele>729</ele>
        <time>2019-05-12T13:52:46+02:00</time>
      </trkpt>
      <trkpt lat="44.07075" lon="3.06161">
        <ele>728</ele>
        <time>2019-05-12T13:52:51+02:00</time>
      </trkpt>
      <trkpt lat="44.0708" lon="3.06174">
        <ele>728</ele>
        <time>2019-05-12T13:52:58+02:00</time>
      </trkpt>
      <trkpt lat="44.07085" lon="3.06185">
        <ele>727</ele>
        <time>2019-05-12T13:53:05+02:00</time>
      </trkpt>
      <trkpt lat="44.07091" lon="3.06195">
        <ele>726</ele>
        <time>2019-05-12T13:53:14+02:00</time>
      </trkpt>
      <trkpt lat="44.07098" lon="3.06205">
        <ele>725</ele>
        <time>2019-05-12T13:53:23+02:00</time>
      </trkpt>
      <trkpt lat="44.07104" lon="3.06215">
        <ele>724</ele>
        <time>2019-05-12T13:53:31+02:00</time>
      </trkpt>
      <trkpt lat="44.07111" lon="3.06225">
        <ele>723</ele>
        <time>2019-05-12T13:53:39+02:00</time>
      </trkpt>
      <trkpt lat="44.07117" lon="3.06235">
        <ele>723</ele>
        <time>2019-05-12T13:53:48+02:00</time>
      </trkpt>
      <trkpt lat="44.07124" lon="3.06244">
        <ele>722</ele>
        <time>2019-05-12T13:53:56+02:00</time>
      </trkpt>
      <trkpt lat="44.07131" lon="3.06254">
        <ele>722</ele>
        <time>2019-05-12T13:54:03+02:00</time>
      </trkpt>
      <trkpt lat="44.07138" lon="3.06263">
        <ele>721</ele>
        <time>2019-05-12T13:54:11+02:00</time>
      </trkpt>
      <trkpt lat="44.07144" lon="3.06273">
        <ele>721</ele>
        <time>2019-05-12T13:54:19+02:00</time>
      </trkpt>
      <trkpt lat="44.0715" lon="3.06283">
        <ele>720</ele>
        <time>2019-05-12T13:54:26+02:00</time>
      </trkpt>
      <trkpt lat="44.07156" lon="3.06295">
        <ele>721</ele>
        <time>2019-05-12T13:54:33+02:00</time>
      </trkpt>
      <trkpt lat="44.07163" lon="3.06306">
        <ele>721</ele>
        <time>2019-05-12T13:54:41+02:00</time>
      </trkpt>
      <trkpt lat="44.07169" lon="3.06317">
        <ele>721</ele>
        <time>2019-05-12T13:54:48+02:00</time>
      </trkpt>
      <trkpt lat="44.07174" lon="3.06328">
        <ele>721</ele>
        <time>2019-05-12T13:54:55+02:00</time>
      </trkpt>
      <trkpt lat="44.07177" lon="3.0634">
        <ele>722</ele>
        <time>2019-05-12T13:55:03+02:00</time>
      </trkpt>
      <trkpt lat="44.07185" lon="3.06348">
        <ele>722</ele>
        <time>2019-05-12T13:55:15+02:00</time>
      </trkpt>
      <trkpt lat="44.07192" lon="3.06357">
        <ele>722</ele>
        <time>2019-05-12T13:55:23+02:00</time>
      </trkpt>
      <trkpt lat="44.07198" lon="3.06367">
        <ele>722</ele>
        <time>2019-05-12T13:55:32+02:00</time>
      </trkpt>
      <trkpt lat="44.07191" lon="3.06359">
        <ele>722</ele>
        <time>2019-05-12T13:55:37+02:00</time>
      </trkpt>
      <trkpt lat="44.072" lon="3.06369">
        <ele>722</ele>
        <time>2019-05-12T13:55:43+02:00</time>
      </trkpt>
      <trkpt lat="44.07208" lon="3.06377">
        <ele>722</ele>
        <time>2019-05-12T13:55:46+02:00</time>
      </trkpt>
      <trkpt lat="44.07216" lon="3.06385">
        <ele>721</ele>
        <time>2019-05-12T13:55:51+02:00</time>
      </trkpt>
      <trkpt lat="44.07223" lon="3.06393">
        <ele>721</ele>
        <time>2019-05-12T13:55:56+02:00</time>
      </trkpt>
      <trkpt lat="44.07231" lon="3.06401">
        <ele>721</ele>
        <time>2019-05-12T13:56:04+02:00</time>
      </trkpt>
      <trkpt lat="44.0724" lon="3.06408">
        <ele>721</ele>
        <time>2019-05-12T13:56:13+02:00</time>
      </trkpt>
      <trkpt lat="44.07248" lon="3.06416">
        <ele>721</ele>
        <time>2019-05-12T13:56:20+02:00</time>
      </trkpt>
      <trkpt lat="44.07255" lon="3.06425">
        <ele>721</ele>
        <time>2019-05-12T13:56:28+02:00</time>
      </trkpt>
      <trkpt lat="44.07262" lon="3.06434">
        <ele>720</ele>
        <time>2019-05-12T13:56:37+02:00</time>
      </trkpt>
      <trkpt lat="44.07269" lon="3.06444">
        <ele>720</ele>
        <time>2019-05-12T13:56:45+02:00</time>
      </trkpt>
      <trkpt lat="44.0727" lon="3.06458">
        <ele>720</ele>
        <time>2019-05-12T13:56:52+02:00</time>
      </trkpt>
      <trkpt lat="44.07268" lon="3.06471">
        <ele>721</ele>
        <time>2019-05-12T13:56:59+02:00</time>
      </trkpt>
      <trkpt lat="44.07269" lon="3.06484">
        <ele>721</ele>
        <time>2019-05-12T13:57:08+02:00</time>
      </trkpt>
      <trkpt lat="44.07275" lon="3.06495">
        <ele>721</ele>
        <time>2019-05-12T13:57:16+02:00</time>
      </trkpt>
      <trkpt lat="44.07282" lon="3.06503">
        <ele>720</ele>
        <time>2019-05-12T13:57:22+02:00</time>
      </trkpt>
      <trkpt lat="44.07289" lon="3.06511">
        <ele>719</ele>
        <time>2019-05-12T13:57:29+02:00</time>
      </trkpt>
      <trkpt lat="44.07295" lon="3.06522">
        <ele>718</ele>
        <time>2019-05-12T13:57:38+02:00</time>
      </trkpt>
      <trkpt lat="44.07301" lon="3.06533">
        <ele>717</ele>
        <time>2019-05-12T13:57:44+02:00</time>
      </trkpt>
      <trkpt lat="44.07307" lon="3.06544">
        <ele>716</ele>
        <time>2019-05-12T13:57:52+02:00</time>
      </trkpt>
      <trkpt lat="44.07313" lon="3.06556">
        <ele>715</ele>
        <time>2019-05-12T13:58:01+02:00</time>
      </trkpt>
      <trkpt lat="44.07314" lon="3.06568">
        <ele>715</ele>
        <time>2019-05-12T13:58:08+02:00</time>
      </trkpt>
      <trkpt lat="44.07316" lon="3.06582">
        <ele>714</ele>
        <time>2019-05-12T13:58:16+02:00</time>
      </trkpt>
      <trkpt lat="44.07315" lon="3.06594">
        <ele>714</ele>
        <time>2019-05-12T13:58:23+02:00</time>
      </trkpt>
      <trkpt lat="44.07314" lon="3.06608">
        <ele>713</ele>
        <time>2019-05-12T13:58:31+02:00</time>
      </trkpt>
      <trkpt lat="44.07314" lon="3.06622">
        <ele>712</ele>
        <time>2019-05-12T13:58:38+02:00</time>
      </trkpt>
      <trkpt lat="44.07311" lon="3.06635">
        <ele>712</ele>
        <time>2019-05-12T13:58:44+02:00</time>
      </trkpt>
      <trkpt lat="44.0731" lon="3.0665">
        <ele>711</ele>
        <time>2019-05-12T13:58:51+02:00</time>
      </trkpt>
      <trkpt lat="44.07314" lon="3.06662">
        <ele>710</ele>
        <time>2019-05-12T13:58:58+02:00</time>
      </trkpt>
      <trkpt lat="44.07319" lon="3.06674">
        <ele>710</ele>
        <time>2019-05-12T13:59:04+02:00</time>
      </trkpt>
      <trkpt lat="44.07322" lon="3.06686">
        <ele>709</ele>
        <time>2019-05-12T13:59:13+02:00</time>
      </trkpt>
      <trkpt lat="44.07327" lon="3.06704">
        <ele>709</ele>
        <time>2019-05-12T13:59:26+02:00</time>
      </trkpt>
      <trkpt lat="44.0733" lon="3.06722">
        <ele>708</ele>
        <time>2019-05-12T13:59:43+02:00</time>
      </trkpt>
      <trkpt lat="44.07333" lon="3.06734">
        <ele>708</ele>
        <time>2019-05-12T13:59:50+02:00</time>
      </trkpt>
      <trkpt lat="44.07491" lon="3.06917">
        <ele>709</ele>
        <time>2019-05-12T14:04:13+02:00</time>
      </trkpt>
      <trkpt lat="44.07482" lon="3.06917">
        <ele>709</ele>
        <time>2019-05-12T14:04:18+02:00</time>
      </trkpt>
      <trkpt lat="44.07491" lon="3.06913">
        <ele>709</ele>
        <time>2019-05-12T14:04:37+02:00</time>
      </trkpt>
      <trkpt lat="44.07501" lon="3.06911">
        <ele>708</ele>
        <time>2019-05-12T14:04:49+02:00</time>
      </trkpt>
      <trkpt lat="44.07508" lon="3.06903">
        <ele>708</ele>
        <time>2019-05-12T14:04:59+02:00</time>
      </trkpt>
      <trkpt lat="44.07512" lon="3.06892">
        <ele>708</ele>
        <time>2019-05-12T14:05:20+02:00</time>
      </trkpt>
      <trkpt lat="44.07514" lon="3.0688">
        <ele>707</ele>
        <time>2019-05-12T14:05:27+02:00</time>
      </trkpt>
      <trkpt lat="44.07516" lon="3.06866">
        <ele>706</ele>
        <time>2019-05-12T14:05:53+02:00</time>
      </trkpt>
      <trkpt lat="44.07518" lon="3.06854">
        <ele>705</ele>
        <time>2019-05-12T14:06:02+02:00</time>
      </trkpt>
      <trkpt lat="44.07519" lon="3.06841">
        <ele>704</ele>
        <time>2019-05-12T14:06:10+02:00</time>
      </trkpt>
      <trkpt lat="44.07521" lon="3.06828">
        <ele>702</ele>
        <time>2019-05-12T14:06:18+02:00</time>
      </trkpt>
      <trkpt lat="44.07521" lon="3.06815">
        <ele>699</ele>
        <time>2019-05-12T14:06:28+02:00</time>
      </trkpt>
      <trkpt lat="44.07523" lon="3.06801">
        <ele>696</ele>
        <time>2019-05-12T14:07:04+02:00</time>
      </trkpt>
      <trkpt lat="44.07531" lon="3.06795">
        <ele>695</ele>
        <time>2019-05-12T14:07:13+02:00</time>
      </trkpt>
      <trkpt lat="44.0754" lon="3.06791">
        <ele>695</ele>
        <time>2019-05-12T14:07:22+02:00</time>
      </trkpt>
      <trkpt lat="44.07549" lon="3.06787">
        <ele>695</ele>
        <time>2019-05-12T14:07:32+02:00</time>
      </trkpt>
      <trkpt lat="44.07559" lon="3.06785">
        <ele>695</ele>
        <time>2019-05-12T14:07:44+02:00</time>
      </trkpt>
      <trkpt lat="44.07568" lon="3.06785">
        <ele>696</ele>
        <time>2019-05-12T14:07:56+02:00</time>
      </trkpt>
      <trkpt lat="44.07578" lon="3.06785">
        <ele>697</ele>
        <time>2019-05-12T14:08:05+02:00</time>
      </trkpt>
      <trkpt lat="44.07587" lon="3.06785">
        <ele>698</ele>
        <time>2019-05-12T14:08:12+02:00</time>
      </trkpt>
      <trkpt lat="44.07597" lon="3.06789">
        <ele>700</ele>
        <time>2019-05-12T14:08:18+02:00</time>
      </trkpt>
      <trkpt lat="44.07607" lon="3.06793">
        <ele>701</ele>
        <time>2019-05-12T14:08:25+02:00</time>
      </trkpt>
      <trkpt lat="44.07616" lon="3.06798">
        <ele>703</ele>
        <time>2019-05-12T14:08:32+02:00</time>
      </trkpt>
      <trkpt lat="44.07624" lon="3.06804">
        <ele>706</ele>
        <time>2019-05-12T14:08:41+02:00</time>
      </trkpt>
      <trkpt lat="44.07631" lon="3.06812">
        <ele>708</ele>
        <time>2019-05-12T14:08:50+02:00</time>
      </trkpt>
      <trkpt lat="44.07639" lon="3.06818">
        <ele>710</ele>
        <time>2019-05-12T14:08:59+02:00</time>
      </trkpt>
      <trkpt lat="44.07648" lon="3.06824">
        <ele>712</ele>
        <time>2019-05-12T14:09:11+02:00</time>
      </trkpt>
      <trkpt lat="44.07657" lon="3.06825">
        <ele>713</ele>
        <time>2019-05-12T14:09:20+02:00</time>
      </trkpt>
      <trkpt lat="44.07666" lon="3.06823">
        <ele>713</ele>
        <time>2019-05-12T14:09:28+02:00</time>
      </trkpt>
      <trkpt lat="44.07676" lon="3.06818">
        <ele>713</ele>
        <time>2019-05-12T14:09:42+02:00</time>
      </trkpt>
      <trkpt lat="44.07684" lon="3.06812">
        <ele>713</ele>
        <time>2019-05-12T14:09:49+02:00</time>
      </trkpt>
      <trkpt lat="44.07691" lon="3.06804">
        <ele>712</ele>
        <time>2019-05-12T14:09:57+02:00</time>
      </trkpt>
      <trkpt lat="44.07698" lon="3.06793">
        <ele>711</ele>
        <time>2019-05-12T14:10:07+02:00</time>
      </trkpt>
      <trkpt lat="44.07705" lon="3.06784">
        <ele>710</ele>
        <time>2019-05-12T14:10:14+02:00</time>
      </trkpt>
      <trkpt lat="44.07712" lon="3.06775">
        <ele>710</ele>
        <time>2019-05-12T14:10:22+02:00</time>
      </trkpt>
      <trkpt lat="44.07719" lon="3.06766">
        <ele>710</ele>
        <time>2019-05-12T14:10:32+02:00</time>
      </trkpt>
      <trkpt lat="44.07729" lon="3.06764">
        <ele>711</ele>
        <time>2019-05-12T14:10:44+02:00</time>
      </trkpt>
      <trkpt lat="44.07737" lon="3.06759">
        <ele>712</ele>
        <time>2019-05-12T14:10:55+02:00</time>
      </trkpt>
      <trkpt lat="44.07746" lon="3.06754">
        <ele>713</ele>
        <time>2019-05-12T14:11:05+02:00</time>
      </trkpt>
      <trkpt lat="44.07755" lon="3.06752">
        <ele>714</ele>
        <time>2019-05-12T14:11:16+02:00</time>
      </trkpt>
      <trkpt lat="44.07764" lon="3.06748">
        <ele>713</ele>
        <time>2019-05-12T14:11:25+02:00</time>
      </trkpt>
      <trkpt lat="44.07773" lon="3.06749">
        <ele>714</ele>
        <time>2019-05-12T14:11:32+02:00</time>
      </trkpt>
      <trkpt lat="44.07783" lon="3.06754">
        <ele>716</ele>
        <time>2019-05-12T14:11:42+02:00</time>
      </trkpt>
      <trkpt lat="44.07791" lon="3.0676">
        <ele>717</ele>
        <time>2019-05-12T14:11:52+02:00</time>
      </trkpt>
      <trkpt lat="44.078" lon="3.06764">
        <ele>719</ele>
        <time>2019-05-12T14:12:02+02:00</time>
      </trkpt>
      <trkpt lat="44.07808" lon="3.06772">
        <ele>720</ele>
        <time>2019-05-12T14:12:15+02:00</time>
      </trkpt>
      <trkpt lat="44.07817" lon="3.06774">
        <ele>721</ele>
        <time>2019-05-12T14:12:27+02:00</time>
      </trkpt>
      <trkpt lat="44.07826" lon="3.06777">
        <ele>722</ele>
        <time>2019-05-12T14:12:35+02:00</time>
      </trkpt>
      <trkpt lat="44.07836" lon="3.06781">
        <ele>722</ele>
        <time>2019-05-12T14:12:45+02:00</time>
      </trkpt>
      <trkpt lat="44.07845" lon="3.06785">
        <ele>719</ele>
        <time>2019-05-12T14:12:52+02:00</time>
      </trkpt>
      <trkpt lat="44.07853" lon="3.06791">
        <ele>717</ele>
        <time>2019-05-12T14:13:03+02:00</time>
      </trkpt>
      <trkpt lat="44.07864" lon="3.06789">
        <ele>713</ele>
        <time>2019-05-12T14:13:10+02:00</time>
      </trkpt>
      <trkpt lat="44.07873" lon="3.06792">
        <ele>710</ele>
        <time>2019-05-12T14:13:18+02:00</time>
      </trkpt>
      <trkpt lat="44.07881" lon="3.06797">
        <ele>708</ele>
        <time>2019-05-12T14:13:26+02:00</time>
      </trkpt>
      <trkpt lat="44.07889" lon="3.06805">
        <ele>708</ele>
        <time>2019-05-12T14:13:38+02:00</time>
      </trkpt>
      <trkpt lat="44.07892" lon="3.0682">
        <ele>712</ele>
        <time>2019-05-12T14:14:07+02:00</time>
      </trkpt>
      <trkpt lat="44.07885" lon="3.06836">
        <ele>718</ele>
        <time>2019-05-12T14:14:10+02:00</time>
      </trkpt>
      <trkpt lat="44.07886" lon="3.06849">
        <ele>718</ele>
        <time>2019-05-12T14:14:20+02:00</time>
      </trkpt>
      <trkpt lat="44.07888" lon="3.06862">
        <ele>719</ele>
        <time>2019-05-12T14:19:57+02:00</time>
      </trkpt>
      <trkpt lat="44.07889" lon="3.06875">
        <ele>719</ele>
        <time>2019-05-12T14:20:05+02:00</time>
      </trkpt>
      <trkpt lat="44.07889" lon="3.06887">
        <ele>720</ele>
        <time>2019-05-12T14:20:14+02:00</time>
      </trkpt>
      <trkpt lat="44.0789" lon="3.06901">
        <ele>721</ele>
        <time>2019-05-12T14:20:22+02:00</time>
      </trkpt>
      <trkpt lat="44.07892" lon="3.06913">
        <ele>721</ele>
        <time>2019-05-12T14:20:30+02:00</time>
      </trkpt>
      <trkpt lat="44.07894" lon="3.06927">
        <ele>721</ele>
        <time>2019-05-12T14:20:40+02:00</time>
      </trkpt>
      <trkpt lat="44.07895" lon="3.06939">
        <ele>720</ele>
        <time>2019-05-12T14:20:50+02:00</time>
      </trkpt>
      <trkpt lat="44.07897" lon="3.06952">
        <ele>720</ele>
        <time>2019-05-12T14:20:58+02:00</time>
      </trkpt>
      <trkpt lat="44.07896" lon="3.06964">
        <ele>720</ele>
        <time>2019-05-12T14:21:06+02:00</time>
      </trkpt>
      <trkpt lat="44.07895" lon="3.06978">
        <ele>720</ele>
        <time>2019-05-12T14:21:22+02:00</time>
      </trkpt>
      <trkpt lat="44.07898" lon="3.06992">
        <ele>719</ele>
        <time>2019-05-12T14:21:28+02:00</time>
      </trkpt>
      <trkpt lat="44.079" lon="3.07004">
        <ele>719</ele>
        <time>2019-05-12T14:21:35+02:00</time>
      </trkpt>
      <trkpt lat="44.07901" lon="3.07018">
        <ele>719</ele>
        <time>2019-05-12T14:21:45+02:00</time>
      </trkpt>
      <trkpt lat="44.07906" lon="3.0703">
        <ele>719</ele>
        <time>2019-05-12T14:21:54+02:00</time>
      </trkpt>
      <trkpt lat="44.07911" lon="3.07041">
        <ele>718</ele>
        <time>2019-05-12T14:22:01+02:00</time>
      </trkpt>
      <trkpt lat="44.07914" lon="3.07053">
        <ele>718</ele>
        <time>2019-05-12T14:22:08+02:00</time>
      </trkpt>
      <trkpt lat="44.07915" lon="3.07066">
        <ele>719</ele>
        <time>2019-05-12T14:22:33+02:00</time>
      </trkpt>
      <trkpt lat="44.07919" lon="3.07078">
        <ele>718</ele>
        <time>2019-05-12T14:22:48+02:00</time>
      </trkpt>
      <trkpt lat="44.07921" lon="3.07091">
        <ele>719</ele>
        <time>2019-05-12T14:22:56+02:00</time>
      </trkpt>
      <trkpt lat="44.07922" lon="3.07104">
        <ele>721</ele>
        <time>2019-05-12T14:23:05+02:00</time>
      </trkpt>
      <trkpt lat="44.07921" lon="3.07118">
        <ele>724</ele>
        <time>2019-05-12T14:23:13+02:00</time>
      </trkpt>
      <trkpt lat="44.07922" lon="3.07131">
        <ele>726</ele>
        <time>2019-05-12T14:23:21+02:00</time>
      </trkpt>
      <trkpt lat="44.07925" lon="3.07144">
        <ele>727</ele>
        <time>2019-05-12T14:23:30+02:00</time>
      </trkpt>
      <trkpt lat="44.07928" lon="3.07157">
        <ele>729</ele>
        <time>2019-05-12T14:23:38+02:00</time>
      </trkpt>
      <trkpt lat="44.07933" lon="3.07168">
        <ele>729</ele>
        <time>2019-05-12T14:23:45+02:00</time>
      </trkpt>
      <trkpt lat="44.07939" lon="3.07177">
        <ele>728</ele>
        <time>2019-05-12T14:23:53+02:00</time>
      </trkpt>
      <trkpt lat="44.07944" lon="3.07188">
        <ele>729</ele>
        <time>2019-05-12T14:24:00+02:00</time>
      </trkpt>
      <trkpt lat="44.07949" lon="3.072">
        <ele>730</ele>
        <time>2019-05-12T14:24:07+02:00</time>
      </trkpt>
      <trkpt lat="44.07955" lon="3.0721">
        <ele>730</ele>
        <time>2019-05-12T14:24:14+02:00</time>
      </trkpt>
      <trkpt lat="44.07962" lon="3.07219">
        <ele>730</ele>
        <time>2019-05-12T14:24:20+02:00</time>
      </trkpt>
      <trkpt lat="44.07969" lon="3.07229">
        <ele>731</ele>
        <time>2019-05-12T14:24:29+02:00</time>
      </trkpt>
      <trkpt lat="44.07976" lon="3.07239">
        <ele>732</ele>
        <time>2019-05-12T14:24:37+02:00</time>
      </trkpt>
      <trkpt lat="44.07984" lon="3.07248">
        <ele>733</ele>
        <time>2019-05-12T14:24:44+02:00</time>
      </trkpt>
      <trkpt lat="44.07992" lon="3.07256">
        <ele>733</ele>
        <time>2019-05-12T14:24:52+02:00</time>
      </trkpt>
      <trkpt lat="44.07996" lon="3.07267">
        <ele>734</ele>
        <time>2019-05-12T14:24:59+02:00</time>
      </trkpt>
      <trkpt lat="44.07999" lon="3.0728">
        <ele>736</ele>
        <time>2019-05-12T14:25:08+02:00</time>
      </trkpt>
      <trkpt lat="44.08005" lon="3.07291">
        <ele>736</ele>
        <time>2019-05-12T14:25:15+02:00</time>
      </trkpt>
      <trkpt lat="44.08007" lon="3.07304">
        <ele>737</ele>
        <time>2019-05-12T14:25:22+02:00</time>
      </trkpt>
      <trkpt lat="44.08011" lon="3.07316">
        <ele>738</ele>
        <time>2019-05-12T14:25:29+02:00</time>
      </trkpt>
      <trkpt lat="44.08015" lon="3.07327">
        <ele>738</ele>
        <time>2019-05-12T14:25:38+02:00</time>
      </trkpt>
      <trkpt lat="44.08022" lon="3.07338">
        <ele>737</ele>
        <time>2019-05-12T14:26:49+02:00</time>
      </trkpt>
      <trkpt lat="44.0803" lon="3.07345">
        <ele>735</ele>
        <time>2019-05-12T14:26:58+02:00</time>
      </trkpt>
      <trkpt lat="44.08038" lon="3.07352">
        <ele>734</ele>
        <time>2019-05-12T14:27:07+02:00</time>
      </trkpt>
      <trkpt lat="44.08046" lon="3.07361">
        <ele>733</ele>
        <time>2019-05-12T14:27:14+02:00</time>
      </trkpt>
      <trkpt lat="44.08051" lon="3.07373">
        <ele>733</ele>
        <time>2019-05-12T14:27:22+02:00</time>
      </trkpt>
      <trkpt lat="44.08055" lon="3.07385">
        <ele>735</ele>
        <time>2019-05-12T14:27:29+02:00</time>
      </trkpt>
      <trkpt lat="44.08063" lon="3.07394">
        <ele>735</ele>
        <time>2019-05-12T14:27:36+02:00</time>
      </trkpt>
      <trkpt lat="44.08066" lon="3.07407">
        <ele>737</ele>
        <time>2019-05-12T14:27:45+02:00</time>
      </trkpt>
      <trkpt lat="44.0807" lon="3.07419">
        <ele>738</ele>
        <time>2019-05-12T14:27:52+02:00</time>
      </trkpt>
      <trkpt lat="44.08074" lon="3.07431">
        <ele>739</ele>
        <time>2019-05-12T14:28:00+02:00</time>
      </trkpt>
      <trkpt lat="44.08077" lon="3.07444">
        <ele>740</ele>
        <time>2019-05-12T14:28:06+02:00</time>
      </trkpt>
      <trkpt lat="44.0808" lon="3.07457">
        <ele>741</ele>
        <time>2019-05-12T14:28:12+02:00</time>
      </trkpt>
      <trkpt lat="44.08084" lon="3.07469">
        <ele>741</ele>
        <time>2019-05-12T14:28:19+02:00</time>
      </trkpt>
      <trkpt lat="44.08088" lon="3.0748">
        <ele>741</ele>
        <time>2019-05-12T14:28:27+02:00</time>
      </trkpt>
      <trkpt lat="44.08093" lon="3.07492">
        <ele>740</ele>
        <time>2019-05-12T14:28:35+02:00</time>
      </trkpt>
      <trkpt lat="44.08096" lon="3.07505">
        <ele>740</ele>
        <time>2019-05-12T14:28:42+02:00</time>
      </trkpt>
      <trkpt lat="44.08097" lon="3.07518">
        <ele>742</ele>
        <time>2019-05-12T14:28:54+02:00</time>
      </trkpt>
      <trkpt lat="44.08101" lon="3.07529">
        <ele>742</ele>
        <time>2019-05-12T14:29:16+02:00</time>
      </trkpt>
      <trkpt lat="44.08106" lon="3.07541">
        <ele>742</ele>
        <time>2019-05-12T14:29:24+02:00</time>
      </trkpt>
      <trkpt lat="44.08109" lon="3.07554">
        <ele>743</ele>
        <time>2019-05-12T14:29:33+02:00</time>
      </trkpt>
      <trkpt lat="44.08112" lon="3.07566">
        <ele>744</ele>
        <time>2019-05-12T14:29:41+02:00</time>
      </trkpt>
      <trkpt lat="44.08115" lon="3.07578">
        <ele>745</ele>
        <time>2019-05-12T14:29:48+02:00</time>
      </trkpt>
      <trkpt lat="44.08117" lon="3.07591">
        <ele>746</ele>
        <time>2019-05-12T14:29:56+02:00</time>
      </trkpt>
      <trkpt lat="44.08119" lon="3.07605">
        <ele>748</ele>
        <time>2019-05-12T14:30:12+02:00</time>
      </trkpt>
      <trkpt lat="44.08124" lon="3.07617">
        <ele>749</ele>
        <time>2019-05-12T14:30:24+02:00</time>
      </trkpt>
      <trkpt lat="44.08129" lon="3.07629">
        <ele>750</ele>
        <time>2019-05-12T14:30:37+02:00</time>
      </trkpt>
      <trkpt lat="44.08133" lon="3.0764">
        <ele>751</ele>
        <time>2019-05-12T14:30:43+02:00</time>
      </trkpt>
      <trkpt lat="44.08138" lon="3.07651">
        <ele>752</ele>
        <time>2019-05-12T14:30:47+02:00</time>
      </trkpt>
      <trkpt lat="44.08142" lon="3.07663">
        <ele>754</ele>
        <time>2019-05-12T14:30:54+02:00</time>
      </trkpt>
      <trkpt lat="44.08146" lon="3.07676">
        <ele>756</ele>
        <time>2019-05-12T14:31:01+02:00</time>
      </trkpt>
      <trkpt lat="44.0815" lon="3.07688">
        <ele>758</ele>
        <time>2019-05-12T14:31:08+02:00</time>
      </trkpt>
      <trkpt lat="44.08155" lon="3.07699">
        <ele>760</ele>
        <time>2019-05-12T14:31:16+02:00</time>
      </trkpt>
      <trkpt lat="44.08152" lon="3.07712">
        <ele>762</ele>
        <time>2019-05-12T14:31:32+02:00</time>
      </trkpt>
      <trkpt lat="44.08158" lon="3.07721">
        <ele>763</ele>
        <time>2019-05-12T14:31:36+02:00</time>
      </trkpt>
      <trkpt lat="44.08166" lon="3.0773">
        <ele>765</ele>
        <time>2019-05-12T14:31:40+02:00</time>
      </trkpt>
      <trkpt lat="44.0817" lon="3.07742">
        <ele>766</ele>
        <time>2019-05-12T14:31:46+02:00</time>
      </trkpt>
      <trkpt lat="44.08174" lon="3.07754">
        <ele>766</ele>
        <time>2019-05-12T14:31:53+02:00</time>
      </trkpt>
      <trkpt lat="44.08177" lon="3.07766">
        <ele>766</ele>
        <time>2019-05-12T14:32:01+02:00</time>
      </trkpt>
      <trkpt lat="44.08182" lon="3.07777">
        <ele>765</ele>
        <time>2019-05-12T14:32:08+02:00</time>
      </trkpt>
      <trkpt lat="44.08189" lon="3.07787">
        <ele>764</ele>
        <time>2019-05-12T14:32:17+02:00</time>
      </trkpt>
      <trkpt lat="44.08196" lon="3.07797">
        <ele>763</ele>
        <time>2019-05-12T14:32:26+02:00</time>
      </trkpt>
      <trkpt lat="44.08201" lon="3.07808">
        <ele>763</ele>
        <time>2019-05-12T14:32:31+02:00</time>
      </trkpt>
      <trkpt lat="44.08203" lon="3.07821">
        <ele>764</ele>
        <time>2019-05-12T14:32:39+02:00</time>
      </trkpt>
      <trkpt lat="44.08202" lon="3.07836">
        <ele>767</ele>
        <time>2019-05-12T14:32:43+02:00</time>
      </trkpt>
      <trkpt lat="44.08207" lon="3.07848">
        <ele>766</ele>
        <time>2019-05-12T14:32:50+02:00</time>
      </trkpt>
      <trkpt lat="44.08194" lon="3.07849">
        <ele>770</ele>
        <time>2019-05-12T14:32:58+02:00</time>
      </trkpt>
      <trkpt lat="44.08203" lon="3.07851">
        <ele>767</ele>
        <time>2019-05-12T14:33:07+02:00</time>
      </trkpt>
      <trkpt lat="44.08211" lon="3.07858">
        <ele>766</ele>
        <time>2019-05-12T14:33:11+02:00</time>
      </trkpt>
      <trkpt lat="44.08217" lon="3.07872">
        <ele>765</ele>
        <time>2019-05-12T14:33:18+02:00</time>
      </trkpt>
      <trkpt lat="44.08215" lon="3.07885">
        <ele>766</ele>
        <time>2019-05-12T14:33:27+02:00</time>
      </trkpt>
      <trkpt lat="44.0821" lon="3.07895">
        <ele>768</ele>
        <time>2019-05-12T14:34:08+02:00</time>
      </trkpt>
      <trkpt lat="44.08216" lon="3.07905">
        <ele>767</ele>
        <time>2019-05-12T14:37:51+02:00</time>
      </trkpt>
      <trkpt lat="44.08221" lon="3.07916">
        <ele>767</ele>
        <time>2019-05-12T14:37:57+02:00</time>
      </trkpt>
      <trkpt lat="44.08223" lon="3.0793">
        <ele>767</ele>
        <time>2019-05-12T14:38:08+02:00</time>
      </trkpt>
      <trkpt lat="44.0822" lon="3.07942">
        <ele>769</ele>
        <time>2019-05-12T14:38:18+02:00</time>
      </trkpt>
      <trkpt lat="44.08215" lon="3.07953">
        <ele>771</ele>
        <time>2019-05-12T14:38:30+02:00</time>
      </trkpt>
      <trkpt lat="44.08213" lon="3.07966">
        <ele>772</ele>
        <time>2019-05-12T14:38:39+02:00</time>
      </trkpt>
      <trkpt lat="44.08215" lon="3.07979">
        <ele>773</ele>
        <time>2019-05-12T14:38:48+02:00</time>
      </trkpt>
      <trkpt lat="44.08216" lon="3.07992">
        <ele>774</ele>
        <time>2019-05-12T14:38:57+02:00</time>
      </trkpt>
      <trkpt lat="44.08217" lon="3.08005">
        <ele>774</ele>
        <time>2019-05-12T14:39:08+02:00</time>
      </trkpt>
      <trkpt lat="44.08214" lon="3.08017">
        <ele>776</ele>
        <time>2019-05-12T14:39:18+02:00</time>
      </trkpt>
      <trkpt lat="44.08214" lon="3.0803">
        <ele>777</ele>
        <time>2019-05-12T14:39:26+02:00</time>
      </trkpt>
      <trkpt lat="44.08214" lon="3.08044">
        <ele>777</ele>
        <time>2019-05-12T14:39:38+02:00</time>
      </trkpt>
      <trkpt lat="44.08211" lon="3.08056">
        <ele>779</ele>
        <time>2019-05-12T14:39:53+02:00</time>
      </trkpt>
      <trkpt lat="44.08206" lon="3.08067">
        <ele>781</ele>
        <time>2019-05-12T14:40:03+02:00</time>
      </trkpt>
      <trkpt lat="44.08203" lon="3.08079">
        <ele>783</ele>
        <time>2019-05-12T14:40:11+02:00</time>
      </trkpt>
      <trkpt lat="44.08198" lon="3.0809">
        <ele>784</ele>
        <time>2019-05-12T14:40:24+02:00</time>
      </trkpt>
      <trkpt lat="44.08192" lon="3.081">
        <ele>786</ele>
        <time>2019-05-12T14:40:36+02:00</time>
      </trkpt>
      <trkpt lat="44.08189" lon="3.08112">
        <ele>787</ele>
        <time>2019-05-12T14:40:47+02:00</time>
      </trkpt>
      <trkpt lat="44.08186" lon="3.08124">
        <ele>788</ele>
        <time>2019-05-12T14:40:59+02:00</time>
      </trkpt>
      <trkpt lat="44.08182" lon="3.08136">
        <ele>789</ele>
        <time>2019-05-12T14:41:18+02:00</time>
      </trkpt>
      <trkpt lat="44.08185" lon="3.08149">
        <ele>789</ele>
        <time>2019-05-12T14:41:27+02:00</time>
      </trkpt>
      <trkpt lat="44.08184" lon="3.08162">
        <ele>789</ele>
        <time>2019-05-12T14:41:37+02:00</time>
      </trkpt>
      <trkpt lat="44.08181" lon="3.08175">
        <ele>790</ele>
        <time>2019-05-12T14:41:49+02:00</time>
      </trkpt>
      <trkpt lat="44.0818" lon="3.08187">
        <ele>789</ele>
        <time>2019-05-12T14:42:00+02:00</time>
      </trkpt>
      <trkpt lat="44.0818" lon="3.082">
        <ele>789</ele>
        <time>2019-05-12T14:42:09+02:00</time>
      </trkpt>
      <trkpt lat="44.08177" lon="3.08212">
        <ele>789</ele>
        <time>2019-05-12T14:42:19+02:00</time>
      </trkpt>
      <trkpt lat="44.08174" lon="3.08226">
        <ele>790</ele>
        <time>2019-05-12T14:42:26+02:00</time>
      </trkpt>
      <trkpt lat="44.0817" lon="3.08238">
        <ele>791</ele>
        <time>2019-05-12T14:42:36+02:00</time>
      </trkpt>
      <trkpt lat="44.08164" lon="3.0825">
        <ele>792</ele>
        <time>2019-05-12T14:42:51+02:00</time>
      </trkpt>
      <trkpt lat="44.08163" lon="3.08262">
        <ele>791</ele>
        <time>2019-05-12T14:42:59+02:00</time>
      </trkpt>
      <trkpt lat="44.0816" lon="3.08274">
        <ele>790</ele>
        <time>2019-05-12T14:43:05+02:00</time>
      </trkpt>
      <trkpt lat="44.08157" lon="3.08287">
        <ele>789</ele>
        <time>2019-05-12T14:43:12+02:00</time>
      </trkpt>
      <trkpt lat="44.08152" lon="3.08298">
        <ele>789</ele>
        <time>2019-05-12T14:43:19+02:00</time>
      </trkpt>
      <trkpt lat="44.08147" lon="3.08309">
        <ele>788</ele>
        <time>2019-05-12T14:43:29+02:00</time>
      </trkpt>
      <trkpt lat="44.08141" lon="3.0832">
        <ele>788</ele>
        <time>2019-05-12T14:43:38+02:00</time>
      </trkpt>
      <trkpt lat="44.08138" lon="3.08332">
        <ele>788</ele>
        <time>2019-05-12T14:43:45+02:00</time>
      </trkpt>
      <trkpt lat="44.08132" lon="3.08342">
        <ele>787</ele>
        <time>2019-05-12T14:43:54+02:00</time>
      </trkpt>
      <trkpt lat="44.08128" lon="3.08352">
        <ele>786</ele>
        <time>2019-05-12T14:44:02+02:00</time>
      </trkpt>
      <trkpt lat="44.08122" lon="3.08363">
        <ele>786</ele>
        <time>2019-05-12T14:44:12+02:00</time>
      </trkpt>
      <trkpt lat="44.08114" lon="3.08371">
        <ele>787</ele>
        <time>2019-05-12T14:44:24+02:00</time>
      </trkpt>
      <trkpt lat="44.08111" lon="3.08383">
        <ele>786</ele>
        <time>2019-05-12T14:44:32+02:00</time>
      </trkpt>
      <trkpt lat="44.08107" lon="3.08395">
        <ele>786</ele>
        <time>2019-05-12T14:44:40+02:00</time>
      </trkpt>
      <trkpt lat="44.08101" lon="3.08406">
        <ele>786</ele>
        <time>2019-05-12T14:44:47+02:00</time>
      </trkpt>
      <trkpt lat="44.08095" lon="3.08416">
        <ele>787</ele>
        <time>2019-05-12T14:44:54+02:00</time>
      </trkpt>
      <trkpt lat="44.08089" lon="3.08426">
        <ele>788</ele>
        <time>2019-05-12T14:45:03+02:00</time>
      </trkpt>
      <trkpt lat="44.08085" lon="3.08438">
        <ele>789</ele>
        <time>2019-05-12T14:45:12+02:00</time>
      </trkpt>
      <trkpt lat="44.0808" lon="3.08449">
        <ele>788</ele>
        <time>2019-05-12T14:45:19+02:00</time>
      </trkpt>
      <trkpt lat="44.08077" lon="3.08461">
        <ele>787</ele>
        <time>2019-05-12T14:45:26+02:00</time>
      </trkpt>
      <trkpt lat="44.08072" lon="3.08472">
        <ele>787</ele>
        <time>2019-05-12T14:45:35+02:00</time>
      </trkpt>
      <trkpt lat="44.08068" lon="3.08485">
        <ele>786</ele>
        <time>2019-05-12T14:45:45+02:00</time>
      </trkpt>
      <trkpt lat="44.08068" lon="3.08497">
        <ele>785</ele>
        <time>2019-05-12T14:45:54+02:00</time>
      </trkpt>
      <trkpt lat="44.08067" lon="3.08511">
        <ele>784</ele>
        <time>2019-05-12T14:46:02+02:00</time>
      </trkpt>
      <trkpt lat="44.08066" lon="3.08525">
        <ele>783</ele>
        <time>2019-05-12T14:46:10+02:00</time>
      </trkpt>
      <trkpt lat="44.08063" lon="3.08538">
        <ele>782</ele>
        <time>2019-05-12T14:46:17+02:00</time>
      </trkpt>
      <trkpt lat="44.08064" lon="3.0855">
        <ele>781</ele>
        <time>2019-05-12T14:46:24+02:00</time>
      </trkpt>
      <trkpt lat="44.08063" lon="3.08564">
        <ele>781</ele>
        <time>2019-05-12T14:46:33+02:00</time>
      </trkpt>
      <trkpt lat="44.08063" lon="3.08577">
        <ele>780</ele>
        <time>2019-05-12T14:46:45+02:00</time>
      </trkpt>
      <trkpt lat="44.08064" lon="3.08591">
        <ele>779</ele>
        <time>2019-05-12T14:46:56+02:00</time>
      </trkpt>
      <trkpt lat="44.08064" lon="3.08604">
        <ele>778</ele>
        <time>2019-05-12T14:47:05+02:00</time>
      </trkpt>
      <trkpt lat="44.08065" lon="3.08618">
        <ele>777</ele>
        <time>2019-05-12T14:47:13+02:00</time>
      </trkpt>
      <trkpt lat="44.08066" lon="3.08632">
        <ele>776</ele>
        <time>2019-05-12T14:47:21+02:00</time>
      </trkpt>
      <trkpt lat="44.08064" lon="3.08645">
        <ele>776</ele>
        <time>2019-05-12T14:47:30+02:00</time>
      </trkpt>
      <trkpt lat="44.08061" lon="3.08659">
        <ele>775</ele>
        <time>2019-05-12T14:47:37+02:00</time>
      </trkpt>
      <trkpt lat="44.08056" lon="3.08671">
        <ele>774</ele>
        <time>2019-05-12T14:47:45+02:00</time>
      </trkpt>
      <trkpt lat="44.08052" lon="3.08682">
        <ele>772</ele>
        <time>2019-05-12T14:47:54+02:00</time>
      </trkpt>
      <trkpt lat="44.08048" lon="3.08694">
        <ele>771</ele>
        <time>2019-05-12T14:48:02+02:00</time>
      </trkpt>
      <trkpt lat="44.08046" lon="3.08707">
        <ele>769</ele>
        <time>2019-05-12T14:48:12+02:00</time>
      </trkpt>
      <trkpt lat="44.08042" lon="3.08719">
        <ele>767</ele>
        <time>2019-05-12T14:48:19+02:00</time>
      </trkpt>
      <trkpt lat="44.08036" lon="3.08729">
        <ele>766</ele>
        <time>2019-05-12T14:48:28+02:00</time>
      </trkpt>
      <trkpt lat="44.0803" lon="3.08739">
        <ele>766</ele>
        <time>2019-05-12T14:48:37+02:00</time>
      </trkpt>
      <trkpt lat="44.08023" lon="3.08747">
        <ele>766</ele>
        <time>2019-05-12T14:48:51+02:00</time>
      </trkpt>
      <trkpt lat="44.08018" lon="3.08759">
        <ele>765</ele>
        <time>2019-05-12T14:48:58+02:00</time>
      </trkpt>
      <trkpt lat="44.08014" lon="3.08771">
        <ele>764</ele>
        <time>2019-05-12T14:49:09+02:00</time>
      </trkpt>
      <trkpt lat="44.08012" lon="3.08784">
        <ele>762</ele>
        <time>2019-05-12T14:49:20+02:00</time>
      </trkpt>
      <trkpt lat="44.08009" lon="3.08796">
        <ele>761</ele>
        <time>2019-05-12T14:49:30+02:00</time>
      </trkpt>
      <trkpt lat="44.0801" lon="3.08809">
        <ele>759</ele>
        <time>2019-05-12T14:49:41+02:00</time>
      </trkpt>
      <trkpt lat="44.08011" lon="3.08822">
        <ele>757</ele>
        <time>2019-05-12T14:49:48+02:00</time>
      </trkpt>
      <trkpt lat="44.0801" lon="3.08836">
        <ele>755</ele>
        <time>2019-05-12T14:50:00+02:00</time>
      </trkpt>
      <trkpt lat="44.08012" lon="3.08849">
        <ele>752</ele>
        <time>2019-05-12T14:50:13+02:00</time>
      </trkpt>
      <trkpt lat="44.08018" lon="3.08858">
        <ele>748</ele>
        <time>2019-05-12T14:50:18+02:00</time>
      </trkpt>
      <trkpt lat="44.08009" lon="3.08864">
        <ele>751</ele>
        <time>2019-05-12T14:55:25+02:00</time>
      </trkpt>
      <trkpt lat="44.08002" lon="3.08873">
        <ele>753</ele>
        <time>2019-05-12T14:55:34+02:00</time>
      </trkpt>
      <trkpt lat="44.07997" lon="3.08883">
        <ele>753</ele>
        <time>2019-05-12T14:55:40+02:00</time>
      </trkpt>
      <trkpt lat="44.07991" lon="3.08894">
        <ele>752</ele>
        <time>2019-05-12T14:55:46+02:00</time>
      </trkpt>
      <trkpt lat="44.07985" lon="3.08905">
        <ele>751</ele>
        <time>2019-05-12T14:55:54+02:00</time>
      </trkpt>
      <trkpt lat="44.07978" lon="3.08915">
        <ele>751</ele>
        <time>2019-05-12T14:56:04+02:00</time>
      </trkpt>
      <trkpt lat="44.07972" lon="3.08927">
        <ele>749</ele>
        <time>2019-05-12T14:56:14+02:00</time>
      </trkpt>
      <trkpt lat="44.07966" lon="3.08937">
        <ele>749</ele>
        <time>2019-05-12T14:56:21+02:00</time>
      </trkpt>
      <trkpt lat="44.07962" lon="3.08949">
        <ele>748</ele>
        <time>2019-05-12T14:56:29+02:00</time>
      </trkpt>
      <trkpt lat="44.07956" lon="3.0896">
        <ele>747</ele>
        <time>2019-05-12T14:56:36+02:00</time>
      </trkpt>
      <trkpt lat="44.07953" lon="3.08973">
        <ele>746</ele>
        <time>2019-05-12T14:56:47+02:00</time>
      </trkpt>
      <trkpt lat="44.0795" lon="3.08985">
        <ele>745</ele>
        <time>2019-05-12T14:56:54+02:00</time>
      </trkpt>
      <trkpt lat="44.07946" lon="3.08996">
        <ele>744</ele>
        <time>2019-05-12T14:57:02+02:00</time>
      </trkpt>
      <trkpt lat="44.07943" lon="3.09008">
        <ele>744</ele>
        <time>2019-05-12T14:57:12+02:00</time>
      </trkpt>
      <trkpt lat="44.07939" lon="3.0902">
        <ele>744</ele>
        <time>2019-05-12T14:57:21+02:00</time>
      </trkpt>
      <trkpt lat="44.07937" lon="3.09033">
        <ele>743</ele>
        <time>2019-05-12T14:57:28+02:00</time>
      </trkpt>
      <trkpt lat="44.07934" lon="3.09046">
        <ele>742</ele>
        <time>2019-05-12T14:57:37+02:00</time>
      </trkpt>
      <trkpt lat="44.07932" lon="3.09058">
        <ele>742</ele>
        <time>2019-05-12T14:57:48+02:00</time>
      </trkpt>
      <trkpt lat="44.0793" lon="3.0907">
        <ele>741</ele>
        <time>2019-05-12T14:58:15+02:00</time>
      </trkpt>
      <trkpt lat="44.07925" lon="3.09081">
        <ele>742</ele>
        <time>2019-05-12T14:58:26+02:00</time>
      </trkpt>
      <trkpt lat="44.0792" lon="3.09092">
        <ele>742</ele>
        <time>2019-05-12T14:58:34+02:00</time>
      </trkpt>
      <trkpt lat="44.07913" lon="3.09102">
        <ele>741</ele>
        <time>2019-05-12T14:58:43+02:00</time>
      </trkpt>
      <trkpt lat="44.07906" lon="3.09111">
        <ele>740</ele>
        <time>2019-05-12T14:58:54+02:00</time>
      </trkpt>
      <trkpt lat="44.079" lon="3.09122">
        <ele>739</ele>
        <time>2019-05-12T14:59:04+02:00</time>
      </trkpt>
      <trkpt lat="44.07893" lon="3.09131">
        <ele>738</ele>
        <time>2019-05-12T14:59:10+02:00</time>
      </trkpt>
      <trkpt lat="44.07886" lon="3.0914">
        <ele>737</ele>
        <time>2019-05-12T14:59:17+02:00</time>
      </trkpt>
      <trkpt lat="44.07883" lon="3.09152">
        <ele>736</ele>
        <time>2019-05-12T14:59:36+02:00</time>
      </trkpt>
      <trkpt lat="44.07885" lon="3.09164">
        <ele>735</ele>
        <time>2019-05-12T14:59:49+02:00</time>
      </trkpt>
      <trkpt lat="44.07889" lon="3.09176">
        <ele>733</ele>
        <time>2019-05-12T15:00:13+02:00</time>
      </trkpt>
      <trkpt lat="44.07885" lon="3.09187">
        <ele>733</ele>
        <time>2019-05-12T15:00:42+02:00</time>
      </trkpt>
      <trkpt lat="44.07888" lon="3.092">
        <ele>732</ele>
        <time>2019-05-12T15:00:53+02:00</time>
      </trkpt>
      <trkpt lat="44.07897" lon="3.09209">
        <ele>730</ele>
        <time>2019-05-12T15:01:01+02:00</time>
      </trkpt>
      <trkpt lat="44.07901" lon="3.09219">
        <ele>729</ele>
        <time>2019-05-12T15:01:10+02:00</time>
      </trkpt>
      <trkpt lat="44.07906" lon="3.0923">
        <ele>727</ele>
        <time>2019-05-12T15:01:35+02:00</time>
      </trkpt>
      <trkpt lat="44.07912" lon="3.09221">
        <ele>727</ele>
        <time>2019-05-12T15:01:46+02:00</time>
      </trkpt>
      <trkpt lat="44.07922" lon="3.09218">
        <ele>726</ele>
        <time>2019-05-12T15:02:03+02:00</time>
      </trkpt>
      <trkpt lat="44.0793" lon="3.09224">
        <ele>724</ele>
        <time>2019-05-12T15:02:28+02:00</time>
      </trkpt>
      <trkpt lat="44.07938" lon="3.09227">
        <ele>723</ele>
        <time>2019-05-12T15:02:38+02:00</time>
      </trkpt>
      <trkpt lat="44.07948" lon="3.09227">
        <ele>721</ele>
        <time>2019-05-12T15:02:46+02:00</time>
      </trkpt>
      <trkpt lat="44.07956" lon="3.09222">
        <ele>720</ele>
        <time>2019-05-12T15:02:54+02:00</time>
      </trkpt>
      <trkpt lat="44.07966" lon="3.09219">
        <ele>718</ele>
        <time>2019-05-12T15:03:05+02:00</time>
      </trkpt>
      <trkpt lat="44.07975" lon="3.09216">
        <ele>716</ele>
        <time>2019-05-12T15:03:16+02:00</time>
      </trkpt>
      <trkpt lat="44.07982" lon="3.09207">
        <ele>714</ele>
        <time>2019-05-12T15:03:31+02:00</time>
      </trkpt>
      <trkpt lat="44.07991" lon="3.0921">
        <ele>713</ele>
        <time>2019-05-12T15:03:53+02:00</time>
      </trkpt>
      <trkpt lat="44.07994" lon="3.09199">
        <ele>711</ele>
        <time>2019-05-12T15:04:17+02:00</time>
      </trkpt>
      <trkpt lat="44.08004" lon="3.09196">
        <ele>708</ele>
        <time>2019-05-12T15:04:34+02:00</time>
      </trkpt>
      <trkpt lat="44.08013" lon="3.09197">
        <ele>707</ele>
        <time>2019-05-12T15:04:44+02:00</time>
      </trkpt>
      <trkpt lat="44.0802" lon="3.09188">
        <ele>704</ele>
        <time>2019-05-12T15:04:57+02:00</time>
      </trkpt>
      <trkpt lat="44.08024" lon="3.09176">
        <ele>700</ele>
        <time>2019-05-12T15:05:11+02:00</time>
      </trkpt>
      <trkpt lat="44.0803" lon="3.09165">
        <ele>697</ele>
        <time>2019-05-12T15:05:21+02:00</time>
      </trkpt>
      <trkpt lat="44.08034" lon="3.09152">
        <ele>696</ele>
        <time>2019-05-12T15:05:27+02:00</time>
      </trkpt>
      <trkpt lat="44.08043" lon="3.09154">
        <ele>693</ele>
        <time>2019-05-12T15:05:52+02:00</time>
      </trkpt>
      <trkpt lat="44.08042" lon="3.09142">
        <ele>693</ele>
        <time>2019-05-12T15:07:08+02:00</time>
      </trkpt>
      <trkpt lat="44.08042" lon="3.09128">
        <ele>693</ele>
        <time>2019-05-12T15:07:19+02:00</time>
      </trkpt>
      <trkpt lat="44.08049" lon="3.09119">
        <ele>689</ele>
        <time>2019-05-12T15:07:26+02:00</time>
      </trkpt>
      <trkpt lat="44.08056" lon="3.0911">
        <ele>685</ele>
        <time>2019-05-12T15:07:35+02:00</time>
      </trkpt>
      <trkpt lat="44.08061" lon="3.09099">
        <ele>681</ele>
        <time>2019-05-12T15:07:46+02:00</time>
      </trkpt>
      <trkpt lat="44.08067" lon="3.09089">
        <ele>676</ele>
        <time>2019-05-12T15:07:53+02:00</time>
      </trkpt>
      <trkpt lat="44.08075" lon="3.09079">
        <ele>671</ele>
        <time>2019-05-12T15:07:59+02:00</time>
      </trkpt>
      <trkpt lat="44.08079" lon="3.09066">
        <ele>671</ele>
        <time>2019-05-12T15:08:12+02:00</time>
      </trkpt>
      <trkpt lat="44.08085" lon="3.09056">
        <ele>669</ele>
        <time>2019-05-12T15:08:20+02:00</time>
      </trkpt>
      <trkpt lat="44.0809" lon="3.09045">
        <ele>669</ele>
        <time>2019-05-12T15:08:30+02:00</time>
      </trkpt>
      <trkpt lat="44.08096" lon="3.09036">
        <ele>668</ele>
        <time>2019-05-12T15:08:42+02:00</time>
      </trkpt>
      <trkpt lat="44.08104" lon="3.0903">
        <ele>665</ele>
        <time>2019-05-12T15:08:52+02:00</time>
      </trkpt>
      <trkpt lat="44.08114" lon="3.09029">
        <ele>661</ele>
        <time>2019-05-12T15:09:02+02:00</time>
      </trkpt>
      <trkpt lat="44.08122" lon="3.09023">
        <ele>658</ele>
        <time>2019-05-12T15:09:12+02:00</time>
      </trkpt>
      <trkpt lat="44.08127" lon="3.09011">
        <ele>656</ele>
        <time>2019-05-12T15:09:20+02:00</time>
      </trkpt>
      <trkpt lat="44.08133" lon="3.08999">
        <ele>652</ele>
        <time>2019-05-12T15:09:28+02:00</time>
      </trkpt>
      <trkpt lat="44.08142" lon="3.08992">
        <ele>649</ele>
        <time>2019-05-12T15:09:36+02:00</time>
      </trkpt>
      <trkpt lat="44.0815" lon="3.08987">
        <ele>646</ele>
        <time>2019-05-12T15:09:44+02:00</time>
      </trkpt>
      <trkpt lat="44.0816" lon="3.08981">
        <ele>642</ele>
        <time>2019-05-12T15:09:52+02:00</time>
      </trkpt>
      <trkpt lat="44.08165" lon="3.08969">
        <ele>641</ele>
        <time>2019-05-12T15:10:08+02:00</time>
      </trkpt>
      <trkpt lat="44.08171" lon="3.08959">
        <ele>640</ele>
        <time>2019-05-12T15:10:15+02:00</time>
      </trkpt>
      <trkpt lat="44.08179" lon="3.0895">
        <ele>637</ele>
        <time>2019-05-12T15:10:22+02:00</time>
      </trkpt>
      <trkpt lat="44.08186" lon="3.08941">
        <ele>635</ele>
        <time>2019-05-12T15:10:31+02:00</time>
      </trkpt>
      <trkpt lat="44.08193" lon="3.08932">
        <ele>632</ele>
        <time>2019-05-12T15:10:42+02:00</time>
      </trkpt>
      <trkpt lat="44.08201" lon="3.08921">
        <ele>628</ele>
        <time>2019-05-12T15:10:51+02:00</time>
      </trkpt>
      <trkpt lat="44.08209" lon="3.08913">
        <ele>624</ele>
        <time>2019-05-12T15:10:59+02:00</time>
      </trkpt>
      <trkpt lat="44.08215" lon="3.08903">
        <ele>623</ele>
        <time>2019-05-12T15:11:08+02:00</time>
      </trkpt>
      <trkpt lat="44.0822" lon="3.08891">
        <ele>623</ele>
        <time>2019-05-12T15:11:18+02:00</time>
      </trkpt>
      <trkpt lat="44.08225" lon="3.08882">
        <ele>622</ele>
        <time>2019-05-12T15:11:26+02:00</time>
      </trkpt>
      <trkpt lat="44.08231" lon="3.08872">
        <ele>621</ele>
        <time>2019-05-12T15:11:51+02:00</time>
      </trkpt>
      <trkpt lat="44.08238" lon="3.08861">
        <ele>620</ele>
        <time>2019-05-12T15:12:03+02:00</time>
      </trkpt>
      <trkpt lat="44.08243" lon="3.0885">
        <ele>619</ele>
        <time>2019-05-12T15:12:12+02:00</time>
      </trkpt>
      <trkpt lat="44.0825" lon="3.0884">
        <ele>618</ele>
        <time>2019-05-12T15:12:24+02:00</time>
      </trkpt>
      <trkpt lat="44.08255" lon="3.0883">
        <ele>617</ele>
        <time>2019-05-12T15:12:30+02:00</time>
      </trkpt>
      <trkpt lat="44.08262" lon="3.08819">
        <ele>617</ele>
        <time>2019-05-12T15:12:42+02:00</time>
      </trkpt>
      <trkpt lat="44.08269" lon="3.08807">
        <ele>617</ele>
        <time>2019-05-12T15:12:48+02:00</time>
      </trkpt>
      <trkpt lat="44.08275" lon="3.08798">
        <ele>616</ele>
        <time>2019-05-12T15:12:55+02:00</time>
      </trkpt>
      <trkpt lat="44.08281" lon="3.08788">
        <ele>616</ele>
        <time>2019-05-12T15:13:15+02:00</time>
      </trkpt>
      <trkpt lat="44.08289" lon="3.0878">
        <ele>613</ele>
        <time>2019-05-12T15:13:23+02:00</time>
      </trkpt>
      <trkpt lat="44.08298" lon="3.08776">
        <ele>609</ele>
        <time>2019-05-12T15:13:31+02:00</time>
      </trkpt>
      <trkpt lat="44.08309" lon="3.08772">
        <ele>603</ele>
        <time>2019-05-12T15:13:35+02:00</time>
      </trkpt>
      <trkpt lat="44.08312" lon="3.08758">
        <ele>604</ele>
        <time>2019-05-12T15:13:45+02:00</time>
      </trkpt>
      <trkpt lat="44.08319" lon="3.08749">
        <ele>602</ele>
        <time>2019-05-12T15:13:57+02:00</time>
      </trkpt>
      <trkpt lat="44.08328" lon="3.08748">
        <ele>596</ele>
        <time>2019-05-12T15:15:02+02:00</time>
      </trkpt>
      <trkpt lat="44.08334" lon="3.08739">
        <ele>594</ele>
        <time>2019-05-12T15:15:13+02:00</time>
      </trkpt>
      <trkpt lat="44.08338" lon="3.08726">
        <ele>595</ele>
        <time>2019-05-12T15:15:29+02:00</time>
      </trkpt>
      <trkpt lat="44.08343" lon="3.08715">
        <ele>594</ele>
        <time>2019-05-12T15:15:42+02:00</time>
      </trkpt>
      <trkpt lat="44.0835" lon="3.08705">
        <ele>593</ele>
        <time>2019-05-12T15:15:52+02:00</time>
      </trkpt>
      <trkpt lat="44.08358" lon="3.08696">
        <ele>590</ele>
        <time>2019-05-12T15:16:03+02:00</time>
      </trkpt>
      <trkpt lat="44.08361" lon="3.08684">
        <ele>590</ele>
        <time>2019-05-12T15:16:10+02:00</time>
      </trkpt>
      <trkpt lat="44.0837" lon="3.08676">
        <ele>587</ele>
        <time>2019-05-12T15:16:20+02:00</time>
      </trkpt>
      <trkpt lat="44.08378" lon="3.0867">
        <ele>584</ele>
        <time>2019-05-12T15:16:27+02:00</time>
      </trkpt>
      <trkpt lat="44.08385" lon="3.0866">
        <ele>582</ele>
        <time>2019-05-12T15:16:33+02:00</time>
      </trkpt>
      <trkpt lat="44.08389" lon="3.0865">
        <ele>581</ele>
        <time>2019-05-12T15:16:43+02:00</time>
      </trkpt>
      <trkpt lat="44.08396" lon="3.0864">
        <ele>580</ele>
        <time>2019-05-12T15:16:54+02:00</time>
      </trkpt>
      <trkpt lat="44.08404" lon="3.08631">
        <ele>576</ele>
        <time>2019-05-12T15:17:03+02:00</time>
      </trkpt>
      <trkpt lat="44.08407" lon="3.08618">
        <ele>577</ele>
        <time>2019-05-12T15:17:14+02:00</time>
      </trkpt>
      <trkpt lat="44.08411" lon="3.08606">
        <ele>578</ele>
        <time>2019-05-12T15:17:24+02:00</time>
      </trkpt>
      <trkpt lat="44.08416" lon="3.08595">
        <ele>576</ele>
        <time>2019-05-12T15:17:29+02:00</time>
      </trkpt>
      <trkpt lat="44.0842" lon="3.08584">
        <ele>576</ele>
        <time>2019-05-12T15:17:44+02:00</time>
      </trkpt>
      <trkpt lat="44.08423" lon="3.08571">
        <ele>577</ele>
        <time>2019-05-12T15:17:55+02:00</time>
      </trkpt>
      <trkpt lat="44.08432" lon="3.08566">
        <ele>574</ele>
        <time>2019-05-12T15:18:04+02:00</time>
      </trkpt>
      <trkpt lat="44.08437" lon="3.08556">
        <ele>573</ele>
        <time>2019-05-12T15:18:13+02:00</time>
      </trkpt>
      <trkpt lat="44.08445" lon="3.08549">
        <ele>570</ele>
        <time>2019-05-12T15:18:24+02:00</time>
      </trkpt>
      <trkpt lat="44.08452" lon="3.08541">
        <ele>568</ele>
        <time>2019-05-12T15:18:29+02:00</time>
      </trkpt>
      <trkpt lat="44.0846" lon="3.08533">
        <ele>565</ele>
        <time>2019-05-12T15:18:35+02:00</time>
      </trkpt>
      <trkpt lat="44.08468" lon="3.08526">
        <ele>562</ele>
        <time>2019-05-12T15:18:43+02:00</time>
      </trkpt>
      <trkpt lat="44.08476" lon="3.08521">
        <ele>558</ele>
        <time>2019-05-12T15:18:54+02:00</time>
      </trkpt>
      <trkpt lat="44.08485" lon="3.08518">
        <ele>553</ele>
        <time>2019-05-12T15:19:00+02:00</time>
      </trkpt>
      <trkpt lat="44.08493" lon="3.08509">
        <ele>550</ele>
        <time>2019-05-12T15:19:07+02:00</time>
      </trkpt>
      <trkpt lat="44.08501" lon="3.08502">
        <ele>546</ele>
        <time>2019-05-12T15:19:16+02:00</time>
      </trkpt>
      <trkpt lat="44.08511" lon="3.08499">
        <ele>543</ele>
        <time>2019-05-12T15:19:21+02:00</time>
      </trkpt>
      <trkpt lat="44.08521" lon="3.08494">
        <ele>539</ele>
        <time>2019-05-12T15:19:31+02:00</time>
      </trkpt>
      <trkpt lat="44.08529" lon="3.08486">
        <ele>537</ele>
        <time>2019-05-12T15:19:44+02:00</time>
      </trkpt>
      <trkpt lat="44.08538" lon="3.08479">
        <ele>534</ele>
        <time>2019-05-12T15:19:55+02:00</time>
      </trkpt>
      <trkpt lat="44.08546" lon="3.08472">
        <ele>531</ele>
        <time>2019-05-12T15:20:06+02:00</time>
      </trkpt>
      <trkpt lat="44.08555" lon="3.08467">
        <ele>528</ele>
        <time>2019-05-12T15:20:14+02:00</time>
      </trkpt>
      <trkpt lat="44.08563" lon="3.08458">
        <ele>525</ele>
        <time>2019-05-12T15:20:21+02:00</time>
      </trkpt>
      <trkpt lat="44.08571" lon="3.0845">
        <ele>522</ele>
        <time>2019-05-12T15:20:29+02:00</time>
      </trkpt>
      <trkpt lat="44.08578" lon="3.08444">
        <ele>520</ele>
        <time>2019-05-12T15:20:36+02:00</time>
      </trkpt>
      <trkpt lat="44.08586" lon="3.08435">
        <ele>517</ele>
        <time>2019-05-12T15:20:44+02:00</time>
      </trkpt>
      <trkpt lat="44.08595" lon="3.08429">
        <ele>515</ele>
        <time>2019-05-12T15:20:53+02:00</time>
      </trkpt>
      <trkpt lat="44.08605" lon="3.08422">
        <ele>512</ele>
        <time>2019-05-12T15:21:00+02:00</time>
      </trkpt>
      <trkpt lat="44.08614" lon="3.08416">
        <ele>510</ele>
        <time>2019-05-12T15:21:08+02:00</time>
      </trkpt>
      <trkpt lat="44.08623" lon="3.08415">
        <ele>507</ele>
        <time>2019-05-12T15:21:17+02:00</time>
      </trkpt>
      <trkpt lat="44.08629" lon="3.08424">
        <ele>505</ele>
        <time>2019-05-12T15:21:36+02:00</time>
      </trkpt>
      <trkpt lat="44.08636" lon="3.08432">
        <ele>502</ele>
        <time>2019-05-12T15:21:48+02:00</time>
      </trkpt>
      <trkpt lat="44.08645" lon="3.08431">
        <ele>499</ele>
        <time>2019-05-12T15:22:01+02:00</time>
      </trkpt>
      <trkpt lat="44.08655" lon="3.08437">
        <ele>497</ele>
        <time>2019-05-12T15:22:07+02:00</time>
      </trkpt>
      <trkpt lat="44.08663" lon="3.08443">
        <ele>494</ele>
        <time>2019-05-12T15:22:14+02:00</time>
      </trkpt>
      <trkpt lat="44.08671" lon="3.08449">
        <ele>492</ele>
        <time>2019-05-12T15:22:23+02:00</time>
      </trkpt>
      <trkpt lat="44.08679" lon="3.08457">
        <ele>491</ele>
        <time>2019-05-12T15:22:29+02:00</time>
      </trkpt>
      <trkpt lat="44.08686" lon="3.08465">
        <ele>490</ele>
        <time>2019-05-12T15:22:36+02:00</time>
      </trkpt>
      <trkpt lat="44.08691" lon="3.08475">
        <ele>489</ele>
        <time>2019-05-12T15:22:43+02:00</time>
      </trkpt>
      <trkpt lat="44.08693" lon="3.08488">
        <ele>489</ele>
        <time>2019-05-12T15:23:47+02:00</time>
      </trkpt>
      <trkpt lat="44.08692" lon="3.08502">
        <ele>489</ele>
        <time>2019-05-12T15:25:43+02:00</time>
      </trkpt>
      <trkpt lat="44.08687" lon="3.08491">
        <ele>490</ele>
        <time>2019-05-12T15:27:01+02:00</time>
      </trkpt>
      <trkpt lat="44.08692" lon="3.08481">
        <ele>489</ele>
        <time>2019-05-12T15:28:24+02:00</time>
      </trkpt>
      <trkpt lat="44.08701" lon="3.08484">
        <ele>488</ele>
        <time>2019-05-12T15:33:14+02:00</time>
      </trkpt>
      <trkpt lat="44.08708" lon="3.08474">
        <ele>487</ele>
        <time>2019-05-12T15:33:25+02:00</time>
      </trkpt>
      <trkpt lat="44.08714" lon="3.08464">
        <ele>485</ele>
        <time>2019-05-12T15:33:33+02:00</time>
      </trkpt>
      <trkpt lat="44.08718" lon="3.08453">
        <ele>485</ele>
        <time>2019-05-12T15:33:41+02:00</time>
      </trkpt>
      <trkpt lat="44.08722" lon="3.0844">
        <ele>484</ele>
        <time>2019-05-12T15:33:50+02:00</time>
      </trkpt>
      <trkpt lat="44.08722" lon="3.08427">
        <ele>483</ele>
        <time>2019-05-12T15:33:58+02:00</time>
      </trkpt>
      <trkpt lat="44.0872" lon="3.08414">
        <ele>483</ele>
        <time>2019-05-12T15:34:05+02:00</time>
      </trkpt>
      <trkpt lat="44.08717" lon="3.084">
        <ele>483</ele>
        <time>2019-05-12T15:34:13+02:00</time>
      </trkpt>
      <trkpt lat="44.08711" lon="3.0839">
        <ele>483</ele>
        <time>2019-05-12T15:34:21+02:00</time>
      </trkpt>
      <trkpt lat="44.08704" lon="3.0838">
        <ele>484</ele>
        <time>2019-05-12T15:34:29+02:00</time>
      </trkpt>
      <trkpt lat="44.08697" lon="3.08369">
        <ele>484</ele>
        <time>2019-05-12T15:34:38+02:00</time>
      </trkpt>
      <trkpt lat="44.08692" lon="3.08357">
        <ele>485</ele>
        <time>2019-05-12T15:34:46+02:00</time>
      </trkpt>
      <trkpt lat="44.08686" lon="3.08347">
        <ele>485</ele>
        <time>2019-05-12T15:34:54+02:00</time>
      </trkpt>
      <trkpt lat="44.0868" lon="3.08338">
        <ele>486</ele>
        <time>2019-05-12T15:35:06+02:00</time>
      </trkpt>
      <trkpt lat="44.08675" lon="3.08326">
        <ele>486</ele>
        <time>2019-05-12T15:35:14+02:00</time>
      </trkpt>
      <trkpt lat="44.08677" lon="3.08313">
        <ele>485</ele>
        <time>2019-05-12T15:35:34+02:00</time>
      </trkpt>
      <trkpt lat="44.08676" lon="3.083">
        <ele>485</ele>
        <time>2019-05-12T15:35:42+02:00</time>
      </trkpt>
      <trkpt lat="44.08674" lon="3.08287">
        <ele>485</ele>
        <time>2019-05-12T15:35:56+02:00</time>
      </trkpt>
      <trkpt lat="44.08671" lon="3.08274">
        <ele>486</ele>
        <time>2019-05-12T15:36:01+02:00</time>
      </trkpt>
      <trkpt lat="44.08669" lon="3.08261">
        <ele>486</ele>
        <time>2019-05-12T15:36:10+02:00</time>
      </trkpt>
      <trkpt lat="44.08666" lon="3.08248">
        <ele>486</ele>
        <time>2019-05-12T15:36:20+02:00</time>
      </trkpt>
      <trkpt lat="44.0866" lon="3.08236">
        <ele>488</ele>
        <time>2019-05-12T15:36:33+02:00</time>
      </trkpt>
      <trkpt lat="44.08657" lon="3.08224">
        <ele>489</ele>
        <time>2019-05-12T15:36:43+02:00</time>
      </trkpt>
      <trkpt lat="44.0865" lon="3.08214">
        <ele>490</ele>
        <time>2019-05-12T15:36:54+02:00</time>
      </trkpt>
      <trkpt lat="44.08646" lon="3.08203">
        <ele>492</ele>
        <time>2019-05-12T15:37:04+02:00</time>
      </trkpt>
      <trkpt lat="44.08644" lon="3.0819">
        <ele>492</ele>
        <time>2019-05-12T15:37:10+02:00</time>
      </trkpt>
      <trkpt lat="44.08641" lon="3.08176">
        <ele>492</ele>
        <time>2019-05-12T15:37:17+02:00</time>
      </trkpt>
      <trkpt lat="44.08639" lon="3.08164">
        <ele>493</ele>
        <time>2019-05-12T15:37:25+02:00</time>
      </trkpt>
      <trkpt lat="44.08638" lon="3.0815">
        <ele>494</ele>
        <time>2019-05-12T15:37:37+02:00</time>
      </trkpt>
      <trkpt lat="44.08637" lon="3.08136">
        <ele>494</ele>
        <time>2019-05-12T15:37:45+02:00</time>
      </trkpt>
      <trkpt lat="44.08637" lon="3.08122">
        <ele>494</ele>
        <time>2019-05-12T15:37:56+02:00</time>
      </trkpt>
      <trkpt lat="44.08636" lon="3.08108">
        <ele>495</ele>
        <time>2019-05-12T15:38:05+02:00</time>
      </trkpt>
      <trkpt lat="44.08638" lon="3.08095">
        <ele>494</ele>
        <time>2019-05-12T15:38:13+02:00</time>
      </trkpt>
      <trkpt lat="44.08642" lon="3.08084">
        <ele>493</ele>
        <time>2019-05-12T15:38:22+02:00</time>
      </trkpt>
      <trkpt lat="44.08644" lon="3.08071">
        <ele>493</ele>
        <time>2019-05-12T15:38:30+02:00</time>
      </trkpt>
      <trkpt lat="44.08646" lon="3.08057">
        <ele>493</ele>
        <time>2019-05-12T15:38:38+02:00</time>
      </trkpt>
      <trkpt lat="44.08647" lon="3.08044">
        <ele>493</ele>
        <time>2019-05-12T15:38:45+02:00</time>
      </trkpt>
      <trkpt lat="44.08649" lon="3.0803">
        <ele>493</ele>
        <time>2019-05-12T15:38:55+02:00</time>
      </trkpt>
      <trkpt lat="44.08649" lon="3.08016">
        <ele>493</ele>
        <time>2019-05-12T15:39:02+02:00</time>
      </trkpt>
      <trkpt lat="44.08645" lon="3.08005">
        <ele>495</ele>
        <time>2019-05-12T15:41:48+02:00</time>
      </trkpt>
      <trkpt lat="44.08646" lon="3.07992">
        <ele>495</ele>
        <time>2019-05-12T15:41:59+02:00</time>
      </trkpt>
      <trkpt lat="44.0865" lon="3.0798">
        <ele>494</ele>
        <time>2019-05-12T15:42:08+02:00</time>
      </trkpt>
      <trkpt lat="44.08652" lon="3.07966">
        <ele>493</ele>
        <time>2019-05-12T15:42:18+02:00</time>
      </trkpt>
      <trkpt lat="44.08653" lon="3.07953">
        <ele>494</ele>
        <time>2019-05-12T15:42:25+02:00</time>
      </trkpt>
      <trkpt lat="44.08653" lon="3.07941">
        <ele>494</ele>
        <time>2019-05-12T15:42:34+02:00</time>
      </trkpt>
      <trkpt lat="44.08653" lon="3.07928">
        <ele>494</ele>
        <time>2019-05-12T15:42:42+02:00</time>
      </trkpt>
      <trkpt lat="44.08654" lon="3.07915">
        <ele>494</ele>
        <time>2019-05-12T15:42:50+02:00</time>
      </trkpt>
      <trkpt lat="44.08654" lon="3.07901">
        <ele>493</ele>
        <time>2019-05-12T15:42:58+02:00</time>
      </trkpt>
      <trkpt lat="44.08655" lon="3.07888">
        <ele>492</ele>
        <time>2019-05-12T15:43:04+02:00</time>
      </trkpt>
      <trkpt lat="44.08655" lon="3.07876">
        <ele>491</ele>
        <time>2019-05-12T15:43:15+02:00</time>
      </trkpt>
      <trkpt lat="44.08652" lon="3.07862">
        <ele>492</ele>
        <time>2019-05-12T15:43:28+02:00</time>
      </trkpt>
      <trkpt lat="44.08648" lon="3.07851">
        <ele>493</ele>
        <time>2019-05-12T15:43:35+02:00</time>
      </trkpt>
      <trkpt lat="44.08641" lon="3.07841">
        <ele>495</ele>
        <time>2019-05-12T15:43:42+02:00</time>
      </trkpt>
      <trkpt lat="44.08634" lon="3.07833">
        <ele>498</ele>
        <time>2019-05-12T15:43:49+02:00</time>
      </trkpt>
      <trkpt lat="44.08627" lon="3.07824">
        <ele>499</ele>
        <time>2019-05-12T15:43:58+02:00</time>
      </trkpt>
      <trkpt lat="44.0862" lon="3.07816">
        <ele>501</ele>
        <time>2019-05-12T15:44:06+02:00</time>
      </trkpt>
      <trkpt lat="44.08614" lon="3.07805">
        <ele>502</ele>
        <time>2019-05-12T15:44:16+02:00</time>
      </trkpt>
      <trkpt lat="44.08609" lon="3.07794">
        <ele>503</ele>
        <time>2019-05-12T15:44:24+02:00</time>
      </trkpt>
      <trkpt lat="44.08603" lon="3.07784">
        <ele>504</ele>
        <time>2019-05-12T15:44:34+02:00</time>
      </trkpt>
      <trkpt lat="44.08597" lon="3.07773">
        <ele>505</ele>
        <time>2019-05-12T15:44:42+02:00</time>
      </trkpt>
      <trkpt lat="44.08591" lon="3.07762">
        <ele>506</ele>
        <time>2019-05-12T15:44:50+02:00</time>
      </trkpt>
      <trkpt lat="44.08585" lon="3.07752">
        <ele>507</ele>
        <time>2019-05-12T15:45:00+02:00</time>
      </trkpt>
      <trkpt lat="44.08584" lon="3.07738">
        <ele>508</ele>
        <time>2019-05-12T15:45:10+02:00</time>
      </trkpt>
      <trkpt lat="44.08585" lon="3.07725">
        <ele>507</ele>
        <time>2019-05-12T15:45:20+02:00</time>
      </trkpt>
      <trkpt lat="44.08589" lon="3.07714">
        <ele>505</ele>
        <time>2019-05-12T15:45:26+02:00</time>
      </trkpt>
      <trkpt lat="44.08592" lon="3.07701">
        <ele>504</ele>
        <time>2019-05-12T15:45:35+02:00</time>
      </trkpt>
      <trkpt lat="44.08598" lon="3.0769">
        <ele>501</ele>
        <time>2019-05-12T15:45:43+02:00</time>
      </trkpt>
      <trkpt lat="44.08603" lon="3.07678">
        <ele>499</ele>
        <time>2019-05-12T15:45:52+02:00</time>
      </trkpt>
      <trkpt lat="44.08606" lon="3.07666">
        <ele>498</ele>
        <time>2019-05-12T15:46:00+02:00</time>
      </trkpt>
      <trkpt lat="44.08608" lon="3.07653">
        <ele>498</ele>
        <time>2019-05-12T15:46:08+02:00</time>
      </trkpt>
      <trkpt lat="44.08608" lon="3.0764">
        <ele>499</ele>
        <time>2019-05-12T15:46:18+02:00</time>
      </trkpt>
      <trkpt lat="44.08612" lon="3.07629">
        <ele>499</ele>
        <time>2019-05-12T15:46:25+02:00</time>
      </trkpt>
      <trkpt lat="44.08611" lon="3.07615">
        <ele>500</ele>
        <time>2019-05-12T15:46:36+02:00</time>
      </trkpt>
      <trkpt lat="44.08607" lon="3.07602">
        <ele>503</ele>
        <time>2019-05-12T15:46:46+02:00</time>
      </trkpt>
      <trkpt lat="44.08605" lon="3.07589">
        <ele>505</ele>
        <time>2019-05-12T15:46:55+02:00</time>
      </trkpt>
      <trkpt lat="44.08599" lon="3.07577">
        <ele>507</ele>
        <time>2019-05-12T15:47:05+02:00</time>
      </trkpt>
      <trkpt lat="44.08596" lon="3.07565">
        <ele>509</ele>
        <time>2019-05-12T15:47:14+02:00</time>
      </trkpt>
      <trkpt lat="44.08591" lon="3.07554">
        <ele>511</ele>
        <time>2019-05-12T15:47:22+02:00</time>
      </trkpt>
      <trkpt lat="44.08585" lon="3.07543">
        <ele>512</ele>
        <time>2019-05-12T15:47:33+02:00</time>
      </trkpt>
      <trkpt lat="44.08578" lon="3.07534">
        <ele>514</ele>
        <time>2019-05-12T15:47:45+02:00</time>
      </trkpt>
      <trkpt lat="44.08575" lon="3.07523">
        <ele>515</ele>
        <time>2019-05-12T15:47:54+02:00</time>
      </trkpt>
      <trkpt lat="44.08569" lon="3.07513">
        <ele>517</ele>
        <time>2019-05-12T15:48:05+02:00</time>
      </trkpt>
      <trkpt lat="44.08563" lon="3.07502">
        <ele>518</ele>
        <time>2019-05-12T15:48:14+02:00</time>
      </trkpt>
      <trkpt lat="44.08559" lon="3.07489">
        <ele>519</ele>
        <time>2019-05-12T15:48:24+02:00</time>
      </trkpt>
      <trkpt lat="44.08555" lon="3.07477">
        <ele>519</ele>
        <time>2019-05-12T15:48:34+02:00</time>
      </trkpt>
      <trkpt lat="44.08554" lon="3.07462">
        <ele>519</ele>
        <time>2019-05-12T15:48:42+02:00</time>
      </trkpt>
      <trkpt lat="44.08551" lon="3.07448">
        <ele>519</ele>
        <time>2019-05-12T15:48:51+02:00</time>
      </trkpt>
      <trkpt lat="44.08548" lon="3.07436">
        <ele>519</ele>
        <time>2019-05-12T15:49:01+02:00</time>
      </trkpt>
      <trkpt lat="44.08549" lon="3.07424">
        <ele>519</ele>
        <time>2019-05-12T15:49:09+02:00</time>
      </trkpt>
      <trkpt lat="44.08549" lon="3.0741">
        <ele>518</ele>
        <time>2019-05-12T15:49:24+02:00</time>
      </trkpt>
      <trkpt lat="44.08548" lon="3.07396">
        <ele>518</ele>
        <time>2019-05-12T15:49:43+02:00</time>
      </trkpt>
      <trkpt lat="44.08549" lon="3.07382">
        <ele>517</ele>
        <time>2019-05-12T15:49:51+02:00</time>
      </trkpt>
      <trkpt lat="44.08548" lon="3.07366">
        <ele>516</ele>
        <time>2019-05-12T15:50:00+02:00</time>
      </trkpt>
      <trkpt lat="44.08546" lon="3.07351">
        <ele>515</ele>
        <time>2019-05-12T15:50:06+02:00</time>
      </trkpt>
      <trkpt lat="44.08546" lon="3.07339">
        <ele>515</ele>
        <time>2019-05-12T15:50:16+02:00</time>
      </trkpt>
      <trkpt lat="44.08546" lon="3.07325">
        <ele>514</ele>
        <time>2019-05-12T15:50:23+02:00</time>
      </trkpt>
      <trkpt lat="44.08545" lon="3.07313">
        <ele>513</ele>
        <time>2019-05-12T15:50:32+02:00</time>
      </trkpt>
      <trkpt lat="44.08544" lon="3.07299">
        <ele>512</ele>
        <time>2019-05-12T15:50:39+02:00</time>
      </trkpt>
      <trkpt lat="44.08541" lon="3.07285">
        <ele>511</ele>
        <time>2019-05-12T15:50:48+02:00</time>
      </trkpt>
      <trkpt lat="44.0854" lon="3.07271">
        <ele>510</ele>
        <time>2019-05-12T15:50:56+02:00</time>
      </trkpt>
      <trkpt lat="44.08541" lon="3.07258">
        <ele>509</ele>
        <time>2019-05-12T15:51:02+02:00</time>
      </trkpt>
      <trkpt lat="44.0854" lon="3.07244">
        <ele>508</ele>
        <time>2019-05-12T15:51:10+02:00</time>
      </trkpt>
      <trkpt lat="44.08538" lon="3.07231">
        <ele>507</ele>
        <time>2019-05-12T15:51:17+02:00</time>
      </trkpt>
      <trkpt lat="44.08536" lon="3.07247">
        <ele>508</ele>
        <time>2019-05-12T15:51:25+02:00</time>
      </trkpt>
      <trkpt lat="44.0853" lon="3.07237">
        <ele>508</ele>
        <time>2019-05-12T15:51:32+02:00</time>
      </trkpt>
      <trkpt lat="44.08527" lon="3.07223">
        <ele>506</ele>
        <time>2019-05-12T15:51:35+02:00</time>
      </trkpt>
      <trkpt lat="44.08525" lon="3.07209">
        <ele>505</ele>
        <time>2019-05-12T15:51:39+02:00</time>
      </trkpt>
      <trkpt lat="44.08523" lon="3.07196">
        <ele>503</ele>
        <time>2019-05-12T15:51:44+02:00</time>
      </trkpt>
      <trkpt lat="44.0852" lon="3.07183">
        <ele>502</ele>
        <time>2019-05-12T15:51:55+02:00</time>
      </trkpt>
      <trkpt lat="44.08518" lon="3.0717">
        <ele>501</ele>
        <time>2019-05-12T15:52:01+02:00</time>
      </trkpt>
      <trkpt lat="44.08516" lon="3.07157">
        <ele>499</ele>
        <time>2019-05-12T15:52:08+02:00</time>
      </trkpt>
      <trkpt lat="44.08513" lon="3.07145">
        <ele>498</ele>
        <time>2019-05-12T15:52:15+02:00</time>
      </trkpt>
      <trkpt lat="44.08511" lon="3.07132">
        <ele>496</ele>
        <time>2019-05-12T15:52:23+02:00</time>
      </trkpt>
      <trkpt lat="44.08506" lon="3.0712">
        <ele>495</ele>
        <time>2019-05-12T15:52:32+02:00</time>
      </trkpt>
      <trkpt lat="44.08503" lon="3.07108">
        <ele>494</ele>
        <time>2019-05-12T15:52:40+02:00</time>
      </trkpt>
      <trkpt lat="44.08499" lon="3.07095">
        <ele>493</ele>
        <time>2019-05-12T15:52:48+02:00</time>
      </trkpt>
      <trkpt lat="44.08495" lon="3.07083">
        <ele>492</ele>
        <time>2019-05-12T15:52:56+02:00</time>
      </trkpt>
      <trkpt lat="44.08491" lon="3.07071">
        <ele>490</ele>
        <time>2019-05-12T15:53:05+02:00</time>
      </trkpt>
      <trkpt lat="44.08488" lon="3.07058">
        <ele>488</ele>
        <time>2019-05-12T15:53:12+02:00</time>
      </trkpt>
      <trkpt lat="44.08485" lon="3.07047">
        <ele>487</ele>
        <time>2019-05-12T15:53:19+02:00</time>
      </trkpt>
      <trkpt lat="44.08482" lon="3.07033">
        <ele>485</ele>
        <time>2019-05-12T15:53:26+02:00</time>
      </trkpt>
      <trkpt lat="44.08478" lon="3.07022">
        <ele>484</ele>
        <time>2019-05-12T15:53:33+02:00</time>
      </trkpt>
      <trkpt lat="44.08473" lon="3.07011">
        <ele>482</ele>
        <time>2019-05-12T15:53:42+02:00</time>
      </trkpt>
      <trkpt lat="44.08467" lon="3.07">
        <ele>482</ele>
        <time>2019-05-12T15:53:49+02:00</time>
      </trkpt>
      <trkpt lat="44.08461" lon="3.06991">
        <ele>481</ele>
        <time>2019-05-12T15:53:56+02:00</time>
      </trkpt>
      <trkpt lat="44.08452" lon="3.06983">
        <ele>481</ele>
        <time>2019-05-12T15:54:04+02:00</time>
      </trkpt>
      <trkpt lat="44.08446" lon="3.06973">
        <ele>481</ele>
        <time>2019-05-12T15:54:15+02:00</time>
      </trkpt>
      <trkpt lat="44.0844" lon="3.06963">
        <ele>480</ele>
        <time>2019-05-12T15:54:22+02:00</time>
      </trkpt>
      <trkpt lat="44.08436" lon="3.06949">
        <ele>479</ele>
        <time>2019-05-12T15:54:36+02:00</time>
      </trkpt>
      <trkpt lat="44.08434" lon="3.06937">
        <ele>477</ele>
        <time>2019-05-12T15:54:40+02:00</time>
      </trkpt>
      <trkpt lat="44.08432" lon="3.06924">
        <ele>475</ele>
        <time>2019-05-12T15:54:46+02:00</time>
      </trkpt>
      <trkpt lat="44.08434" lon="3.06909">
        <ele>473</ele>
        <time>2019-05-12T15:54:54+02:00</time>
      </trkpt>
      <trkpt lat="44.08438" lon="3.06897">
        <ele>471</ele>
        <time>2019-05-12T15:55:02+02:00</time>
      </trkpt>
      <trkpt lat="44.08444" lon="3.06911">
        <ele>471</ele>
        <time>2019-05-12T15:55:08+02:00</time>
      </trkpt>
      <trkpt lat="44.08446" lon="3.06924">
        <ele>473</ele>
        <time>2019-05-12T15:55:15+02:00</time>
      </trkpt>
      <trkpt lat="44.08437" lon="3.06898">
        <ele>472</ele>
        <time>2019-05-12T15:55:33+02:00</time>
      </trkpt>
      <trkpt lat="44.08437" lon="3.06885">
        <ele>471</ele>
        <time>2019-05-12T15:55:39+02:00</time>
      </trkpt>
      <trkpt lat="44.08436" lon="3.06872">
        <ele>470</ele>
        <time>2019-05-12T15:55:47+02:00</time>
      </trkpt>
      <trkpt lat="44.08432" lon="3.0686">
        <ele>469</ele>
        <time>2019-05-12T15:55:55+02:00</time>
      </trkpt>
      <trkpt lat="44.08428" lon="3.06848">
        <ele>469</ele>
        <time>2019-05-12T15:56:04+02:00</time>
      </trkpt>
      <trkpt lat="44.08428" lon="3.06835">
        <ele>468</ele>
        <time>2019-05-12T15:56:13+02:00</time>
      </trkpt>
      <trkpt lat="44.08465" lon="3.06601">
        <ele>441</ele>
        <time>2019-05-12T15:59:08+02:00</time>
      </trkpt>
      <trkpt lat="44.08466" lon="3.06588">
        <ele>440</ele>
        <time>2019-05-12T15:59:10+02:00</time>
      </trkpt>
      <trkpt lat="44.08466" lon="3.06575">
        <ele>438</ele>
        <time>2019-05-12T15:59:18+02:00</time>
      </trkpt>
      <trkpt lat="44.08472" lon="3.06565">
        <ele>436</ele>
        <time>2019-05-12T15:59:25+02:00</time>
      </trkpt>
      <trkpt lat="44.08478" lon="3.06554">
        <ele>434</ele>
        <time>2019-05-12T15:59:33+02:00</time>
      </trkpt>
      <trkpt lat="44.08485" lon="3.06543">
        <ele>432</ele>
        <time>2019-05-12T15:59:43+02:00</time>
      </trkpt>
      <trkpt lat="44.08489" lon="3.06529">
        <ele>431</ele>
        <time>2019-05-12T15:59:51+02:00</time>
      </trkpt>
      <trkpt lat="44.08496" lon="3.06519">
        <ele>429</ele>
        <time>2019-05-12T16:00:02+02:00</time>
      </trkpt>
      <trkpt lat="44.085" lon="3.06506">
        <ele>428</ele>
        <time>2019-05-12T16:00:13+02:00</time>
      </trkpt>
      <trkpt lat="44.08502" lon="3.06494">
        <ele>426</ele>
        <time>2019-05-12T16:00:20+02:00</time>
      </trkpt>
      <trkpt lat="44.08505" lon="3.06481">
        <ele>423</ele>
        <time>2019-05-12T16:00:29+02:00</time>
      </trkpt>
      <trkpt lat="44.08509" lon="3.06468">
        <ele>421</ele>
        <time>2019-05-12T16:00:36+02:00</time>
      </trkpt>
      <trkpt lat="44.08518" lon="3.06462">
        <ele>419</ele>
        <time>2019-05-12T16:00:53+02:00</time>
      </trkpt>
      <trkpt lat="44.08518" lon="3.06449">
        <ele>417</ele>
        <time>2019-05-12T16:01:52+02:00</time>
      </trkpt>
      <trkpt lat="44.08517" lon="3.06435">
        <ele>415</ele>
        <time>2019-05-12T16:01:59+02:00</time>
      </trkpt>
      <trkpt lat="44.0852" lon="3.06422">
        <ele>413</ele>
        <time>2019-05-12T16:02:07+02:00</time>
      </trkpt>
      <trkpt lat="44.08521" lon="3.06409">
        <ele>411</ele>
        <time>2019-05-12T16:02:16+02:00</time>
      </trkpt>
      <trkpt lat="44.08523" lon="3.06396">
        <ele>408</ele>
        <time>2019-05-12T16:02:24+02:00</time>
      </trkpt>
      <trkpt lat="44.08526" lon="3.06383">
        <ele>406</ele>
        <time>2019-05-12T16:02:31+02:00</time>
      </trkpt>
      <trkpt lat="44.08529" lon="3.06371">
        <ele>403</ele>
        <time>2019-05-12T16:02:40+02:00</time>
      </trkpt>
      <trkpt lat="44.08533" lon="3.06358">
        <ele>401</ele>
        <time>2019-05-12T16:02:49+02:00</time>
      </trkpt>
      <trkpt lat="44.08534" lon="3.06345">
        <ele>399</ele>
        <time>2019-05-12T16:02:57+02:00</time>
      </trkpt>
      <trkpt lat="44.08535" lon="3.06332">
        <ele>397</ele>
        <time>2019-05-12T16:03:06+02:00</time>
      </trkpt>
      <trkpt lat="44.08541" lon="3.06342">
        <ele>398</ele>
        <time>2019-05-12T16:03:43+02:00</time>
      </trkpt>
      <trkpt lat="44.08537" lon="3.06328">
        <ele>396</ele>
        <time>2019-05-12T16:04:00+02:00</time>
      </trkpt>
      <trkpt lat="44.08539" lon="3.06314">
        <ele>394</ele>
        <time>2019-05-12T16:04:06+02:00</time>
      </trkpt>
      <trkpt lat="44.08545" lon="3.06304">
        <ele>392</ele>
        <time>2019-05-12T16:04:10+02:00</time>
      </trkpt>
      <trkpt lat="44.08551" lon="3.06293">
        <ele>391</ele>
        <time>2019-05-12T16:04:16+02:00</time>
      </trkpt>
      <trkpt lat="44.08555" lon="3.06279">
        <ele>389</ele>
        <time>2019-05-12T16:04:22+02:00</time>
      </trkpt>
      <trkpt lat="44.08558" lon="3.06267">
        <ele>387</ele>
        <time>2019-05-12T16:04:36+02:00</time>
      </trkpt>
      <trkpt lat="44.08554" lon="3.06256">
        <ele>386</ele>
        <time>2019-05-12T16:04:49+02:00</time>
      </trkpt>
      <trkpt lat="44.08545" lon="3.06249">
        <ele>385</ele>
        <time>2019-05-12T16:05:01+02:00</time>
      </trkpt>
      <trkpt lat="44.08537" lon="3.0626">
        <ele>386</ele>
        <time>2019-05-12T16:05:05+02:00</time>
      </trkpt>
      <trkpt lat="44.08531" lon="3.0625">
        <ele>384</ele>
        <time>2019-05-12T16:05:19+02:00</time>
      </trkpt>
      <trkpt lat="44.08521" lon="3.06248">
        <ele>384</ele>
        <time>2019-05-12T16:05:31+02:00</time>
      </trkpt>
      <trkpt lat="44.08512" lon="3.06248">
        <ele>383</ele>
        <time>2019-05-12T16:05:37+02:00</time>
      </trkpt>
      <trkpt lat="44.08505" lon="3.06236">
        <ele>383</ele>
        <time>2019-05-12T16:05:45+02:00</time>
      </trkpt>
      <trkpt lat="44.08498" lon="3.06229">
        <ele>383</ele>
        <time>2019-05-12T16:05:54+02:00</time>
      </trkpt>
      <trkpt lat="44.08506" lon="3.06222">
        <ele>382</ele>
        <time>2019-05-12T16:06:03+02:00</time>
      </trkpt>
      <trkpt lat="44.08511" lon="3.06211">
        <ele>382</ele>
        <time>2019-05-12T16:06:12+02:00</time>
      </trkpt>
      <trkpt lat="44.08514" lon="3.06198">
        <ele>382</ele>
        <time>2019-05-12T16:06:18+02:00</time>
      </trkpt>
      <trkpt lat="44.08521" lon="3.06189">
        <ele>382</ele>
        <time>2019-05-12T16:06:26+02:00</time>
      </trkpt>
      <trkpt lat="44.0853" lon="3.06187">
        <ele>382</ele>
        <time>2019-05-12T16:06:35+02:00</time>
      </trkpt>
      <trkpt lat="44.0854" lon="3.06184">
        <ele>382</ele>
        <time>2019-05-12T16:06:44+02:00</time>
      </trkpt>
    </trkseg>
  </trk>
</gpx>